Darstellungsparameter: Aktuell verwendete Einstellungen:
Skalierung der Graphiken ... ?
xyx+y,   Skalierungsfaktor:      Skalierung: Modus: x, Faktor: 1
Darstellungszeitraum ... ?
Vom - - bis: - -   Zeitraum: 15.07.2021 - 14.10.2021
Min/Max/Avg-Anzeige ... ?
Zeige MMA aktuell
Zeige MMA Monat
Zeige MMA alles
Zeige --A aktuell
Zeige --A Monat
Zeige --A alles
Keine MMA-Anzeige
MMA:
Average (ber die Originaldaten)
MMA-Basis: 15.07.2021 - 14.10.2021
Quicknavigation für Darstellung... ?
Tage:      1T, 2T, 3T, 5T -1T -2T -3T -5T +1T +2T +3T +5T
Wochen: 1W, 2W, 3W -1W -2W -3W +1W +2W +3W
Monate: 1M, 3M, 6M -1M -3M -6M +1M +3M +6M
Jahre:    1J, 3J, 5J, 10J -1J -3J -5J -10J +1J +3J +5J +10J
Nutze für die Darstellung ... ?
Originaldaten oder ...
Mittelwerte Minima Maxima auf...
Stundenbasis Tagesbasis Wochenbasis
Monatsbasis Jahresbasis      Datenbasis: Mittelwerte auf Stundenbasis
Darstellen als:
Statistik (Auto) Statistik J:M      Darstellung:
Zur Graphik,    zurück zur Übersicht aller Sensoren.
 
Tabellarische Datenbersicht: ?
 
Sensor: Nr:Datum:Temp:Abs-Feuchte:Windchill:Wind:
Aussen-T/F 1 15-07-2021 00:00:00 15.05 C 12.48 g/m*3 15.05 C 0 km/h
2 15-07-2021 01:00:00 15.425 C 12.76 g/m*3 15.43 C 0 km/h
3 15-07-2021 02:00:00 15.45 C 12.78 g/m*3 15.45 C 0 km/h
4 15-07-2021 03:00:00 15.3 C 12.73 g/m*3 15.3 C 0 km/h
5 15-07-2021 04:00:00 15.43333 C 12.9 g/m*3 15.43 C 0 km/h
6 15-07-2021 05:00:00 15.74167 C 13.15 g/m*3 15.74 C 0 km/h
7 15-07-2021 06:00:00 15.975 C 13.33 g/m*3 15.98 C 0 km/h
8 15-07-2021 07:00:00 16.35 C 13.64 g/m*3 16.35 C 0 km/h
9 15-07-2021 08:00:00 16.75 C 13.97 g/m*3 16.75 C 0.13333 km/h
10 15-07-2021 09:00:00 17.4 C 14.52 g/m*3 17.4 C 0 km/h
11 15-07-2021 10:00:00 17.84167 C 14.85 g/m*3 17.84 C 0 km/h
12 15-07-2021 11:00:00 18.4 C 15.11 g/m*3 18.4 C 0.13333 km/h
13 15-07-2021 12:00:00 19.40833 C 15.07 g/m*3 19.41 C 2.94167 km/h
14 15-07-2021 13:00:00 20.68333 C 14.66 g/m*3 20.68 C 5.88333 km/h
15 15-07-2021 14:00:00 21.56667 C 14.72 g/m*3 21.57 C 5.75833 km/h
16 15-07-2021 15:00:00 22.30833 C 14.57 g/m*3 22.31 C 9.14167 km/h
17 15-07-2021 16:00:00 23.85833 C 15.14 g/m*3 23.86 C 5.90833 km/h
18 15-07-2021 17:00:00 25.125 C 15.05 g/m*3 25.13 C 5.20833 km/h
19 15-07-2021 18:00:00 25.06667 C 14.6 g/m*3 25.07 C 7.93333 km/h
20 15-07-2021 19:00:00 22.90833 C 14.94 g/m*3 22.91 C 7.65 km/h
21 15-07-2021 20:00:00 21.775 C 15.33 g/m*3 21.78 C 2.26667 km/h
22 15-07-2021 21:00:00 20.24167 C 15.25 g/m*3 20.24 C 0.93333 km/h
23 15-07-2021 22:00:00 19.56667 C 15.43 g/m*3 19.57 C 1.2 km/h
24 15-07-2021 23:00:00 19.34167 C 15.53 g/m*3 19.34 C 0.8 km/h
25 16-07-2021 00:00:00 19.3 C 15.59 g/m*3 19.3 C 1.06667 km/h
Sensor: Nr:Datum:Temp:Abs-Feuchte:Windchill:Wind:
Aussen-T/F 26 16-07-2021 01:00:00 19.21667 C 15.52 g/m*3 19.22 C 1.86667 km/h
27 16-07-2021 02:00:00 19.18333 C 15.42 g/m*3 19.18 C 5.75833 km/h
28 16-07-2021 03:00:00 19.29167 C 15.42 g/m*3 19.29 C 3.74167 km/h
29 16-07-2021 04:00:00 19.125 C 15.27 g/m*3 19.13 C 4.41667 km/h
30 16-07-2021 05:00:00 18.825 C 15 g/m*3 18.83 C 3.88333 km/h
31 16-07-2021 06:00:00 18.68333 C 14.87 g/m*3 18.68 C 4.825 km/h
32 16-07-2021 07:00:00 18.225 C 14.48 g/m*3 18.23 C 8.05 km/h
33 16-07-2021 08:00:00 17.80833 C 14.12 g/m*3 17.81 C 5.5 km/h
34 16-07-2021 09:00:00 17.76667 C 14.02 g/m*3 17.77 C 5.075 km/h
35 16-07-2021 10:00:00 17.98333 C 13.89 g/m*3 17.98 C 6.30833 km/h
36 16-07-2021 11:00:00 18.025 C 13.83 g/m*3 18.02 C 8.60833 km/h
37 16-07-2021 12:00:00 17.61667 C 13.62 g/m*3 17.62 C 7.4 km/h
38 16-07-2021 13:00:00 17.775 C 13.61 g/m*3 17.77 C 7.11667 km/h
39 16-07-2021 14:00:00 18.13333 C 13.7 g/m*3 18.13 C 7.38333 km/h
40 16-07-2021 15:00:00 18.90833 C 13.75 g/m*3 18.91 C 9.275 km/h
41 16-07-2021 16:00:00 18.85 C 13.57 g/m*3 18.85 C 8.88333 km/h
42 16-07-2021 17:00:00 18.94167 C 13.45 g/m*3 18.94 C 6.98333 km/h
43 16-07-2021 18:00:00 18.85 C 13.43 g/m*3 18.85 C 6.41667 km/h
44 16-07-2021 19:00:00 18.66667 C 13.33 g/m*3 18.67 C 7.10833 km/h
45 16-07-2021 20:00:00 18.4 C 13.38 g/m*3 18.4 C 2.93333 km/h
46 16-07-2021 21:00:00 18.175 C 13.24 g/m*3 18.18 C 3.48333 km/h
47 16-07-2021 22:00:00 18.04167 C 13.23 g/m*3 18.04 C 1.33333 km/h
48 16-07-2021 23:00:00 17.8 C 13.32 g/m*3 17.8 C 1.46667 km/h
49 17-07-2021 00:00:00 17.6 C 13.49 g/m*3 17.6 C 0.4 km/h
50 17-07-2021 01:00:00 17.3 C 13.48 g/m*3 17.3 C 0 km/h
Sensor: Nr:Datum:Temp:Abs-Feuchte:Windchill:Wind:
Aussen-T/F 51 17-07-2021 02:00:00 17.05833 C 13.43 g/m*3 17.06 C 0 km/h
52 17-07-2021 03:00:00 16.85833 C 13.34 g/m*3 16.86 C 0.26667 km/h
53 17-07-2021 04:00:00 16.8 C 13.3 g/m*3 16.8 C 0.26667 km/h
54 17-07-2021 05:00:00 16.75 C 13.22 g/m*3 16.75 C 2.53333 km/h
55 17-07-2021 06:00:00 17.15 C 13.27 g/m*3 17.15 C 1.73333 km/h
56 17-07-2021 07:00:00 17.29167 C 13.4 g/m*3 17.29 C 1.06667 km/h
57 17-07-2021 08:00:00 17.525 C 13.49 g/m*3 17.52 C 2.53333 km/h
58 17-07-2021 09:00:00 17.78333 C 13.66 g/m*3 17.78 C 5.08333 km/h
59 17-07-2021 10:00:00 18.34167 C 13.71 g/m*3 18.34 C 8.2 km/h
60 17-07-2021 11:00:00 20.05 C 13.95 g/m*3 20.05 C 9 km/h
61 17-07-2021 12:00:00 20.59167 C 14.28 g/m*3 20.59 C 13.96667 km/h
62 17-07-2021 13:00:00 20.55 C 14.45 g/m*3 20.55 C 10.21667 km/h
63 17-07-2021 14:00:00 20.35833 C 14.5 g/m*3 20.36 C 10.75833 km/h
64 17-07-2021 15:00:00 20.83333 C 14.88 g/m*3 20.83 C 9.69167 km/h
65 17-07-2021 16:00:00 22.225 C 15.81 g/m*3 22.23 C 8.60833 km/h
66 17-07-2021 17:00:00 24.625 C 16.85 g/m*3 24.63 C 9.28333 km/h
67 17-07-2021 18:00:00 26.43333 C 16.75 g/m*3 26.43 C 10.9 km/h
68 17-07-2021 19:00:00 26.05 C 15.28 g/m*3 26.05 C 11.3 km/h
69 17-07-2021 20:00:00 25.14167 C 15.16 g/m*3 25.14 C 4.40833 km/h
70 17-07-2021 21:00:00 22.01667 C 15.35 g/m*3 22.02 C 1.86667 km/h
71 17-07-2021 22:00:00 19.48333 C 14.45 g/m*3 19.48 C 2.66667 km/h
72 17-07-2021 23:00:00 18.46667 C 13.94 g/m*3 18.47 C 1.6 km/h
73 18-07-2021 00:00:00 17.68333 C 13.41 g/m*3 17.68 C 2.53333 km/h
74 18-07-2021 01:00:00 17.075 C 13.02 g/m*3 17.08 C 2.13333 km/h
75 18-07-2021 02:00:00 16.43333 C 12.65 g/m*3 16.43 C 2.275 km/h
Sensor: Nr:Datum:Temp:Abs-Feuchte:Windchill:Wind:
Aussen-T/F 76 18-07-2021 03:00:00 15.65 C 12.27 g/m*3 15.65 C 2.66667 km/h
77 18-07-2021 04:00:00 15.26667 C 12.15 g/m*3 15.27 C 4.80833 km/h
78 18-07-2021 05:00:00 15.15833 C 12.2 g/m*3 15.16 C 4.53333 km/h
79 18-07-2021 06:00:00 15.48333 C 12.54 g/m*3 15.48 C 4.41667 km/h
80 18-07-2021 07:00:00 15.975 C 12.94 g/m*3 15.98 C 2.66667 km/h
81 18-07-2021 08:00:00 16.95 C 13.52 g/m*3 16.95 C 1.475 km/h
82 18-07-2021 09:00:00 18.14167 C 13.7 g/m*3 18.14 C 4.01667 km/h
83 18-07-2021 10:00:00 19.68333 C 13.95 g/m*3 19.68 C 5.49167 km/h
84 18-07-2021 11:00:00 21.24167 C 14.32 g/m*3 21.24 C 8.48333 km/h
85 18-07-2021 12:00:00 22.75833 C 14.63 g/m*3 22.76 C 10.225 km/h
86 18-07-2021 13:00:00 23.60833 C 14.58 g/m*3 23.61 C 12.23333 km/h
87 18-07-2021 14:00:00 24.53333 C 14.63 g/m*3 24.53 C 13.56667 km/h
88 18-07-2021 15:00:00 25.99167 C 14.84 g/m*3 25.99 C 13.16667 km/h
89 18-07-2021 16:00:00 27.46667 C 15.21 g/m*3 27.47 C 12.5 km/h
90 18-07-2021 17:00:00 27.85833 C 14.98 g/m*3 27.86 C 13.43333 km/h
91 18-07-2021 18:00:00 28.025 C 14.68 g/m*3 28.03 C 12.1 km/h
92 18-07-2021 19:00:00 27.09167 C 14.94 g/m*3 27.09 C 10.625 km/h
93 18-07-2021 20:00:00 25.75833 C 15.03 g/m*3 25.76 C 6.425 km/h
94 18-07-2021 21:00:00 22.48333 C 15.48 g/m*3 22.48 C 2.4 km/h
95 18-07-2021 22:00:00 20.23333 C 14.83 g/m*3 20.23 C 5.73333 km/h
96 18-07-2021 23:00:00 19.19167 C 14.43 g/m*3 19.19 C 2.66667 km/h
97 19-07-2021 00:00:00 17.96667 C 13.87 g/m*3 17.97 C 0.13333 km/h
98 19-07-2021 01:00:00 17.2 C 13.53 g/m*3 17.2 C 0.93333 km/h
99 19-07-2021 02:00:00 16.54167 C 13.09 g/m*3 16.54 C 2.66667 km/h
100 19-07-2021 03:00:00 15.78333 C 12.51 g/m*3 15.78 C 0.26667 km/h
Sensor: Nr:Datum:Temp:Abs-Feuchte:Windchill:Wind:
Aussen-T/F 101 19-07-2021 04:00:00 14.975 C 12.04 g/m*3 14.98 C 0 km/h
102 19-07-2021 05:00:00 14.675 C 11.91 g/m*3 14.68 C 0.13333 km/h
103 19-07-2021 06:00:00 14.64167 C 11.92 g/m*3 14.64 C 0 km/h
104 19-07-2021 07:00:00 14.88333 C 12.22 g/m*3 14.88 C 0.13333 km/h
105 19-07-2021 08:00:00 16.03333 C 13.2 g/m*3 16.03 C 0.53333 km/h
106 19-07-2021 09:00:00 17.875 C 13.9 g/m*3 17.88 C 3.6 km/h
107 19-07-2021 10:00:00 20.20833 C 13.72 g/m*3 20.21 C 9.96667 km/h
108 19-07-2021 11:00:00 20.83333 C 13.38 g/m*3 20.83 C 8.475 km/h
109 19-07-2021 12:00:00 21.50833 C 13.46 g/m*3 21.51 C 10.35833 km/h
110 19-07-2021 13:00:00 22.13333 C 13.45 g/m*3 22.13 C 8.33333 km/h
111 19-07-2021 14:00:00 22.68333 C 13.56 g/m*3 22.68 C 12.1 km/h
112 19-07-2021 15:00:00 23.39167 C 13.61 g/m*3 23.39 C 13.56667 km/h
113 19-07-2021 16:00:00 24.34167 C 13.35 g/m*3 24.34 C 12.35833 km/h
114 19-07-2021 17:00:00 23.43333 C 13.2 g/m*3 23.43 C 13.43333 km/h
115 19-07-2021 18:00:00 22.86667 C 12.95 g/m*3 22.87 C 13.96667 km/h
116 19-07-2021 19:00:00 21.575 C 12.5 g/m*3 21.58 C 10.35833 km/h
117 19-07-2021 20:00:00 20.75 C 12.14 g/m*3 20.75 C 3.475 km/h
118 19-07-2021 21:00:00 18.64167 C 12.41 g/m*3 18.64 C 0.66667 km/h
119 19-07-2021 22:00:00 16.425 C 12 g/m*3 16.43 C 2.66667 km/h
120 19-07-2021 23:00:00 15.38333 C 11.7 g/m*3 15.38 C 0.4 km/h
121 20-07-2021 00:00:00 14.31667 C 11.25 g/m*3 14.32 C 0 km/h
122 20-07-2021 01:00:00 13.6 C 10.97 g/m*3 13.6 C 0 km/h
123 20-07-2021 02:00:00 13.15 C 10.77 g/m*3 13.15 C 0 km/h
124 20-07-2021 03:00:00 12.675 C 10.55 g/m*3 12.68 C 0 km/h
125 20-07-2021 04:00:00 12.25 C 10.28 g/m*3 12.25 C 0 km/h
Sensor: Nr:Datum:Temp:Abs-Feuchte:Windchill:Wind:
Aussen-T/F 126 20-07-2021 05:00:00 11.83333 C 10.03 g/m*3 11.83 C 0 km/h
127 20-07-2021 06:00:00 11.775 C 10.09 g/m*3 11.78 C 0.26667 km/h
128 20-07-2021 07:00:00 12.31667 C 10.47 g/m*3 12.32 C 1.46667 km/h
129 20-07-2021 08:00:00 13 C 11 g/m*3 13 C 0.93333 km/h
130 20-07-2021 09:00:00 14.08333 C 11.72 g/m*3 14.08 C 1.2 km/h
131 20-07-2021 10:00:00 16.04167 C 12.65 g/m*3 16.04 C 2.66667 km/h
132 20-07-2021 11:00:00 18.61667 C 12.05 g/m*3 18.62 C 4.81667 km/h
133 20-07-2021 12:00:00 20.05 C 11.9 g/m*3 20.05 C 7.65 km/h
134 20-07-2021 13:00:00 20.66667 C 11.87 g/m*3 20.67 C 4.68333 km/h
135 20-07-2021 14:00:00 21.75833 C 11.6 g/m*3 21.76 C 7.79167 km/h
136 20-07-2021 15:00:00 23.125 C 11.92 g/m*3 23.13 C 8.85833 km/h
137 20-07-2021 16:00:00 25.39167 C 11.96 g/m*3 25.39 C 8.075 km/h
138 20-07-2021 17:00:00 25.84167 C 11.8 g/m*3 25.84 C 8.49167 km/h
139 20-07-2021 18:00:00 25.58333 C 11.52 g/m*3 25.58 C 9.15 km/h
140 20-07-2021 19:00:00 24.29167 C 11.48 g/m*3 24.29 C 6.825 km/h
141 20-07-2021 20:00:00 22.95833 C 11.96 g/m*3 22.96 C 3.475 km/h
142 20-07-2021 21:00:00 19.24167 C 12.42 g/m*3 19.24 C 4.3 km/h
143 20-07-2021 22:00:00 17.14167 C 11.76 g/m*3 17.14 C 6.69167 km/h
144 20-07-2021 23:00:00 16.075 C 11.51 g/m*3 16.08 C 1.2 km/h
145 21-07-2021 00:00:00 14.95833 C 11.16 g/m*3 14.96 C 0 km/h
146 21-07-2021 01:00:00 13.725 C 10.64 g/m*3 13.73 C 0.13333 km/h
147 21-07-2021 02:00:00 12.94167 C 10.25 g/m*3 12.94 C 0.26667 km/h
148 21-07-2021 03:00:00 12.35 C 9.99 g/m*3 12.35 C 0.26667 km/h
149 21-07-2021 04:00:00 11.73333 C 9.75 g/m*3 11.73 C 0 km/h
150 21-07-2021 05:00:00 11.2 C 9.52 g/m*3 11.2 C 0 km/h
Sensor: Nr:Datum:Temp:Abs-Feuchte:Windchill:Wind:
Aussen-T/F 151 21-07-2021 06:00:00 10.95833 C 9.44 g/m*3 10.96 C 0 km/h
152 21-07-2021 07:00:00 11.6 C 9.93 g/m*3 11.6 C 0 km/h
153 21-07-2021 08:00:00 12.60833 C 10.63 g/m*3 12.61 C 0 km/h
154 21-07-2021 09:00:00 13.80833 C 11.44 g/m*3 13.81 C 0.13333 km/h
155 21-07-2021 10:00:00 15.89167 C 12.28 g/m*3 15.89 C 2 km/h
156 21-07-2021 11:00:00 19.4 C 11.64 g/m*3 19.4 C 5.65 km/h
157 21-07-2021 12:00:00 21.08333 C 10.58 g/m*3 21.08 C 10.1 km/h
158 21-07-2021 13:00:00 21.875 C 10.85 g/m*3 21.88 C 6.05 km/h
159 21-07-2021 14:00:00 22.625 C 11 g/m*3 22.63 C 7.65833 km/h
160 21-07-2021 15:00:00 24.16667 C 11.02 g/m*3 24.17 C 5.625 km/h
161 21-07-2021 16:00:00 26.675 C 11.16 g/m*3 26.68 C 6.85 km/h
162 21-07-2021 17:00:00 27.16667 C 11.02 g/m*3 27.17 C 6.7 km/h
163 21-07-2021 18:00:00 27.55 C 11.3 g/m*3 27.55 C 4.68333 km/h
164 21-07-2021 19:00:00 25.78333 C 12.47 g/m*3 25.78 C 3.875 km/h
165 21-07-2021 20:00:00 22.13333 C 13.43 g/m*3 22.13 C 3.86667 km/h
166 21-07-2021 21:00:00 19.45 C 12.58 g/m*3 19.45 C 5.20833 km/h
167 21-07-2021 22:00:00 17.86667 C 12.05 g/m*3 17.87 C 4.8 km/h
168 21-07-2021 23:00:00 17.00833 C 11.9 g/m*3 17.01 C 1.475 km/h
169 22-07-2021 00:00:00 15.7 C 11.63 g/m*3 15.7 C 0 km/h
170 22-07-2021 01:00:00 14.55 C 11.22 g/m*3 14.55 C 0 km/h
171 22-07-2021 02:00:00 13.8 C 10.95 g/m*3 13.8 C 0 km/h
172 22-07-2021 03:00:00 13.21667 C 10.69 g/m*3 13.22 C 0 km/h
173 22-07-2021 04:00:00 12.76667 C 10.52 g/m*3 12.77 C 0 km/h
174 22-07-2021 05:00:00 12.83333 C 10.66 g/m*3 12.83 C 0 km/h
175 22-07-2021 06:00:00 13.10833 C 10.91 g/m*3 13.11 C 0 km/h
Sensor: Nr:Datum:Temp:Abs-Feuchte:Windchill:Wind:
Aussen-T/F 176 22-07-2021 07:00:00 13.80833 C 11.37 g/m*3 13.81 C 0.53333 km/h
177 22-07-2021 08:00:00 14.8 C 11.8 g/m*3 14.8 C 0.13333 km/h
178 22-07-2021 09:00:00 16.25 C 12.85 g/m*3 16.25 C 0 km/h
179 22-07-2021 10:00:00 17.73333 C 13.47 g/m*3 17.73 C 0 km/h
180 22-07-2021 11:00:00 19.9 C 13.62 g/m*3 19.9 C 0.26667 km/h
181 22-07-2021 12:00:00 21.84167 C 12.55 g/m*3 21.84 C 0.93333 km/h
182 22-07-2021 13:00:00 23.575 C 12.05 g/m*3 23.58 C 5.75 km/h
183 22-07-2021 14:00:00 24.30833 C 12.47 g/m*3 24.31 C 5.08333 km/h
184 22-07-2021 15:00:00 24.76667 C 13.22 g/m*3 24.77 C 3.075 km/h
185 22-07-2021 16:00:00 25.425 C 13.14 g/m*3 25.43 C 5.2 km/h
186 22-07-2021 17:00:00 25.65 C 14.3 g/m*3 25.65 C 3.61667 km/h
187 22-07-2021 18:00:00 26.13333 C 13.24 g/m*3 26.13 C 4.15 km/h
188 22-07-2021 19:00:00 25.89167 C 14.96 g/m*3 25.89 C 0 km/h
189 22-07-2021 20:00:00 22.425 C 14.09 g/m*3 22.43 C 4.81667 km/h
190 22-07-2021 21:00:00 19.58333 C 12.97 g/m*3 19.58 C 4.14167 km/h
191 22-07-2021 22:00:00 17.35833 C 12.45 g/m*3 17.36 C 0 km/h
192 22-07-2021 23:00:00 16.58333 C 12.35 g/m*3 16.58 C 0 km/h
193 23-07-2021 00:00:00 16.40833 C 12.34 g/m*3 16.41 C 0 km/h
194 23-07-2021 01:00:00 16.21667 C 12.37 g/m*3 16.22 C 0 km/h
195 23-07-2021 02:00:00 15.375 C 12 g/m*3 15.38 C 0.4 km/h
196 23-07-2021 03:00:00 14.75 C 11.73 g/m*3 14.75 C 0.13333 km/h
197 23-07-2021 04:00:00 14.23333 C 11.5 g/m*3 14.23 C 0 km/h
198 23-07-2021 05:00:00 13.7 C 11.18 g/m*3 13.7 C 0 km/h
199 23-07-2021 06:00:00 13.65 C 11.21 g/m*3 13.65 C 0.13333 km/h
200 23-07-2021 07:00:00 14.03333 C 11.56 g/m*3 14.03 C 0.26667 km/h
Sensor: Nr:Datum:Temp:Abs-Feuchte:Windchill:Wind:
Aussen-T/F 201 23-07-2021 08:00:00 15.20833 C 12.47 g/m*3 15.21 C 0 km/h
202 23-07-2021 09:00:00 16.50833 C 13.32 g/m*3 16.51 C 0.53333 km/h
203 23-07-2021 10:00:00 18.65 C 13.98 g/m*3 18.65 C 1.2 km/h
204 23-07-2021 11:00:00 20.75833 C 14.38 g/m*3 20.76 C 3.2 km/h
205 23-07-2021 12:00:00 22.125 C 14.5 g/m*3 22.13 C 4.81667 km/h
206 23-07-2021 13:00:00 23.35 C 13.49 g/m*3 23.35 C 4.81667 km/h
207 23-07-2021 14:00:00 24.53333 C 12.93 g/m*3 24.53 C 5.09167 km/h
208 23-07-2021 15:00:00 26.05 C 13.31 g/m*3 26.05 C 7.525 km/h
209 23-07-2021 16:00:00 28.175 C 14.07 g/m*3 28.18 C 5.225 km/h
210 23-07-2021 17:00:00 28.825 C 13.11 g/m*3 28.83 C 6.975 km/h
211 23-07-2021 18:00:00 28.88333 C 12.58 g/m*3 28.88 C 4.94167 km/h
212 23-07-2021 19:00:00 27.525 C 15.45 g/m*3 27.53 C 1.86667 km/h
213 23-07-2021 20:00:00 24.09167 C 14.85 g/m*3 24.09 C 2.93333 km/h
214 23-07-2021 21:00:00 21.25 C 13.6 g/m*3 21.25 C 3.61667 km/h
215 23-07-2021 22:00:00 19.23333 C 13.33 g/m*3 19.23 C 1.06667 km/h
216 23-07-2021 23:00:00 17.50833 C 12.8 g/m*3 17.51 C 0 km/h
217 24-07-2021 00:00:00 16.29167 C 12.3 g/m*3 16.29 C 0 km/h
218 24-07-2021 01:00:00 15.54167 C 12 g/m*3 15.54 C 0 km/h
219 24-07-2021 02:00:00 15.01667 C 11.86 g/m*3 15.02 C 0 km/h
220 24-07-2021 03:00:00 14.49167 C 11.62 g/m*3 14.49 C 0 km/h
221 24-07-2021 04:00:00 14.2 C 11.51 g/m*3 14.2 C 0 km/h
222 24-07-2021 05:00:00 14.30833 C 11.69 g/m*3 14.31 C 0.4 km/h
223 24-07-2021 06:00:00 14.95833 C 12.28 g/m*3 14.96 C 0.4 km/h
224 24-07-2021 07:00:00 15.83333 C 12.95 g/m*3 15.83 C 0.26667 km/h
225 24-07-2021 08:00:00 17.26667 C 13.96 g/m*3 17.27 C 0.26667 km/h
Sensor: Nr:Datum:Temp:Abs-Feuchte:Windchill:Wind:
Aussen-T/F 226 24-07-2021 09:00:00 18.84167 C 13.95 g/m*3 18.84 C 1.06667 km/h
227 24-07-2021 10:00:00 20.84167 C 15.19 g/m*3 20.84 C 0.8 km/h
228 24-07-2021 11:00:00 20.05833 C 15.53 g/m*3 20.06 C 7.10833 km/h
229 24-07-2021 12:00:00 18.99167 C 15.31 g/m*3 18.99 C 3.46667 km/h
230 24-07-2021 13:00:00 20 C 16.5 g/m*3 20 C 0.26667 km/h
231 24-07-2021 14:00:00 19.14167 C 15.57 g/m*3 19.14 C 7.90833 km/h
232 24-07-2021 15:00:00 19.04167 C 15.63 g/m*3 19.04 C 2.54167 km/h
233 24-07-2021 16:00:00 18.9 C 15.5 g/m*3 18.9 C 2.13333 km/h
234 24-07-2021 17:00:00 20.75 C 16.43 g/m*3 20.75 C 4.41667 km/h
235 24-07-2021 18:00:00 22.5 C 16.56 g/m*3 22.5 C 3.475 km/h
236 24-07-2021 19:00:00 21.675 C 16.86 g/m*3 21.68 C 1.73333 km/h
237 24-07-2021 20:00:00 19.9 C 15.71 g/m*3 19.9 C 1.73333 km/h
238 24-07-2021 21:00:00 18.975 C 15.27 g/m*3 18.98 C 2.26667 km/h
239 24-07-2021 22:00:00 18.28333 C 14.8 g/m*3 18.28 C 1.33333 km/h
240 24-07-2021 23:00:00 17.525 C 14.18 g/m*3 17.52 C 2 km/h
241 25-07-2021 00:00:00 16.76667 C 13.6 g/m*3 16.77 C 0.13333 km/h
242 25-07-2021 01:00:00 16.275 C 13.3 g/m*3 16.27 C 0.4 km/h
243 25-07-2021 02:00:00 16.025 C 13.12 g/m*3 16.02 C 0 km/h
244 25-07-2021 03:00:00 16.00833 C 13.15 g/m*3 16.01 C 0.13333 km/h
245 25-07-2021 04:00:00 15.26667 C 12.53 g/m*3 15.27 C 0.13333 km/h
246 25-07-2021 05:00:00 15.01667 C 12.44 g/m*3 15.02 C 0 km/h
247 25-07-2021 06:00:00 15.43333 C 12.77 g/m*3 15.43 C 0 km/h
248 25-07-2021 07:00:00 16.19167 C 13.39 g/m*3 16.19 C 0 km/h
249 25-07-2021 08:00:00 16.78333 C 13.93 g/m*3 16.78 C 1.6 km/h
250 25-07-2021 09:00:00 17.66667 C 14.61 g/m*3 17.67 C 5.75833 km/h
Sensor: Nr:Datum:Temp:Abs-Feuchte:Windchill:Wind:
Aussen-T/F 251 25-07-2021 10:00:00 19.3 C 15.3 g/m*3 19.3 C 4.94167 km/h
252 25-07-2021 11:00:00 21.54167 C 15.45 g/m*3 21.54 C 9.425 km/h
253 25-07-2021 12:00:00 22.65833 C 14.65 g/m*3 22.66 C 11.01667 km/h
254 25-07-2021 13:00:00 23.7 C 15.99 g/m*3 23.7 C 4.15 km/h
255 25-07-2021 14:00:00 23.525 C 16.02 g/m*3 23.53 C 6.84167 km/h
256 25-07-2021 15:00:00 24.3 C 15.82 g/m*3 24.3 C 5.48333 km/h
257 25-07-2021 16:00:00 23.4625 C 16.57 g/m*3 23.46 C 4.8375 km/h
258 25-07-2021 17:00:00 20.8 C 16.02 g/m*3 20.8 C 3.075 km/h
259 25-07-2021 18:00:00 23.21667 C 17.03 g/m*3 23.22 C 2.93333 km/h
260 25-07-2021 19:00:00 22.48333 C 16.65 g/m*3 22.48 C 3.86667 km/h
261 25-07-2021 20:00:00 20.19167 C 15.66 g/m*3 20.19 C 4.13333 km/h
262 25-07-2021 21:00:00 18.93333 C 14.95 g/m*3 18.93 C 6.00833 km/h
263 25-07-2021 22:00:00 17.75833 C 14.12 g/m*3 17.76 C 2 km/h
264 25-07-2021 23:00:00 17.08333 C 13.67 g/m*3 17.08 C 0.8 km/h
265 26-07-2021 00:00:00 16.38333 C 13.21 g/m*3 16.38 C 0 km/h
266 26-07-2021 01:00:00 15.81667 C 12.81 g/m*3 15.82 C 0 km/h
267 26-07-2021 02:00:00 15.66667 C 12.8 g/m*3 15.67 C 0 km/h
268 26-07-2021 03:00:00 15.36667 C 12.59 g/m*3 15.37 C 0 km/h
269 26-07-2021 04:00:00 15.125 C 12.41 g/m*3 15.13 C 0.13333 km/h
270 26-07-2021 05:00:00 15.31667 C 12.61 g/m*3 15.32 C 0 km/h
271 26-07-2021 06:00:00 15.26667 C 12.64 g/m*3 15.27 C 0 km/h
272 26-07-2021 07:00:00 15.26667 C 12.64 g/m*3 15.27 C 0 km/h
273 26-07-2021 08:00:00 15.69167 C 12.97 g/m*3 15.69 C 0.53333 km/h
274 26-07-2021 09:00:00 16.575 C 13.76 g/m*3 16.58 C 0 km/h
275 26-07-2021 10:00:00 18.38333 C 15.18 g/m*3 18.38 C 4.71667 km/h
Sensor: Nr:Datum:Temp:Abs-Feuchte:Windchill:Wind:
Aussen-T/F 276 26-07-2021 11:00:00 20.83333 C 14.97 g/m*3 20.83 C 9.54167 km/h
277 26-07-2021 12:00:00 22.19167 C 15.09 g/m*3 22.19 C 10.35 km/h
278 26-07-2021 13:00:00 23.01667 C 14.56 g/m*3 23.02 C 14.1 km/h
279 26-07-2021 14:00:00 23.96667 C 14.42 g/m*3 23.97 C 13.56667 km/h
280 26-07-2021 15:00:00 25.60833 C 14.37 g/m*3 25.61 C 15.96667 km/h
281 26-07-2021 16:00:00 25.79167 C 14.58 g/m*3 25.79 C 10.20833 km/h
282 26-07-2021 17:00:00 26.55 C 14.77 g/m*3 26.55 C 9.93333 km/h
283 26-07-2021 18:00:00 26.475 C 14.33 g/m*3 26.48 C 12.9 km/h
284 26-07-2021 19:00:00 24.64167 C 14.02 g/m*3 24.64 C 7.525 km/h
285 26-07-2021 20:00:00 22.20833 C 14.6 g/m*3 22.21 C 4.66667 km/h
286 26-07-2021 21:00:00 20.18333 C 14.5 g/m*3 20.18 C 4 km/h
287 26-07-2021 22:00:00 19.08333 C 14.04 g/m*3 19.08 C 4.13333 km/h
288 26-07-2021 23:00:00 18.625 C 13.63 g/m*3 18.63 C 2.80833 km/h
289 27-07-2021 00:00:00 18.325 C 13.62 g/m*3 18.33 C 2.4 km/h
290 27-07-2021 01:00:00 17.50833 C 13.2 g/m*3 17.51 C 1.06667 km/h
291 27-07-2021 02:00:00 16.55833 C 12.93 g/m*3 16.56 C 2 km/h
292 27-07-2021 03:00:00 16.88333 C 13.29 g/m*3 16.88 C 0.53333 km/h
293 27-07-2021 04:00:00 16.475 C 12.98 g/m*3 16.48 C 0.26667 km/h
294 27-07-2021 05:00:00 15.775 C 12.6 g/m*3 15.78 C 0.53333 km/h
295 27-07-2021 06:00:00 15.74167 C 12.73 g/m*3 15.74 C 0.26667 km/h
296 27-07-2021 07:00:00 16.10833 C 13.09 g/m*3 16.11 C 0.53333 km/h
297 27-07-2021 08:00:00 17.55 C 13.82 g/m*3 17.55 C 4.16667 km/h
298 27-07-2021 09:00:00 19.05833 C 14.27 g/m*3 19.06 C 0.66667 km/h
299 27-07-2021 10:00:00 20.46667 C 14.53 g/m*3 20.47 C 6.975 km/h
300 27-07-2021 11:00:00 22.33333 C 14.79 g/m*3 22.33 C 8.89167 km/h
Sensor: Nr:Datum:Temp:Abs-Feuchte:Windchill:Wind:
Aussen-T/F 301 27-07-2021 12:00:00 23.24167 C 14.78 g/m*3 23.24 C 10.225 km/h
302 27-07-2021 13:00:00 24 C 14.7 g/m*3 24 C 9.275 km/h
303 27-07-2021 14:00:00 23.51667 C 15.06 g/m*3 23.52 C 7.79167 km/h
304 27-07-2021 15:00:00 19.88333 C 13.97 g/m*3 19.88 C 6.29167 km/h
305 27-07-2021 16:00:00 17.95833 C 13.85 g/m*3 17.96 C 5.51667 km/h
306 27-07-2021 17:00:00 17.89167 C 14.07 g/m*3 17.89 C 0.93333 km/h
307 27-07-2021 18:00:00 18.30833 C 14.21 g/m*3 18.31 C 0.8 km/h
308 27-07-2021 19:00:00 17.50833 C 13.75 g/m*3 17.51 C 1.86667 km/h
309 27-07-2021 20:00:00 17.06667 C 13.66 g/m*3 17.07 C 0.26667 km/h
310 27-07-2021 21:00:00 16.70833 C 13.46 g/m*3 16.71 C 0.66667 km/h
311 27-07-2021 22:00:00 16.30833 C 13.19 g/m*3 16.31 C 1.06667 km/h
312 27-07-2021 23:00:00 15.70833 C 12.73 g/m*3 15.71 C 3.875 km/h
313 28-07-2021 00:00:00 14.76667 C 12.07 g/m*3 14.77 C 4.93333 km/h
314 28-07-2021 01:00:00 14.325 C 11.81 g/m*3 14.33 C 2.93333 km/h
315 28-07-2021 02:00:00 13.81667 C 11.45 g/m*3 13.82 C 0 km/h
316 28-07-2021 03:00:00 14.175 C 11.83 g/m*3 14.18 C 0.13333 km/h
317 28-07-2021 04:00:00 14.3 C 11.92 g/m*3 14.3 C 0 km/h
318 28-07-2021 05:00:00 14.825 C 12.31 g/m*3 14.83 C 0 km/h
319 28-07-2021 06:00:00 15.24167 C 12.62 g/m*3 15.24 C 0.13333 km/h
320 28-07-2021 07:00:00 15.85833 C 13.14 g/m*3 15.86 C 0.13333 km/h
321 28-07-2021 08:00:00 16.74167 C 13.89 g/m*3 16.74 C 0.26667 km/h
322 28-07-2021 09:00:00 17.38333 C 14.44 g/m*3 17.38 C 2.68333 km/h
323 28-07-2021 10:00:00 17.8 C 14.65 g/m*3 17.8 C 4.14167 km/h
324 28-07-2021 11:00:00 18.6 C 14.64 g/m*3 18.6 C 11.41667 km/h
325 28-07-2021 12:00:00 19.86667 C 14.52 g/m*3 19.87 C 15.7 km/h
Sensor: Nr:Datum:Temp:Abs-Feuchte:Windchill:Wind:
Aussen-T/F 326 28-07-2021 13:00:00 20.93333 C 14.48 g/m*3 20.93 C 13.3 km/h
327 28-07-2021 14:00:00 21.04167 C 14.23 g/m*3 21.04 C 13.83333 km/h
328 28-07-2021 15:00:00 22.03333 C 14.6 g/m*3 22.03 C 15.03333 km/h
329 28-07-2021 16:00:00 23.83333 C 14.51 g/m*3 23.83 C 12.5 km/h
330 28-07-2021 17:00:00 24.25 C 13.92 g/m*3 24.25 C 14.76667 km/h
331 28-07-2021 18:00:00 24.15833 C 12.92 g/m*3 24.16 C 14.63333 km/h
332 28-07-2021 19:00:00 22.975 C 12.67 g/m*3 22.98 C 12.35833 km/h
333 28-07-2021 20:00:00 21.23333 C 12.67 g/m*3 21.23 C 9.525 km/h
334 28-07-2021 21:00:00 19.09167 C 12.97 g/m*3 19.09 C 4.26667 km/h
335 28-07-2021 22:00:00 16.90833 C 12.47 g/m*3 16.91 C 4.13333 km/h
336 28-07-2021 23:00:00 15.98333 C 12.19 g/m*3 15.98 C 3.33333 km/h
337 29-07-2021 00:00:00 15.39167 C 12.05 g/m*3 15.39 C 2 km/h
338 29-07-2021 01:00:00 14.875 C 11.76 g/m*3 14.88 C 1.2 km/h
339 29-07-2021 02:00:00 14.775 C 11.76 g/m*3 14.78 C 0.53333 km/h
340 29-07-2021 03:00:00 15.075 C 11.85 g/m*3 15.08 C 1.06667 km/h
341 29-07-2021 04:00:00 14.75 C 11.52 g/m*3 14.75 C 2.13333 km/h
342 29-07-2021 05:00:00 15.15833 C 11.72 g/m*3 15.16 C 3.48333 km/h
343 29-07-2021 06:00:00 15.28333 C 11.81 g/m*3 15.28 C 0.66667 km/h
344 29-07-2021 07:00:00 15.56667 C 12.19 g/m*3 15.57 C 3.35833 km/h
345 29-07-2021 08:00:00 17.29167 C 12.39 g/m*3 17.29 C 7.93333 km/h
346 29-07-2021 09:00:00 18.15 C 12.35 g/m*3 18.15 C 12.625 km/h
347 29-07-2021 10:00:00 18.79167 C 12.17 g/m*3 18.79 C 13.56667 km/h
348 29-07-2021 11:00:00 18.93333 C 11.88 g/m*3 18.93 C 13.69167 km/h
349 29-07-2021 12:00:00 19.525 C 11.56 g/m*3 19.52 C 13.425 km/h
350 29-07-2021 13:00:00 20.2 C 11.16 g/m*3 20.2 C 14.36667 km/h
Sensor: Nr:Datum:Temp:Abs-Feuchte:Windchill:Wind:
Aussen-T/F 351 29-07-2021 14:00:00 20.65833 C 11.18 g/m*3 20.66 C 12.08333 km/h
352 29-07-2021 15:00:00 20.74167 C 10.93 g/m*3 20.74 C 15.15833 km/h
353 29-07-2021 16:00:00 21.8 C 11.45 g/m*3 21.8 C 11.15 km/h
354 29-07-2021 17:00:00 23.31667 C 10.87 g/m*3 23.32 C 15.96667 km/h
355 29-07-2021 18:00:00 23.60833 C 11.4 g/m*3 23.61 C 11.275 km/h
356 29-07-2021 19:00:00 22.29167 C 11.55 g/m*3 22.29 C 8.45833 km/h
357 29-07-2021 20:00:00 20.20833 C 12.51 g/m*3 20.21 C 3.86667 km/h
358 29-07-2021 21:00:00 17.51667 C 11.95 g/m*3 17.52 C 3.6 km/h
359 29-07-2021 22:00:00 15.99167 C 11.4 g/m*3 15.99 C 2.53333 km/h
360 29-07-2021 23:00:00 15.09167 C 11.31 g/m*3 15.09 C 0 km/h
361 30-07-2021 00:00:00 14.38333 C 11.04 g/m*3 14.38 C 0 km/h
362 30-07-2021 01:00:00 13.93333 C 10.87 g/m*3 13.93 C 1.75 km/h
363 30-07-2021 02:00:00 13.39167 C 10.64 g/m*3 13.39 C 0 km/h
364 30-07-2021 03:00:00 12.89167 C 10.44 g/m*3 12.89 C 0.26667 km/h
365 30-07-2021 04:00:00 12.25833 C 10.1 g/m*3 12.26 C 0.13333 km/h
366 30-07-2021 05:00:00 11.74167 C 9.86 g/m*3 11.74 C 0 km/h
367 30-07-2021 06:00:00 11.6 C 9.87 g/m*3 11.6 C 0 km/h
368 30-07-2021 07:00:00 11.98333 C 10.18 g/m*3 11.98 C 0 km/h
369 30-07-2021 08:00:00 13.025 C 10.9 g/m*3 13.03 C 0 km/h
370 30-07-2021 09:00:00 14.11667 C 11.67 g/m*3 14.12 C 0.26667 km/h
371 30-07-2021 10:00:00 16.48333 C 12.6 g/m*3 16.48 C 6.85 km/h
372 30-07-2021 11:00:00 20.56667 C 12.19 g/m*3 20.57 C 13.15833 km/h
373 30-07-2021 12:00:00 21.85833 C 12.3 g/m*3 21.86 C 13.16667 km/h
374 30-07-2021 13:00:00 22.91667 C 12.6 g/m*3 22.92 C 14.1 km/h
375 30-07-2021 14:00:00 23.69167 C 12.65 g/m*3 23.69 C 13.16667 km/h
Sensor: Nr:Datum:Temp:Abs-Feuchte:Windchill:Wind:
Aussen-T/F 376 30-07-2021 15:00:00 25.55833 C 12.98 g/m*3 25.56 C 13.56667 km/h
377 30-07-2021 16:00:00 26.75833 C 12.97 g/m*3 26.76 C 13.16667 km/h
378 30-07-2021 17:00:00 27.69167 C 12.59 g/m*3 27.69 C 12.9 km/h
379 30-07-2021 18:00:00 26.86667 C 12.45 g/m*3 26.87 C 13.7 km/h
380 30-07-2021 19:00:00 24.80833 C 13.13 g/m*3 24.81 C 7.525 km/h
381 30-07-2021 20:00:00 22.95833 C 12.9 g/m*3 22.96 C 6.71667 km/h
382 30-07-2021 21:00:00 21 C 12.79 g/m*3 21 C 4.55 km/h
383 30-07-2021 22:00:00 19.45833 C 12.51 g/m*3 19.46 C 6.71667 km/h
384 30-07-2021 23:00:00 19.10833 C 11.26 g/m*3 19.11 C 7.10833 km/h
385 31-07-2021 00:00:00 17.16667 C 11.14 g/m*3 17.17 C 1.06667 km/h
386 31-07-2021 01:00:00 16.05833 C 11.21 g/m*3 16.06 C 0 km/h
387 31-07-2021 02:00:00 16.40833 C 10.79 g/m*3 16.41 C 7.11667 km/h
388 31-07-2021 03:00:00 17.275 C 10.41 g/m*3 17.27 C 9.13333 km/h
389 31-07-2021 04:00:00 16.43333 C 10.27 g/m*3 16.43 C 9.66667 km/h
390 31-07-2021 05:00:00 15.6 C 10.21 g/m*3 15.6 C 4.14167 km/h
391 31-07-2021 06:00:00 15.25833 C 10.29 g/m*3 15.26 C 8.73333 km/h
392 31-07-2021 07:00:00 15.45 C 10.44 g/m*3 15.45 C 11.41667 km/h
393 31-07-2021 08:00:00 16.05 C 10.55 g/m*3 16.05 C 18.5 km/h
394 31-07-2021 09:00:00 16.59167 C 10.68 g/m*3 16.59 C 17.96667 km/h
395 31-07-2021 10:00:00 17.78333 C 11.07 g/m*3 17.78 C 16.1 km/h
396 31-07-2021 11:00:00 19.09167 C 11.25 g/m*3 19.09 C 17.7 km/h
397 31-07-2021 12:00:00 19.925 C 11.38 g/m*3 19.93 C 17.7 km/h
398 31-07-2021 13:00:00 20.70833 C 11.38 g/m*3 20.71 C 16.63333 km/h
399 31-07-2021 14:00:00 21.16667 C 11.3 g/m*3 21.17 C 16.36667 km/h
400 31-07-2021 15:00:00 21.41667 C 11.48 g/m*3 21.42 C 14.76667 km/h
Sensor: Nr:Datum:Temp:Abs-Feuchte:Windchill:Wind:
Aussen-T/F 401 31-07-2021 16:00:00 22.09167 C 11.35 g/m*3 22.09 C 11.96667 km/h
402 31-07-2021 17:00:00 21.85 C 11.83 g/m*3 21.85 C 9.39167 km/h
403 31-07-2021 18:00:00 21.15 C 12.2 g/m*3 21.15 C 5.825 km/h
404 31-07-2021 19:00:00 20.95 C 12.66 g/m*3 20.95 C 2.94167 km/h
405 31-07-2021 20:00:00 19.28333 C 12.52 g/m*3 19.28 C 2.53333 km/h
406 31-07-2021 21:00:00 18.06667 C 12.37 g/m*3 18.07 C 1.86667 km/h
407 31-07-2021 22:00:00 17.34167 C 12.25 g/m*3 17.34 C 0 km/h
408 31-07-2021 23:00:00 16.48333 C 11.89 g/m*3 16.48 C 2.53333 km/h
409 01-08-2021 00:00:00 15.725 C 11.57 g/m*3 15.73 C 1.33333 km/h
410 01-08-2021 01:00:00 15.31667 C 11.63 g/m*3 15.32 C 0.26667 km/h
411 01-08-2021 02:00:00 15.30833 C 11.65 g/m*3 15.31 C 0.4 km/h
412 01-08-2021 03:00:00 14.45833 C 11.14 g/m*3 14.46 C 0.93333 km/h
413 01-08-2021 04:00:00 13.70833 C 10.93 g/m*3 13.71 C 0 km/h
414 01-08-2021 05:00:00 13.525 C 10.92 g/m*3 13.53 C 0.26667 km/h
415 01-08-2021 06:00:00 13.54167 C 11.02 g/m*3 13.54 C 2.94167 km/h
416 01-08-2021 07:00:00 14.18333 C 11.38 g/m*3 14.18 C 5.2 km/h
417 01-08-2021 08:00:00 14.99167 C 11.74 g/m*3 14.99 C 4.13333 km/h
418 01-08-2021 09:00:00 16.025 C 11.99 g/m*3 16.02 C 4.275 km/h
419 01-08-2021 10:00:00 17.55 C 12.25 g/m*3 17.55 C 3.475 km/h
420 01-08-2021 11:00:00 19 C 12.06 g/m*3 19 C 6.15833 km/h
421 01-08-2021 12:00:00 19.86667 C 12.09 g/m*3 19.87 C 8.6 km/h
422 01-08-2021 13:00:00 20.675 C 11.67 g/m*3 20.68 C 12.5 km/h
423 01-08-2021 14:00:00 20.91667 C 11.44 g/m*3 20.92 C 12.76667 km/h
424 01-08-2021 15:00:00 22.35 C 11.17 g/m*3 22.35 C 12.75833 km/h
425 01-08-2021 16:00:00 22.11667 C 11.56 g/m*3 22.12 C 7.525 km/h
Sensor: Nr:Datum:Temp:Abs-Feuchte:Windchill:Wind:
Aussen-T/F 426 01-08-2021 17:00:00 21.65833 C 12.5 g/m*3 21.66 C 12.48333 km/h
427 01-08-2021 18:00:00 20.25 C 12.82 g/m*3 20.25 C 8.325 km/h
428 01-08-2021 19:00:00 17.39167 C 13.23 g/m*3 17.39 C 5.35 km/h
429 01-08-2021 20:00:00 16.2 C 12.74 g/m*3 16.2 C 6.975 km/h
430 01-08-2021 21:00:00 15.21667 C 12.13 g/m*3 15.22 C 5.5 km/h
431 01-08-2021 22:00:00 14.675 C 11.88 g/m*3 14.68 C 3.2 km/h
432 01-08-2021 23:00:00 14.13333 C 11.55 g/m*3 14.13 C 2.8 km/h
433 02-08-2021 00:00:00 13.68333 C 11.3 g/m*3 13.68 C 1.2 km/h
434 02-08-2021 01:00:00 13.41667 C 11.15 g/m*3 13.42 C 0.66667 km/h
435 02-08-2021 02:00:00 13.59167 C 11.29 g/m*3 13.59 C 0.93333 km/h
436 02-08-2021 03:00:00 13.93333 C 11.57 g/m*3 13.93 C 2.26667 km/h
437 02-08-2021 04:00:00 14.05 C 11.65 g/m*3 14.05 C 1.33333 km/h
438 02-08-2021 05:00:00 13.93333 C 11.53 g/m*3 13.93 C 2.66667 km/h
439 02-08-2021 06:00:00 13.975 C 11.56 g/m*3 13.98 C 1.6 km/h
440 02-08-2021 07:00:00 14.10833 C 11.65 g/m*3 14.11 C 4.96667 km/h
441 02-08-2021 08:00:00 15.06667 C 12.04 g/m*3 15.07 C 6.3 km/h
442 02-08-2021 09:00:00 15.95 C 12.21 g/m*3 15.95 C 3.2 km/h
443 02-08-2021 10:00:00 16.45 C 12.26 g/m*3 16.45 C 4.275 km/h
444 02-08-2021 11:00:00 18.18333 C 12.9 g/m*3 18.18 C 6.975 km/h
445 02-08-2021 12:00:00 18.875 C 13.35 g/m*3 18.88 C 7.38333 km/h
446 02-08-2021 13:00:00 18.20833 C 12.98 g/m*3 18.21 C 7.91667 km/h
447 02-08-2021 14:00:00 18.31667 C 13.23 g/m*3 18.32 C 5.9 km/h
448 02-08-2021 15:00:00 17.275 C 13.4 g/m*3 17.27 C 2.53333 km/h
449 02-08-2021 16:00:00 16.575 C 13.21 g/m*3 16.58 C 2.53333 km/h
450 02-08-2021 17:00:00 18.31667 C 14.52 g/m*3 18.32 C 0.93333 km/h
Sensor: Nr:Datum:Temp:Abs-Feuchte:Windchill:Wind:
Aussen-T/F 451 02-08-2021 18:00:00 17.9 C 13.59 g/m*3 17.9 C 6.425 km/h
452 02-08-2021 19:00:00 18.725 C 13.99 g/m*3 18.73 C 0.93333 km/h
453 02-08-2021 20:00:00 17.61667 C 13.29 g/m*3 17.62 C 2.81667 km/h
454 02-08-2021 21:00:00 15.28333 C 12.02 g/m*3 15.28 C 6.98333 km/h
455 02-08-2021 22:00:00 14.275 C 11.53 g/m*3 14.28 C 4.00833 km/h
456 02-08-2021 23:00:00 13.95833 C 11.43 g/m*3 13.96 C 0.53333 km/h
457 03-08-2021 00:00:00 13.54167 C 11.14 g/m*3 13.54 C 0.4 km/h
458 03-08-2021 01:00:00 12.98333 C 10.8 g/m*3 12.98 C 0 km/h
459 03-08-2021 02:00:00 12.91667 C 10.83 g/m*3 12.92 C 0 km/h
460 03-08-2021 03:00:00 13.1 C 10.95 g/m*3 13.1 C 0 km/h
461 03-08-2021 04:00:00 13.26667 C 11.09 g/m*3 13.27 C 0 km/h
462 03-08-2021 05:00:00 13.35 C 11.18 g/m*3 13.35 C 0 km/h
463 03-08-2021 06:00:00 13.60833 C 11.42 g/m*3 13.61 C 0 km/h
464 03-08-2021 07:00:00 14.09167 C 11.77 g/m*3 14.09 C 0.26667 km/h
465 03-08-2021 08:00:00 14.66667 C 12.19 g/m*3 14.67 C 0 km/h
466 03-08-2021 09:00:00 14.88333 C 12.35 g/m*3 14.88 C 0.53333 km/h
467 03-08-2021 10:00:00 15.19167 C 12.58 g/m*3 15.19 C 0.26667 km/h
468 03-08-2021 11:00:00 15.875 C 13.08 g/m*3 15.88 C 0.93333 km/h
469 03-08-2021 12:00:00 16.74167 C 13.44 g/m*3 16.74 C 3.48333 km/h
470 03-08-2021 13:00:00 17.49167 C 13.11 g/m*3 17.49 C 5.90833 km/h
471 03-08-2021 14:00:00 18.475 C 13.31 g/m*3 18.48 C 4.00833 km/h
472 03-08-2021 15:00:00 19.56667 C 13.51 g/m*3 19.57 C 1.74167 km/h
473 03-08-2021 16:00:00 20.01667 C 14 g/m*3 20.02 C 1.86667 km/h
474 03-08-2021 17:00:00 19.44167 C 13.94 g/m*3 19.44 C 5.09167 km/h
475 03-08-2021 18:00:00 21.04167 C 13.89 g/m*3 21.04 C 6.98333 km/h
Sensor: Nr:Datum:Temp:Abs-Feuchte:Windchill:Wind:
Aussen-T/F 476 03-08-2021 19:00:00 20.10833 C 13.61 g/m*3 20.11 C 3.21667 km/h
477 03-08-2021 20:00:00 17.96667 C 13.46 g/m*3 17.97 C 2.93333 km/h
478 03-08-2021 21:00:00 16.38333 C 13 g/m*3 16.38 C 5.2 km/h
479 03-08-2021 22:00:00 15.825 C 12.81 g/m*3 15.83 C 3.86667 km/h
480 03-08-2021 23:00:00 15.6 C 12.68 g/m*3 15.6 C 1.33333 km/h
481 04-08-2021 00:00:00 14.83333 C 12.12 g/m*3 14.83 C 1.73333 km/h
482 04-08-2021 01:00:00 14.76667 C 12.14 g/m*3 14.77 C 1.33333 km/h
483 04-08-2021 02:00:00 14.8 C 12.16 g/m*3 14.8 C 1.86667 km/h
484 04-08-2021 03:00:00 14.075 C 11.63 g/m*3 14.08 C 0.66667 km/h
485 04-08-2021 04:00:00 12.975 C 10.87 g/m*3 12.98 C 0.13333 km/h
486 04-08-2021 05:00:00 12.675 C 10.7 g/m*3 12.68 C 0.66667 km/h
487 04-08-2021 06:00:00 12.59167 C 10.73 g/m*3 12.59 C 0.93333 km/h
488 04-08-2021 07:00:00 13.2 C 11.14 g/m*3 13.2 C 0 km/h
489 04-08-2021 08:00:00 14.175 C 11.83 g/m*3 14.18 C 0.13333 km/h
490 04-08-2021 09:00:00 14.83333 C 12.31 g/m*3 14.83 C 1.2 km/h
491 04-08-2021 10:00:00 15.4 C 12.65 g/m*3 15.4 C 0.93333 km/h
492 04-08-2021 11:00:00 16.28333 C 13.05 g/m*3 16.28 C 2.13333 km/h
493 04-08-2021 12:00:00 17.35833 C 13.05 g/m*3 17.36 C 1.33333 km/h
494 04-08-2021 13:00:00 18.08333 C 13.04 g/m*3 18.08 C 1.46667 km/h
495 04-08-2021 14:00:00 19.30833 C 12.47 g/m*3 19.31 C 2.4 km/h
496 04-08-2021 15:00:00 20.55 C 13.56 g/m*3 20.55 C 4.01667 km/h
497 04-08-2021 16:00:00 20.70833 C 13.79 g/m*3 20.71 C 2.40833 km/h
498 04-08-2021 17:00:00 20.15833 C 14.99 g/m*3 20.16 C 1.86667 km/h
499 04-08-2021 18:00:00 19.56667 C 14.8 g/m*3 19.57 C 1.73333 km/h
500 04-08-2021 19:00:00 19.29167 C 14.62 g/m*3 19.29 C 1.2 km/h
Sensor: Nr:Datum:Temp:Abs-Feuchte:Windchill:Wind:
Aussen-T/F 501 04-08-2021 20:00:00 18.25 C 13.8 g/m*3 18.25 C 3.2 km/h
502 04-08-2021 21:00:00 16.7 C 12.7 g/m*3 16.7 C 5.21667 km/h
503 04-08-2021 22:00:00 15.15 C 11.6 g/m*3 15.15 C 2.4 km/h
504 04-08-2021 23:00:00 14.55 C 11.48 g/m*3 14.55 C 0.53333 km/h
505 05-08-2021 00:00:00 14.46667 C 11.63 g/m*3 14.47 C 0.4 km/h
506 05-08-2021 01:00:00 14.475 C 11.66 g/m*3 14.48 C 0.26667 km/h
507 05-08-2021 02:00:00 14.49167 C 11.69 g/m*3 14.49 C 0 km/h
508 05-08-2021 03:00:00 14.34167 C 11.64 g/m*3 14.34 C 0 km/h
509 05-08-2021 04:00:00 14.3 C 11.67 g/m*3 14.3 C 0 km/h
510 05-08-2021 05:00:00 14.25 C 11.64 g/m*3 14.25 C 0 km/h
511 05-08-2021 06:00:00 14.25833 C 11.76 g/m*3 14.26 C 0 km/h
512 05-08-2021 07:00:00 14.60833 C 12.02 g/m*3 14.61 C 0 km/h
513 05-08-2021 08:00:00 15.2 C 12.41 g/m*3 15.2 C 0 km/h
514 05-08-2021 09:00:00 16.29167 C 13.1 g/m*3 16.29 C 0 km/h
515 05-08-2021 10:00:00 18.46667 C 13.96 g/m*3 18.47 C 0 km/h
516 05-08-2021 11:00:00 19.68333 C 13.9 g/m*3 19.68 C 0 km/h
517 05-08-2021 12:00:00 20.85 C 13.24 g/m*3 20.85 C 6.975 km/h
518 05-08-2021 13:00:00 21.74167 C 13.5 g/m*3 21.74 C 4.41667 km/h
519 05-08-2021 14:00:00 22.05 C 14 g/m*3 22.05 C 6.16667 km/h
520 05-08-2021 15:00:00 22.58333 C 14.2 g/m*3 22.58 C 4.95833 km/h
521 05-08-2021 16:00:00 21.26667 C 14.05 g/m*3 21.27 C 7.775 km/h
522 05-08-2021 17:00:00 18.73333 C 14.33 g/m*3 18.73 C 1.6 km/h
523 05-08-2021 18:00:00 19.49167 C 14.85 g/m*3 19.49 C 2.13333 km/h
524 05-08-2021 19:00:00 20.28333 C 15.43 g/m*3 20.28 C 0.4 km/h
525 05-08-2021 20:00:00 19.29167 C 14.77 g/m*3 19.29 C 1.73333 km/h
Sensor: Nr:Datum:Temp:Abs-Feuchte:Windchill:Wind:
Aussen-T/F 526 05-08-2021 21:00:00 18.03333 C 14.11 g/m*3 18.03 C 4.80833 km/h
527 05-08-2021 22:00:00 16.89167 C 13.27 g/m*3 16.89 C 0.93333 km/h
528 05-08-2021 23:00:00 15.75 C 12.62 g/m*3 15.75 C 0 km/h
529 06-08-2021 00:00:00 15.33333 C 12.43 g/m*3 15.33 C 0 km/h
530 06-08-2021 01:00:00 14.875 C 12.12 g/m*3 14.88 C 0 km/h
531 06-08-2021 02:00:00 14.83333 C 12.19 g/m*3 14.83 C 0 km/h
532 06-08-2021 03:00:00 14.475 C 11.92 g/m*3 14.48 C 0 km/h
533 06-08-2021 04:00:00 14.70833 C 12.13 g/m*3 14.71 C 0 km/h
534 06-08-2021 05:00:00 15.24167 C 12.62 g/m*3 15.24 C 0 km/h
535 06-08-2021 06:00:00 15.61667 C 12.91 g/m*3 15.62 C 0 km/h
536 06-08-2021 07:00:00 15.96667 C 13.19 g/m*3 15.97 C 0 km/h
537 06-08-2021 08:00:00 16.76667 C 13.84 g/m*3 16.77 C 1.88333 km/h
538 06-08-2021 09:00:00 17.25 C 14.12 g/m*3 17.25 C 5.625 km/h
539 06-08-2021 10:00:00 18.15833 C 14.15 g/m*3 18.16 C 10.875 km/h
540 06-08-2021 11:00:00 19.15833 C 14.01 g/m*3 19.16 C 13.3 km/h
541 06-08-2021 12:00:00 19.85 C 13.92 g/m*3 19.85 C 15.56667 km/h
542 06-08-2021 13:00:00 21.11667 C 13.54 g/m*3 21.12 C 17.31667 km/h
543 06-08-2021 14:00:00 20.775 C 13.33 g/m*3 20.78 C 16.36667 km/h
544 06-08-2021 15:00:00 21.31667 C 13.59 g/m*3 21.32 C 17.96667 km/h
545 06-08-2021 16:00:00 22.525 C 13.6 g/m*3 22.53 C 13.95833 km/h
546 06-08-2021 17:00:00 23.29167 C 13.5 g/m*3 23.29 C 16.23333 km/h
547 06-08-2021 18:00:00 22.88333 C 13.34 g/m*3 22.88 C 13.15833 km/h
548 06-08-2021 19:00:00 21.58333 C 13.03 g/m*3 21.58 C 11.025 km/h
549 06-08-2021 20:00:00 19.78333 C 12.67 g/m*3 19.78 C 7.51667 km/h
550 06-08-2021 21:00:00 17.775 C 12.4 g/m*3 17.77 C 4.26667 km/h
Sensor: Nr:Datum:Temp:Abs-Feuchte:Windchill:Wind:
Aussen-T/F 551 06-08-2021 22:00:00 15.83333 C 11.94 g/m*3 15.83 C 1.2 km/h
552 06-08-2021 23:00:00 14.79167 C 11.61 g/m*3 14.79 C 0 km/h
553 07-08-2021 00:00:00 14.03333 C 11.22 g/m*3 14.03 C 0 km/h
554 07-08-2021 01:00:00 13.6 C 11.06 g/m*3 13.6 C 0 km/h
555 07-08-2021 02:00:00 13.18333 C 10.86 g/m*3 13.18 C 0 km/h
556 07-08-2021 03:00:00 12.85 C 10.67 g/m*3 12.85 C 0 km/h
557 07-08-2021 04:00:00 13 C 10.86 g/m*3 13 C 0 km/h
558 07-08-2021 05:00:00 12.96667 C 10.86 g/m*3 12.97 C 0 km/h
559 07-08-2021 06:00:00 13.04167 C 10.92 g/m*3 13.04 C 0 km/h
560 07-08-2021 07:00:00 13.5 C 11.3 g/m*3 13.5 C 0 km/h
561 07-08-2021 08:00:00 14.65833 C 12.17 g/m*3 14.66 C 0 km/h
562 07-08-2021 09:00:00 15.80833 C 12.91 g/m*3 15.81 C 0 km/h
563 07-08-2021 10:00:00 17.59167 C 13.58 g/m*3 17.59 C 0 km/h
564 07-08-2021 11:00:00 19.9 C 13.92 g/m*3 19.9 C 0 km/h
565 07-08-2021 12:00:00 20.61667 C 13.6 g/m*3 20.62 C 0 km/h
566 07-08-2021 13:00:00 21.34167 C 13.81 g/m*3 21.34 C 2.675 km/h
567 07-08-2021 14:00:00 21.58333 C 14.01 g/m*3 21.58 C 1.20833 km/h
568 07-08-2021 15:00:00 22.21667 C 13.45 g/m*3 22.22 C 5.25 km/h
569 07-08-2021 16:00:00 23.175 C 13.42 g/m*3 23.18 C 6.84167 km/h
570 07-08-2021 17:00:00 23.475 C 13.16 g/m*3 23.48 C 11.025 km/h
571 07-08-2021 18:00:00 23.11667 C 13.54 g/m*3 23.12 C 6.71667 km/h
572 07-08-2021 19:00:00 21.21667 C 13.8 g/m*3 21.22 C 3.34167 km/h
573 07-08-2021 20:00:00 18.85833 C 12.89 g/m*3 18.86 C 6.7 km/h
574 07-08-2021 21:00:00 14.875 C 11.58 g/m*3 14.88 C 3.49167 km/h
575 07-08-2021 22:00:00 14.59167 C 11.81 g/m*3 14.59 C 1.86667 km/h
Sensor: Nr:Datum:Temp:Abs-Feuchte:Windchill:Wind:
Aussen-T/F 576 07-08-2021 23:00:00 14.63333 C 11.93 g/m*3 14.63 C 2 km/h
577 08-08-2021 00:00:00 14.35 C 11.74 g/m*3 14.35 C 1.73333 km/h
578 08-08-2021 01:00:00 13.76667 C 11.38 g/m*3 13.77 C 0 km/h
579 08-08-2021 02:00:00 14.025 C 11.65 g/m*3 14.03 C 3.49167 km/h
580 08-08-2021 03:00:00 14.15 C 11.69 g/m*3 14.15 C 4.55 km/h
581 08-08-2021 04:00:00 13.88333 C 11.51 g/m*3 13.88 C 4.55 km/h
582 08-08-2021 05:00:00 14.05 C 11.74 g/m*3 14.05 C 1.6 km/h
583 08-08-2021 06:00:00 14.15 C 11.81 g/m*3 14.15 C 4.14167 km/h
584 08-08-2021 07:00:00 14.45833 C 12.03 g/m*3 14.46 C 3.20833 km/h
585 08-08-2021 08:00:00 14.54167 C 12 g/m*3 14.54 C 8.85833 km/h
586 08-08-2021 09:00:00 15.50833 C 11.9 g/m*3 15.51 C 10.625 km/h
587 08-08-2021 10:00:00 16.45833 C 11.88 g/m*3 16.46 C 13.96667 km/h
588 08-08-2021 11:00:00 17.63333 C 11.92 g/m*3 17.63 C 12.35833 km/h
589 08-08-2021 12:00:00 18.00833 C 11.53 g/m*3 18.01 C 12.63333 km/h
590 08-08-2021 13:00:00 17.50909 C 11.81 g/m*3 17.51 C 8.22727 km/h
591 08-08-2021 15:00:00 17.325 C 12.52 g/m*3 17.33 C 7.2375 km/h
592 08-08-2021 16:00:00 17.875 C 12.35 g/m*3 17.88 C 10.76667 km/h
593 08-08-2021 17:00:00 20.28333 C 12.56 g/m*3 20.28 C 13.025 km/h
594 08-08-2021 18:00:00 20.79167 C 12.34 g/m*3 20.79 C 13.03333 km/h
595 08-08-2021 19:00:00 20.04167 C 12.13 g/m*3 20.04 C 10.08333 km/h
596 08-08-2021 20:00:00 18.45 C 12.27 g/m*3 18.45 C 4.275 km/h
597 08-08-2021 21:00:00 15.05833 C 11.25 g/m*3 15.06 C 5.46667 km/h
598 08-08-2021 22:00:00 13.875 C 10.87 g/m*3 13.88 C 4.80833 km/h
599 08-08-2021 23:00:00 13.06667 C 10.5 g/m*3 13.07 C 2.4 km/h
600 09-08-2021 00:00:00 12.825 C 10.45 g/m*3 12.83 C 3.06667 km/h
Sensor: Nr:Datum:Temp:Abs-Feuchte:Windchill:Wind:
Aussen-T/F 601 09-08-2021 01:00:00 12.65833 C 10.4 g/m*3 12.66 C 1.46667 km/h
602 09-08-2021 02:00:00 12.5 C 10.26 g/m*3 12.5 C 2.13333 km/h
603 09-08-2021 03:00:00 12.35 C 10.13 g/m*3 12.35 C 0.93333 km/h
604 09-08-2021 04:00:00 12.31667 C 10.18 g/m*3 12.32 C 0.13333 km/h
605 09-08-2021 05:00:00 12.28333 C 10.2 g/m*3 12.28 C 0 km/h
606 09-08-2021 06:00:00 12.23333 C 10.26 g/m*3 12.23 C 0.26667 km/h
607 09-08-2021 07:00:00 12.84167 C 10.67 g/m*3 12.84 C 0.13333 km/h
608 09-08-2021 08:00:00 14.11667 C 11.49 g/m*3 14.12 C 0.26667 km/h
609 09-08-2021 09:00:00 15.60833 C 12.06 g/m*3 15.61 C 4 km/h
610 09-08-2021 10:00:00 18.04444 C 12.29 g/m*3 18.04 C 11.28889 km/h
611 09-08-2021 16:00:00 23.05 C 11.85 g/m*3 23.05 C 14.9 km/h
612 09-08-2021 17:00:00 22.13333 C 12.08 g/m*3 22.13 C 9.275 km/h
613 09-08-2021 18:00:00 22.73333 C 12.4 g/m*3 22.73 C 8.34167 km/h
614 09-08-2021 19:00:00 22.5 C 12.78 g/m*3 22.5 C 5.225 km/h
615 09-08-2021 20:00:00 19.86667 C 12.89 g/m*3 19.87 C 4 km/h
616 09-08-2021 21:00:00 16.59167 C 11.95 g/m*3 16.59 C 3.73333 km/h
617 09-08-2021 22:00:00 15.15 C 11.51 g/m*3 15.15 C 0.66667 km/h
618 09-08-2021 23:00:00 14.06667 C 10.99 g/m*3 14.07 C 0.4 km/h
619 10-08-2021 00:00:00 13.2 C 10.55 g/m*3 13.2 C 0 km/h
620 10-08-2021 01:00:00 12.425 C 10.16 g/m*3 12.43 C 0 km/h
621 10-08-2021 02:00:00 12.08333 C 10.06 g/m*3 12.08 C 0 km/h
622 10-08-2021 03:00:00 12.16667 C 10.22 g/m*3 12.17 C 0 km/h
623 10-08-2021 04:00:00 12.35833 C 10.35 g/m*3 12.36 C 0 km/h
624 10-08-2021 05:00:00 12.65 C 10.65 g/m*3 12.65 C 0 km/h
625 10-08-2021 06:00:00 12.83333 C 10.78 g/m*3 12.83 C 0 km/h
Sensor: Nr:Datum:Temp:Abs-Feuchte:Windchill:Wind:
Aussen-T/F 626 10-08-2021 07:00:00 13.30833 C 11.1 g/m*3 13.31 C 0.8 km/h
627 10-08-2021 08:00:00 14.15 C 11.69 g/m*3 14.15 C 0.13333 km/h
628 10-08-2021 09:00:00 15.19167 C 12.45 g/m*3 15.19 C 0.93333 km/h
629 10-08-2021 10:00:00 17.3 C 13.36 g/m*3 17.3 C 6.59167 km/h
630 10-08-2021 11:00:00 19.925 C 13.68 g/m*3 19.93 C 9.54167 km/h
631 10-08-2021 12:00:00 20.65 C 14.42 g/m*3 20.65 C 4.95 km/h
632 10-08-2021 13:00:00 21.67273 C 13.76 g/m*3 21.67 C 12.31818 km/h
633 10-08-2021 14:00:00 22.84167 C 13.77 g/m*3 22.84 C 12.36667 km/h
634 10-08-2021 15:00:00 23.58333 C 13.86 g/m*3 23.58 C 10.49167 km/h
635 10-08-2021 16:00:00 22.575 C 13.96 g/m*3 22.58 C 10.75 km/h
636 10-08-2021 17:00:00 21.90833 C 14 g/m*3 21.91 C 9.41667 km/h
637 10-08-2021 18:00:00 22.43333 C 14.26 g/m*3 22.43 C 16.1 km/h
638 10-08-2021 19:00:00 22.65 C 14.29 g/m*3 22.65 C 11.16667 km/h
639 10-08-2021 20:00:00 21.51667 C 13.94 g/m*3 21.52 C 5.375 km/h
640 10-08-2021 21:00:00 19.03333 C 13.57 g/m*3 19.03 C 2.13333 km/h
641 10-08-2021 22:00:00 17.9 C 13.55 g/m*3 17.9 C 1.86667 km/h
642 10-08-2021 23:00:00 17.825 C 13.53 g/m*3 17.83 C 0 km/h
643 11-08-2021 00:00:00 17 C 12.99 g/m*3 17 C 2 km/h
644 11-08-2021 01:00:00 15.825 C 12.34 g/m*3 15.83 C 0.26667 km/h
645 11-08-2021 02:00:00 15.05833 C 11.99 g/m*3 15.06 C 0.66667 km/h
646 11-08-2021 03:00:00 14.28333 C 11.54 g/m*3 14.28 C 0 km/h
647 11-08-2021 04:00:00 13.43333 C 10.98 g/m*3 13.43 C 0 km/h
648 11-08-2021 05:00:00 13.43333 C 11.13 g/m*3 13.43 C 1.33333 km/h
649 11-08-2021 06:00:00 13.85833 C 11.48 g/m*3 13.86 C 0.93333 km/h
650 11-08-2021 07:00:00 13.85 C 11.47 g/m*3 13.85 C 0 km/h
Sensor: Nr:Datum:Temp:Abs-Feuchte:Windchill:Wind:
Aussen-T/F 651 11-08-2021 08:00:00 14.20833 C 11.82 g/m*3 14.21 C 1.46667 km/h
652 11-08-2021 09:00:00 14.74545 C 12.25 g/m*3 14.75 C 0 km/h
653 11-08-2021 10:00:00 16.325 C 13.48 g/m*3 16.33 C 0 km/h
654 11-08-2021 11:00:00 18.775 C 14.9 g/m*3 18.77 C 0 km/h
655 11-08-2021 12:00:00 21.43333 C 14.84 g/m*3 21.43 C 0.13333 km/h
656 11-08-2021 13:00:00 22.81818 C 15.14 g/m*3 22.82 C 1.61818 km/h
657 11-08-2021 14:00:00 23.44167 C 15.42 g/m*3 23.44 C 0.26667 km/h
658 11-08-2021 15:00:00 24.15 C 16.05 g/m*3 24.15 C 0.93333 km/h
659 11-08-2021 16:00:00 26.31667 C 14.58 g/m*3 26.32 C 2 km/h
660 11-08-2021 17:00:00 27.26667 C 15.91 g/m*3 27.27 C 0.8 km/h
661 11-08-2021 18:00:00 26.225 C 16.83 g/m*3 26.23 C 0 km/h
662 11-08-2021 19:00:00 22.55 C 15.79 g/m*3 22.55 C 1.6 km/h
663 11-08-2021 20:00:00 21.54167 C 15.39 g/m*3 21.54 C 2.53333 km/h
664 11-08-2021 21:00:00 19.28333 C 14.15 g/m*3 19.28 C 2.40833 km/h
665 11-08-2021 22:00:00 17.65833 C 13.39 g/m*3 17.66 C 0 km/h
666 11-08-2021 23:00:00 16.58333 C 12.88 g/m*3 16.58 C 0.13333 km/h
667 12-08-2021 00:00:00 15.86667 C 12.56 g/m*3 15.87 C 0 km/h
668 12-08-2021 01:00:00 15.35833 C 12.32 g/m*3 15.36 C 0 km/h
669 12-08-2021 02:00:00 14.875 C 12.04 g/m*3 14.88 C 0 km/h
670 12-08-2021 03:00:00 14.53333 C 11.84 g/m*3 14.53 C 0 km/h
671 12-08-2021 04:00:00 14.03333 C 11.48 g/m*3 14.03 C 0 km/h
672 12-08-2021 05:00:00 13.65833 C 11.27 g/m*3 13.66 C 0 km/h
673 12-08-2021 06:00:00 13.61667 C 11.31 g/m*3 13.62 C 0 km/h
674 12-08-2021 07:00:00 14.375 C 11.89 g/m*3 14.38 C 0 km/h
675 12-08-2021 08:00:00 15.16667 C 12.49 g/m*3 15.17 C 0.66667 km/h
Sensor: Nr:Datum:Temp:Abs-Feuchte:Windchill:Wind:
Aussen-T/F 676 12-08-2021 09:00:00 16.14167 C 13.19 g/m*3 16.14 C 0.26667 km/h
677 12-08-2021 10:00:00 18.15833 C 14.56 g/m*3 18.16 C 0 km/h
678 12-08-2021 11:00:00 20.71667 C 15.63 g/m*3 20.72 C 0.26667 km/h
679 12-08-2021 12:00:00 23.36667 C 16.28 g/m*3 23.37 C 0.4 km/h
680 12-08-2021 13:00:00 24.525 C 16.08 g/m*3 24.53 C 2.66667 km/h
681 12-08-2021 14:00:00 25.23333 C 16.19 g/m*3 25.23 C 1.6 km/h
682 12-08-2021 15:00:00 26.275 C 16.67 g/m*3 26.28 C 5.5 km/h
683 12-08-2021 16:00:00 28.53333 C 16.57 g/m*3 28.53 C 4.95833 km/h
684 12-08-2021 17:00:00 29.95833 C 17.62 g/m*3 29.96 C 1.475 km/h
685 12-08-2021 18:00:00 30.03333 C 18.73 g/m*3 30.03 C 0.4 km/h
686 12-08-2021 19:00:00 26.59167 C 17.7 g/m*3 26.59 C 4.53333 km/h
687 12-08-2021 20:00:00 23.16667 C 16.12 g/m*3 23.17 C 6.58333 km/h
688 12-08-2021 21:00:00 21.16667 C 15.68 g/m*3 21.17 C 2.13333 km/h
689 12-08-2021 22:00:00 19.99167 C 15.13 g/m*3 19.99 C 0.13333 km/h
690 12-08-2021 23:00:00 18.71667 C 14.4 g/m*3 18.72 C 0.13333 km/h
691 13-08-2021 00:00:00 17.8 C 13.9 g/m*3 17.8 C 0 km/h
692 13-08-2021 01:00:00 17.15 C 13.64 g/m*3 17.15 C 0.4 km/h
693 13-08-2021 02:00:00 16.83333 C 13.47 g/m*3 16.83 C 0.13333 km/h
694 13-08-2021 03:00:00 16.29167 C 13.07 g/m*3 16.29 C 0 km/h
695 13-08-2021 04:00:00 16.00833 C 12.95 g/m*3 16.01 C 0 km/h
696 13-08-2021 05:00:00 15.675 C 12.71 g/m*3 15.68 C 0 km/h
697 13-08-2021 06:00:00 15.65 C 12.81 g/m*3 15.65 C 0 km/h
698 13-08-2021 07:00:00 15.90833 C 13.01 g/m*3 15.91 C 0.13333 km/h
699 13-08-2021 08:00:00 16.9 C 13.93 g/m*3 16.9 C 0.13333 km/h
700 13-08-2021 09:00:00 18.15 C 14.93 g/m*3 18.15 C 0.26667 km/h
Sensor: Nr:Datum:Temp:Abs-Feuchte:Windchill:Wind:
Aussen-T/F 701 13-08-2021 10:00:00 19.7 C 16.19 g/m*3 19.7 C 0 km/h
702 13-08-2021 11:00:00 21.95833 C 17.47 g/m*3 21.96 C 0 km/h
703 13-08-2021 12:00:00 24.09167 C 17.55 g/m*3 24.09 C 5.50833 km/h
704 13-08-2021 13:00:00 25.66667 C 17.21 g/m*3 25.67 C 5.49167 km/h
705 13-08-2021 14:00:00 26.96667 C 17.45 g/m*3 26.97 C 9.55 km/h
706 13-08-2021 15:00:00 26.96667 C 17.3 g/m*3 26.97 C 8.60833 km/h
707 13-08-2021 16:00:00 26.69167 C 17.1 g/m*3 26.69 C 11.83333 km/h
708 13-08-2021 17:00:00 26.30833 C 16.22 g/m*3 26.31 C 10.75833 km/h
709 13-08-2021 18:00:00 25.84167 C 16.47 g/m*3 25.84 C 4.025 km/h
710 13-08-2021 19:00:00 26.025 C 15.46 g/m*3 26.03 C 7.25833 km/h
711 13-08-2021 20:00:00 24.18333 C 15.57 g/m*3 24.18 C 2.13333 km/h
712 13-08-2021 21:00:00 20.59167 C 14.8 g/m*3 20.59 C 4.4 km/h
713 13-08-2021 22:00:00 19 C 14.22 g/m*3 19 C 0.53333 km/h
714 13-08-2021 23:00:00 17.81667 C 13.7 g/m*3 17.82 C 0.13333 km/h
715 14-08-2021 00:00:00 17.08333 C 13.35 g/m*3 17.08 C 0.26667 km/h
716 14-08-2021 01:00:00 16.14167 C 12.75 g/m*3 16.14 C 0 km/h
717 14-08-2021 02:00:00 15.39167 C 12.3 g/m*3 15.39 C 0 km/h
718 14-08-2021 03:00:00 15.09167 C 12.2 g/m*3 15.09 C 0 km/h
719 14-08-2021 04:00:00 14.73333 C 11.99 g/m*3 14.73 C 0 km/h
720 14-08-2021 05:00:00 14.55 C 11.89 g/m*3 14.55 C 0.13333 km/h
721 14-08-2021 06:00:00 14.38333 C 11.83 g/m*3 14.38 C 0 km/h
722 14-08-2021 07:00:00 14.325 C 11.81 g/m*3 14.33 C 0 km/h
723 14-08-2021 08:00:00 14.93333 C 12.31 g/m*3 14.93 C 0.66667 km/h
724 14-08-2021 09:00:00 16.10833 C 13.3 g/m*3 16.11 C 0.13333 km/h
725 14-08-2021 10:00:00 18.04167 C 14.92 g/m*3 18.04 C 0.4 km/h
Sensor: Nr:Datum:Temp:Abs-Feuchte:Windchill:Wind:
Aussen-T/F 726 14-08-2021 11:00:00 22.025 C 16.05 g/m*3 22.03 C 5.21667 km/h
727 14-08-2021 12:00:00 24.475 C 15.59 g/m*3 24.48 C 9.275 km/h
728 14-08-2021 13:00:00 25.06667 C 16.19 g/m*3 25.07 C 4.675 km/h
729 14-08-2021 14:00:00 26.575 C 15.61 g/m*3 26.58 C 10.20833 km/h
730 14-08-2021 15:00:00 27.84167 C 15.59 g/m*3 27.84 C 5.775 km/h
731 14-08-2021 16:00:00 26.53333 C 16.93 g/m*3 26.53 C 4.69167 km/h
732 14-08-2021 17:00:00 24.41667 C 16.76 g/m*3 24.42 C 4.95 km/h
733 14-08-2021 18:00:00 23.80833 C 16.68 g/m*3 23.81 C 3.86667 km/h
734 14-08-2021 19:00:00 22.79167 C 15.72 g/m*3 22.79 C 4.94167 km/h
735 14-08-2021 20:00:00 21.93333 C 14.65 g/m*3 21.93 C 2.93333 km/h
736 14-08-2021 21:00:00 19.99167 C 13.42 g/m*3 19.99 C 5.88333 km/h
737 14-08-2021 22:00:00 18.58333 C 12.91 g/m*3 18.58 C 2.8 km/h
738 14-08-2021 23:00:00 17.50833 C 12.67 g/m*3 17.51 C 0.53333 km/h
739 15-08-2021 00:00:00 16.225 C 12.21 g/m*3 16.23 C 0 km/h
740 15-08-2021 01:00:00 15.23333 C 11.81 g/m*3 15.23 C 0 km/h
741 15-08-2021 02:00:00 14.60833 C 11.6 g/m*3 14.61 C 0.8 km/h
742 15-08-2021 03:00:00 14.225 C 11.44 g/m*3 14.23 C 1.33333 km/h
743 15-08-2021 04:00:00 13.78333 C 11.21 g/m*3 13.78 C 0 km/h
744 15-08-2021 05:00:00 13.10833 C 10.75 g/m*3 13.11 C 0 km/h
745 15-08-2021 06:00:00 12.65833 C 10.55 g/m*3 12.66 C 0.13333 km/h
746 15-08-2021 07:00:00 12.98333 C 10.87 g/m*3 12.98 C 0.13333 km/h
747 15-08-2021 08:00:00 13.89167 C 11.5 g/m*3 13.89 C 0 km/h
748 15-08-2021 09:00:00 15.14167 C 12.52 g/m*3 15.14 C 0 km/h
749 15-08-2021 10:00:00 16.575 C 13.61 g/m*3 16.58 C 0 km/h
750 15-08-2021 11:00:00 18.69167 C 15.2 g/m*3 18.69 C 0 km/h
Sensor: Nr:Datum:Temp:Abs-Feuchte:Windchill:Wind:
Aussen-T/F 751 15-08-2021 12:00:00 21.50833 C 15.88 g/m*3 21.51 C 0 km/h
752 15-08-2021 13:00:00 23.05 C 16.25 g/m*3 23.05 C 0 km/h
753 15-08-2021 14:00:00 25.61667 C 14.71 g/m*3 25.62 C 4.15 km/h
754 15-08-2021 15:00:00 27.09167 C 15.78 g/m*3 27.09 C 2.275 km/h
755 15-08-2021 16:00:00 27.925 C 16.77 g/m*3 27.93 C 2.80833 km/h
756 15-08-2021 17:00:00 26.35833 C 17.1 g/m*3 26.36 C 2.13333 km/h
757 15-08-2021 18:00:00 25.21667 C 17.4 g/m*3 25.22 C 5.06667 km/h
758 15-08-2021 19:00:00 23.125 C 16.54 g/m*3 23.13 C 6.55 km/h
759 15-08-2021 20:00:00 21.51667 C 15.18 g/m*3 21.52 C 6.84167 km/h
760 15-08-2021 21:00:00 19.61667 C 14.21 g/m*3 19.62 C 1.06667 km/h
761 15-08-2021 22:00:00 18.61667 C 13.83 g/m*3 18.62 C 0 km/h
762 15-08-2021 23:00:00 18.15 C 13.73 g/m*3 18.15 C 0.26667 km/h
763 16-08-2021 00:00:00 17.925 C 13.67 g/m*3 17.93 C 0.93333 km/h
764 16-08-2021 01:00:00 18.21667 C 14.05 g/m*3 18.22 C 1.73333 km/h
765 16-08-2021 02:00:00 18.31667 C 13.94 g/m*3 18.32 C 1.86667 km/h
766 16-08-2021 03:00:00 18.43333 C 13.99 g/m*3 18.43 C 0.8 km/h
767 16-08-2021 04:00:00 18.325 C 12.92 g/m*3 18.33 C 8.45833 km/h
768 16-08-2021 05:00:00 17.26667 C 11 g/m*3 17.27 C 5.48333 km/h
769 16-08-2021 06:00:00 15.5 C 10.91 g/m*3 15.5 C 2.93333 km/h
770 16-08-2021 07:00:00 15.35833 C 10.95 g/m*3 15.36 C 4.40833 km/h
771 16-08-2021 08:00:00 16.475 C 11.27 g/m*3 16.48 C 7.66667 km/h
772 16-08-2021 09:00:00 17.4 C 11.57 g/m*3 17.4 C 12.9 km/h
773 16-08-2021 10:00:00 18.14167 C 12.03 g/m*3 18.14 C 12.5 km/h
774 16-08-2021 11:00:00 18.45833 C 12.32 g/m*3 18.46 C 10.21667 km/h
775 16-08-2021 12:00:00 18.74167 C 12.67 g/m*3 18.74 C 14.23333 km/h
Sensor: Nr:Datum:Temp:Abs-Feuchte:Windchill:Wind:
Aussen-T/F 776 16-08-2021 13:00:00 20.225 C 12.74 g/m*3 20.23 C 18.24167 km/h
777 16-08-2021 14:00:00 20.825 C 12.84 g/m*3 20.83 C 21.44167 km/h
778 16-08-2021 15:00:00 20.275 C 13.11 g/m*3 20.27 C 19.30833 km/h
779 16-08-2021 16:00:00 16.15833 C 12.14 g/m*3 16.16 C 13.15 km/h
780 16-08-2021 17:00:00 15.575 C 12.26 g/m*3 15.58 C 3.48333 km/h
781 16-08-2021 18:00:00 15.86667 C 11.71 g/m*3 15.87 C 11.53333 km/h
782 16-08-2021 19:00:00 14.61667 C 10.93 g/m*3 14.62 C 11.83333 km/h
783 16-08-2021 20:00:00 13.31667 C 10.56 g/m*3 13.32 C 4.40833 km/h
784 16-08-2021 21:00:00 12.775 C 10.47 g/m*3 12.78 C 4.26667 km/h
785 16-08-2021 22:00:00 12.04167 C 10.06 g/m*3 12.04 C 2 km/h
786 16-08-2021 23:00:00 11.325 C 9.68 g/m*3 11.33 C 5.20833 km/h
787 17-08-2021 00:00:00 10.81667 C 9.41 g/m*3 10.65 C 5.09167 km/h
788 17-08-2021 01:00:00 10.74167 C 9.36 g/m*3 10.74 C 2.26667 km/h
789 17-08-2021 02:00:00 10.68333 C 9.35 g/m*3 10.51 C 5.08333 km/h
790 17-08-2021 03:00:00 11.08333 C 9.48 g/m*3 11.08 C 7.65833 km/h
791 17-08-2021 04:00:00 10.85 C 9.22 g/m*3 10.38 C 6.29167 km/h
792 17-08-2021 05:00:00 10.60833 C 9.16 g/m*3 9.97 C 6.84167 km/h
793 17-08-2021 06:00:00 10.75 C 9.22 g/m*3 9.79 C 8.48333 km/h
794 17-08-2021 07:00:00 11.33333 C 9.47 g/m*3 11.33 C 8.61667 km/h
795 17-08-2021 08:00:00 11.95833 C 9.73 g/m*3 11.96 C 11.43333 km/h
796 17-08-2021 09:00:00 13.425 C 10.41 g/m*3 13.43 C 14.1 km/h
797 17-08-2021 10:00:00 14.475 C 10.62 g/m*3 14.48 C 14.1 km/h
798 17-08-2021 11:00:00 15.16667 C 10.85 g/m*3 15.17 C 15.56667 km/h
799 17-08-2021 12:00:00 16.58333 C 11.36 g/m*3 16.58 C 12.9 km/h
800 17-08-2021 13:00:00 16.89167 C 10.85 g/m*3 16.89 C 14.36667 km/h
Sensor: Nr:Datum:Temp:Abs-Feuchte:Windchill:Wind:
Aussen-T/F 801 17-08-2021 14:00:00 16.3 C 10.58 g/m*3 16.3 C 12.9 km/h
802 17-08-2021 15:00:00 16.69167 C 10.77 g/m*3 16.69 C 13.16667 km/h
803 17-08-2021 16:00:00 16.31667 C 11.17 g/m*3 16.32 C 6.56667 km/h
804 17-08-2021 17:00:00 15.5 C 11.78 g/m*3 15.5 C 4 km/h
805 17-08-2021 18:00:00 14.775 C 11.66 g/m*3 14.78 C 2.26667 km/h
806 17-08-2021 19:00:00 14.30833 C 11.46 g/m*3 14.31 C 1.86667 km/h
807 17-08-2021 20:00:00 14.03333 C 11.37 g/m*3 14.03 C 1.46667 km/h
808 17-08-2021 21:00:00 13.675 C 11.22 g/m*3 13.68 C 1.86667 km/h
809 17-08-2021 22:00:00 13.6 C 11.2 g/m*3 13.6 C 3.74167 km/h
810 17-08-2021 23:00:00 13.74167 C 11.4 g/m*3 13.74 C 2.8 km/h
811 18-08-2021 00:00:00 13.875 C 11.49 g/m*3 13.88 C 8.31667 km/h
812 18-08-2021 01:00:00 14.10833 C 11.55 g/m*3 14.11 C 6.03333 km/h
813 18-08-2021 02:00:00 14.2 C 11.6 g/m*3 14.2 C 5.49167 km/h
814 18-08-2021 03:00:00 14.14167 C 11.56 g/m*3 14.14 C 5.65 km/h
815 18-08-2021 04:00:00 14.375 C 11.62 g/m*3 14.38 C 6.43333 km/h
816 18-08-2021 05:00:00 14.56667 C 11.72 g/m*3 14.57 C 6.175 km/h
817 18-08-2021 06:00:00 14.74167 C 11.75 g/m*3 14.74 C 6.3 km/h
818 18-08-2021 07:00:00 14.89167 C 11.97 g/m*3 14.89 C 5.20833 km/h
819 18-08-2021 08:00:00 15.46667 C 12.4 g/m*3 15.47 C 4.80833 km/h
820 18-08-2021 09:00:00 16.04167 C 12.9 g/m*3 16.04 C 4.275 km/h
821 18-08-2021 10:00:00 16.58333 C 13.3 g/m*3 16.58 C 4.69167 km/h
822 18-08-2021 11:00:00 17.09167 C 13.81 g/m*3 17.09 C 2.94167 km/h
823 18-08-2021 12:00:00 17.45833 C 13.87 g/m*3 17.46 C 5.36667 km/h
824 18-08-2021 13:00:00 18.8 C 14.37 g/m*3 18.8 C 4.825 km/h
825 18-08-2021 14:00:00 19.45833 C 14.08 g/m*3 19.46 C 9.40833 km/h
Sensor: Nr:Datum:Temp:Abs-Feuchte:Windchill:Wind:
Aussen-T/F 826 18-08-2021 15:00:00 19.78333 C 13.57 g/m*3 19.78 C 10.60833 km/h
827 18-08-2021 16:00:00 19.5 C 13.92 g/m*3 19.5 C 3.875 km/h
828 18-08-2021 17:00:00 19.2 C 13.93 g/m*3 19.2 C 4.13333 km/h
829 18-08-2021 18:00:00 18.99167 C 13.61 g/m*3 18.99 C 5.63333 km/h
830 18-08-2021 19:00:00 18.21667 C 13.37 g/m*3 18.22 C 3.73333 km/h
831 18-08-2021 20:00:00 17.51667 C 13.2 g/m*3 17.52 C 4.425 km/h
832 18-08-2021 21:00:00 17.15 C 13.08 g/m*3 17.15 C 2.66667 km/h
833 18-08-2021 22:00:00 17.03333 C 12.92 g/m*3 17.03 C 5.09167 km/h
834 18-08-2021 23:00:00 17.21667 C 12.83 g/m*3 17.22 C 4.68333 km/h
835 19-08-2021 00:00:00 17.11667 C 12.83 g/m*3 17.12 C 4.94167 km/h
836 19-08-2021 01:00:00 16.975 C 12.83 g/m*3 16.98 C 7.65 km/h
837 19-08-2021 02:00:00 16.99167 C 12.85 g/m*3 16.99 C 7.91667 km/h
838 19-08-2021 03:00:00 16.51667 C 12.91 g/m*3 16.52 C 2.4 km/h
839 19-08-2021 04:00:00 16.2 C 12.82 g/m*3 16.2 C 5.76667 km/h
840 19-08-2021 05:00:00 16.5 C 12.81 g/m*3 16.5 C 7.38333 km/h
841 19-08-2021 06:00:00 16.575 C 12.85 g/m*3 16.58 C 4.68333 km/h
842 19-08-2021 07:00:00 16.71667 C 12.93 g/m*3 16.72 C 7.10833 km/h
843 19-08-2021 08:00:00 17.225 C 13.2 g/m*3 17.23 C 6.45 km/h
844 19-08-2021 09:00:00 17.94167 C 13.62 g/m*3 17.94 C 8.48333 km/h
845 19-08-2021 10:00:00 19.09167 C 14.05 g/m*3 19.09 C 10.9 km/h
846 19-08-2021 11:00:00 19.95833 C 14.37 g/m*3 19.96 C 11.56667 km/h
847 19-08-2021 12:00:00 20.25833 C 14.43 g/m*3 20.26 C 14.1 km/h
848 19-08-2021 13:00:00 20.51667 C 14.32 g/m*3 20.52 C 10.625 km/h
849 19-08-2021 14:00:00 20.73333 C 13.89 g/m*3 20.73 C 11.55833 km/h
850 19-08-2021 15:00:00 20.95833 C 14.04 g/m*3 20.96 C 11.01667 km/h
Sensor: Nr:Datum:Temp:Abs-Feuchte:Windchill:Wind:
Aussen-T/F 851 19-08-2021 16:00:00 21.23333 C 14.16 g/m*3 21.23 C 9.675 km/h
852 19-08-2021 17:00:00 20.6 C 13.92 g/m*3 20.6 C 8.20833 km/h
853 19-08-2021 18:00:00 19.90833 C 13.64 g/m*3 19.91 C 4.29167 km/h
854 19-08-2021 19:00:00 19.525 C 13.61 g/m*3 19.52 C 3.46667 km/h
855 19-08-2021 20:00:00 18.51667 C 13.36 g/m*3 18.52 C 2.93333 km/h
856 19-08-2021 21:00:00 16.81667 C 12.63 g/m*3 16.82 C 5.74167 km/h
857 19-08-2021 22:00:00 15.7 C 12.15 g/m*3 15.7 C 0.13333 km/h
858 19-08-2021 23:00:00 15.05833 C 11.98 g/m*3 15.06 C 0 km/h
859 20-08-2021 00:00:00 15.275 C 12.3 g/m*3 15.28 C 0 km/h
860 20-08-2021 01:00:00 15.125 C 12.19 g/m*3 15.13 C 0.53333 km/h
861 20-08-2021 02:00:00 15.20833 C 12.34 g/m*3 15.21 C 1.6 km/h
862 20-08-2021 03:00:00 15.1 C 12.12 g/m*3 15.1 C 1.06667 km/h
863 20-08-2021 04:00:00 14.21667 C 11.56 g/m*3 14.22 C 1.06667 km/h
864 20-08-2021 05:00:00 14.14167 C 11.56 g/m*3 14.14 C 0 km/h
865 20-08-2021 06:00:00 14.325 C 11.75 g/m*3 14.33 C 1.06667 km/h
866 20-08-2021 07:00:00 14.65833 C 11.86 g/m*3 14.66 C 0.66667 km/h
867 20-08-2021 08:00:00 15.1 C 11.92 g/m*3 15.1 C 0.53333 km/h
868 20-08-2021 09:00:00 15.475 C 12.12 g/m*3 15.48 C 1.06667 km/h
869 20-08-2021 10:00:00 16.75833 C 12.45 g/m*3 16.76 C 1.33333 km/h
870 20-08-2021 11:00:00 19.01667 C 13.1 g/m*3 19.02 C 0.66667 km/h
871 20-08-2021 12:00:00 20.78333 C 13.48 g/m*3 20.78 C 4.81667 km/h
872 20-08-2021 13:00:00 21.10833 C 13.81 g/m*3 21.11 C 4.28333 km/h
873 20-08-2021 14:00:00 21.79167 C 13.87 g/m*3 21.79 C 7.91667 km/h
874 20-08-2021 15:00:00 21.16667 C 14.47 g/m*3 21.17 C 9.13333 km/h
875 20-08-2021 16:00:00 20.19167 C 14.21 g/m*3 20.19 C 3.21667 km/h
Sensor: Nr:Datum:Temp:Abs-Feuchte:Windchill:Wind:
Aussen-T/F 876 20-08-2021 17:00:00 21.40833 C 14.8 g/m*3 21.41 C 1.73333 km/h
877 20-08-2021 18:00:00 21.725 C 15.04 g/m*3 21.73 C 0.66667 km/h
878 20-08-2021 19:00:00 21.01667 C 14.99 g/m*3 21.02 C 2 km/h
879 20-08-2021 20:00:00 18.775 C 13.86 g/m*3 18.77 C 4.66667 km/h
880 20-08-2021 21:00:00 17.5 C 13.26 g/m*3 17.5 C 2 km/h
881 20-08-2021 22:00:00 16.30833 C 12.63 g/m*3 16.31 C 0 km/h
882 20-08-2021 23:00:00 15.275 C 12.09 g/m*3 15.28 C 0 km/h
883 21-08-2021 00:00:00 14.59167 C 11.7 g/m*3 14.59 C 0 km/h
884 21-08-2021 01:00:00 14.15833 C 11.51 g/m*3 14.16 C 0 km/h
885 21-08-2021 02:00:00 13.625 C 11.2 g/m*3 13.63 C 0 km/h
886 21-08-2021 03:00:00 13.275 C 10.98 g/m*3 13.28 C 0 km/h
887 21-08-2021 04:00:00 13.61667 C 11.31 g/m*3 13.62 C 0 km/h
888 21-08-2021 05:00:00 13.375 C 11.13 g/m*3 13.38 C 0 km/h
889 21-08-2021 06:00:00 13.7 C 11.38 g/m*3 13.7 C 0 km/h
890 21-08-2021 07:00:00 13.725 C 11.45 g/m*3 13.73 C 0 km/h
891 21-08-2021 08:00:00 13.91667 C 11.64 g/m*3 13.92 C 0 km/h
892 21-08-2021 09:00:00 14.45833 C 12.03 g/m*3 14.46 C 0 km/h
893 21-08-2021 10:00:00 15.66667 C 12.95 g/m*3 15.67 C 0 km/h
894 21-08-2021 11:00:00 17.4 C 14.35 g/m*3 17.4 C 0 km/h
895 21-08-2021 12:00:00 19.89167 C 15.28 g/m*3 19.89 C 3.225 km/h
896 21-08-2021 13:00:00 23.13333 C 15.34 g/m*3 23.13 C 6.575 km/h
897 21-08-2021 14:00:00 24.325 C 15.2 g/m*3 24.33 C 5.48333 km/h
898 21-08-2021 15:00:00 25.64167 C 15.95 g/m*3 25.64 C 5.09167 km/h
899 21-08-2021 16:00:00 26.725 C 17.11 g/m*3 26.73 C 2.81667 km/h
900 21-08-2021 17:00:00 25.86667 C 18 g/m*3 25.87 C 0.66667 km/h
Sensor: Nr:Datum:Temp:Abs-Feuchte:Windchill:Wind:
Aussen-T/F 901 21-08-2021 18:00:00 24.64167 C 17.54 g/m*3 24.64 C 1.46667 km/h
902 21-08-2021 19:00:00 22.33333 C 15.96 g/m*3 22.33 C 5.2 km/h
903 21-08-2021 20:00:00 20.63333 C 14.7 g/m*3 20.63 C 5.35833 km/h
904 21-08-2021 21:00:00 19.20833 C 14.19 g/m*3 19.21 C 0.66667 km/h
905 21-08-2021 22:00:00 18.59167 C 14.32 g/m*3 18.59 C 0 km/h
906 21-08-2021 23:00:00 18.34167 C 14.42 g/m*3 18.34 C 0.13333 km/h
907 22-08-2021 00:00:00 18.25 C 14.55 g/m*3 18.25 C 0.13333 km/h
908 22-08-2021 01:00:00 18.33333 C 14.73 g/m*3 18.33 C 1.06667 km/h
909 22-08-2021 02:00:00 17.95833 C 14.53 g/m*3 17.96 C 2.54167 km/h
910 22-08-2021 03:00:00 17.425 C 14.1 g/m*3 17.43 C 0.13333 km/h
911 22-08-2021 04:00:00 16.85 C 13.69 g/m*3 16.85 C 0 km/h
912 22-08-2021 05:00:00 17.2 C 14.06 g/m*3 17.2 C 0.4 km/h
913 22-08-2021 06:00:00 17 C 13.89 g/m*3 17 C 4.15 km/h
914 22-08-2021 07:00:00 16.66667 C 13.66 g/m*3 16.67 C 4.4 km/h
915 22-08-2021 08:00:00 17.175 C 14.18 g/m*3 17.18 C 1.86667 km/h
916 22-08-2021 09:00:00 17.6 C 14.55 g/m*3 17.6 C 2.26667 km/h
917 22-08-2021 10:00:00 17.95833 C 14.82 g/m*3 17.96 C 2.275 km/h
918 22-08-2021 11:00:00 17.75833 C 14.43 g/m*3 17.76 C 4.80833 km/h
919 22-08-2021 12:00:00 17.46667 C 14.27 g/m*3 17.47 C 3.075 km/h
920 22-08-2021 13:00:00 19.14167 C 15.57 g/m*3 19.14 C 4.275 km/h
921 22-08-2021 14:00:00 19.79167 C 15.45 g/m*3 19.79 C 8.19167 km/h
922 22-08-2021 15:00:00 20.525 C 14.17 g/m*3 20.53 C 10.60833 km/h
923 22-08-2021 16:00:00 22.16667 C 13.96 g/m*3 22.17 C 11.56667 km/h
924 22-08-2021 17:00:00 21.43333 C 13.71 g/m*3 21.43 C 8.70833 km/h
925 22-08-2021 18:00:00 20.66667 C 13.8 g/m*3 20.67 C 11.01667 km/h
Sensor: Nr:Datum:Temp:Abs-Feuchte:Windchill:Wind:
Aussen-T/F 926 22-08-2021 19:00:00 19.45 C 13.6 g/m*3 19.45 C 5.5 km/h
927 22-08-2021 20:00:00 18.05833 C 13.36 g/m*3 18.06 C 4.15833 km/h
928 22-08-2021 21:00:00 17.2 C 12.85 g/m*3 17.2 C 4.54167 km/h
929 22-08-2021 22:00:00 16.425 C 12.62 g/m*3 16.43 C 2.26667 km/h
930 22-08-2021 23:00:00 15.775 C 12.44 g/m*3 15.78 C 0.93333 km/h
931 23-08-2021 00:00:00 15.5 C 12.39 g/m*3 15.5 C 1.2 km/h
932 23-08-2021 01:00:00 15.86667 C 12.7 g/m*3 15.87 C 1.6 km/h
933 23-08-2021 02:00:00 16.14167 C 12.8 g/m*3 16.14 C 1.86667 km/h
934 23-08-2021 03:00:00 15.78333 C 12.51 g/m*3 15.78 C 0 km/h
935 23-08-2021 04:00:00 14.94167 C 12.01 g/m*3 14.94 C 0.53333 km/h
936 23-08-2021 05:00:00 14.88333 C 12.11 g/m*3 14.88 C 0.13333 km/h
937 23-08-2021 06:00:00 15.09167 C 12.36 g/m*3 15.09 C 0 km/h
938 23-08-2021 07:00:00 15.26667 C 12.51 g/m*3 15.27 C 0 km/h
939 23-08-2021 08:00:00 15.90833 C 12.98 g/m*3 15.91 C 0 km/h
940 23-08-2021 09:00:00 16.51667 C 13.2 g/m*3 16.52 C 1.73333 km/h
941 23-08-2021 10:00:00 17.85 C 13.56 g/m*3 17.85 C 3.08333 km/h
942 23-08-2021 11:00:00 19.40833 C 13.65 g/m*3 19.41 C 4.15 km/h
943 23-08-2021 12:00:00 19.975 C 13.69 g/m*3 19.98 C 3.20833 km/h
944 23-08-2021 13:00:00 20.23333 C 13.83 g/m*3 20.23 C 7.25 km/h
945 23-08-2021 14:00:00 18.83333 C 14.31 g/m*3 18.83 C 3.075 km/h
946 23-08-2021 15:00:00 19.85 C 14.8 g/m*3 19.85 C 6.44167 km/h
947 23-08-2021 16:00:00 20.56667 C 14.56 g/m*3 20.57 C 6.325 km/h
948 23-08-2021 17:00:00 20.25833 C 14.01 g/m*3 20.26 C 11.14167 km/h
949 23-08-2021 18:00:00 19.7 C 13.49 g/m*3 19.7 C 10.76667 km/h
950 23-08-2021 19:00:00 19.54167 C 13.66 g/m*3 19.54 C 5.49167 km/h
Sensor: Nr:Datum:Temp:Abs-Feuchte:Windchill:Wind:
Aussen-T/F 951 23-08-2021 20:00:00 18.60833 C 13.67 g/m*3 18.61 C 1.06667 km/h
952 23-08-2021 21:00:00 17.33333 C 13.08 g/m*3 17.33 C 0.66667 km/h
953 23-08-2021 22:00:00 16.375 C 12.76 g/m*3 16.38 C 0.4 km/h
954 23-08-2021 23:00:00 15.69167 C 12.41 g/m*3 15.69 C 0.93333 km/h
955 24-08-2021 00:00:00 14.99167 C 11.98 g/m*3 14.99 C 2 km/h
956 24-08-2021 01:00:00 14.21667 C 11.49 g/m*3 14.22 C 0 km/h
957 24-08-2021 02:00:00 13.58333 C 11.12 g/m*3 13.58 C 0 km/h
958 24-08-2021 03:00:00 12.775 C 10.62 g/m*3 12.78 C 0 km/h
959 24-08-2021 04:00:00 12.05 C 10.16 g/m*3 12.05 C 0 km/h
960 24-08-2021 05:00:00 11.33333 C 9.74 g/m*3 11.33 C 0 km/h
961 24-08-2021 06:00:00 11.23333 C 9.75 g/m*3 11.23 C 0 km/h
962 24-08-2021 07:00:00 11.11667 C 9.68 g/m*3 11.12 C 0 km/h
963 24-08-2021 08:00:00 11.45 C 9.91 g/m*3 11.45 C 0 km/h
964 24-08-2021 09:00:00 12.19167 C 10.46 g/m*3 12.19 C 0 km/h
965 24-08-2021 10:00:00 13.275 C 11.19 g/m*3 13.28 C 0.93333 km/h
966 24-08-2021 11:00:00 14.81667 C 11.45 g/m*3 14.82 C 5.23333 km/h
967 24-08-2021 12:00:00 17.68333 C 10.92 g/m*3 17.68 C 9.68333 km/h
968 24-08-2021 13:00:00 18.95 C 11.29 g/m*3 18.95 C 13.83333 km/h
969 24-08-2021 14:00:00 20.19167 C 11.88 g/m*3 20.19 C 11.01667 km/h
970 24-08-2021 15:00:00 20.83333 C 12.06 g/m*3 20.83 C 8.475 km/h
971 24-08-2021 16:00:00 21.575 C 12.29 g/m*3 21.58 C 10.63333 km/h
972 24-08-2021 17:00:00 22.74167 C 12.03 g/m*3 22.74 C 8.60833 km/h
973 24-08-2021 18:00:00 22.325 C 11.55 g/m*3 22.33 C 8.71667 km/h
974 24-08-2021 19:00:00 20.475 C 12.08 g/m*3 20.48 C 2 km/h
975 24-08-2021 20:00:00 16.65 C 11.34 g/m*3 16.65 C 2.66667 km/h
Sensor: Nr:Datum:Temp:Abs-Feuchte:Windchill:Wind:
Aussen-T/F 976 24-08-2021 21:00:00 14.65 C 10.53 g/m*3 14.65 C 2 km/h
977 24-08-2021 22:00:00 13.825 C 10.09 g/m*3 13.83 C 4.80833 km/h
978 24-08-2021 23:00:00 12.94167 C 9.83 g/m*3 12.94 C 3.06667 km/h
979 25-08-2021 00:00:00 11.98333 C 9.5 g/m*3 11.98 C 0.13333 km/h
980 25-08-2021 01:00:00 11.08333 C 9.21 g/m*3 11.08 C 0 km/h
981 25-08-2021 02:00:00 10.6 C 9.07 g/m*3 10.6 C 0 km/h
982 25-08-2021 03:00:00 10.21667 C 8.92 g/m*3 10.22 C 0 km/h
983 25-08-2021 04:00:00 9.95 C 8.84 g/m*3 9.95 C 0 km/h
984 25-08-2021 05:00:00 9.625 C 8.72 g/m*3 9.63 C 0 km/h
985 25-08-2021 06:00:00 9.3 C 8.54 g/m*3 9.3 C 0 km/h
986 25-08-2021 07:00:00 9.34167 C 8.61 g/m*3 9.34 C 0 km/h
987 25-08-2021 08:00:00 9.875 C 8.95 g/m*3 9.88 C 0 km/h
988 25-08-2021 09:00:00 11 C 9.67 g/m*3 11 C 0 km/h
989 25-08-2021 10:00:00 12.34167 C 10.56 g/m*3 12.34 C 0 km/h
990 25-08-2021 11:00:00 13.84167 C 11.4 g/m*3 13.84 C 0 km/h
991 25-08-2021 12:00:00 16.15 C 11.95 g/m*3 16.15 C 0.26667 km/h
992 25-08-2021 13:00:00 18.475 C 11.55 g/m*3 18.48 C 3.49167 km/h
993 25-08-2021 14:00:00 19.95833 C 11.42 g/m*3 19.96 C 4.01667 km/h
994 25-08-2021 15:00:00 20.84167 C 11.07 g/m*3 20.84 C 6.425 km/h
995 25-08-2021 16:00:00 22.625 C 11.3 g/m*3 22.63 C 9.29167 km/h
996 25-08-2021 17:00:00 24.16667 C 10.94 g/m*3 24.17 C 7.93333 km/h
997 25-08-2021 18:00:00 23.38333 C 10.99 g/m*3 23.38 C 7.24167 km/h
998 25-08-2021 19:00:00 21.4 C 12.2 g/m*3 21.4 C 1.46667 km/h
999 25-08-2021 20:00:00 18.48333 C 11.97 g/m*3 18.48 C 0.4 km/h
1000 25-08-2021 21:00:00 16.26667 C 11.22 g/m*3 16.27 C 0.26667 km/h
Sensor: Nr:Datum:Temp:Abs-Feuchte:Windchill:Wind:
Aussen-T/F 1001 25-08-2021 22:00:00 15.33333 C 11.01 g/m*3 15.33 C 2.13333 km/h
1002 25-08-2021 23:00:00 14.40833 C 10.76 g/m*3 14.41 C 0.93333 km/h
1003 26-08-2021 00:00:00 14.00833 C 10.81 g/m*3 14.01 C 1.86667 km/h
1004 26-08-2021 01:00:00 14.94167 C 11.35 g/m*3 14.94 C 2 km/h
1005 26-08-2021 02:00:00 15.83333 C 11.61 g/m*3 15.83 C 4.68333 km/h
1006 26-08-2021 03:00:00 15.86667 C 11.5 g/m*3 15.87 C 7.51667 km/h
1007 26-08-2021 04:00:00 15.84167 C 11.55 g/m*3 15.84 C 5.89167 km/h
1008 26-08-2021 05:00:00 15.45 C 11.89 g/m*3 15.45 C 0.66667 km/h
1009 26-08-2021 06:00:00 15.1 C 11.92 g/m*3 15.1 C 7.49167 km/h
1010 26-08-2021 07:00:00 14.44167 C 11.11 g/m*3 14.44 C 5.5 km/h
1011 26-08-2021 08:00:00 14.44167 C 11 g/m*3 14.44 C 3.08333 km/h
1012 26-08-2021 09:00:00 15.03333 C 10.98 g/m*3 15.03 C 5.75833 km/h
1013 26-08-2021 10:00:00 15.89167 C 10.51 g/m*3 15.89 C 11.28333 km/h
1014 26-08-2021 11:00:00 16.74167 C 10.23 g/m*3 16.74 C 12.09167 km/h
1015 26-08-2021 12:00:00 17.125 C 10.63 g/m*3 17.13 C 8.59167 km/h
1016 26-08-2021 13:00:00 16.55 C 11.23 g/m*3 16.55 C 6.56667 km/h
1017 26-08-2021 14:00:00 16.88333 C 11.51 g/m*3 16.88 C 9.93333 km/h
1018 26-08-2021 15:00:00 17.99167 C 11.62 g/m*3 17.99 C 9.95 km/h
1019 26-08-2021 16:00:00 18.15833 C 11.4 g/m*3 18.16 C 12.76667 km/h
1020 26-08-2021 17:00:00 19.10833 C 11.62 g/m*3 19.11 C 11.55833 km/h
1021 26-08-2021 18:00:00 20.01667 C 11.56 g/m*3 20.02 C 10.35 km/h
1022 26-08-2021 19:00:00 18.675 C 11.39 g/m*3 18.68 C 8.725 km/h
1023 26-08-2021 20:00:00 17.43333 C 11.34 g/m*3 17.43 C 5.90833 km/h
1024 26-08-2021 21:00:00 16.71667 C 11.63 g/m*3 16.72 C 5.21667 km/h
1025 26-08-2021 22:00:00 15.975 C 11.85 g/m*3 15.98 C 2.4 km/h
Sensor: Nr:Datum:Temp:Abs-Feuchte:Windchill:Wind:
Aussen-T/F 1026 26-08-2021 23:00:00 15.41667 C 11.88 g/m*3 15.42 C 2.93333 km/h
1027 27-08-2021 00:00:00 14.775 C 11.51 g/m*3 14.78 C 2.53333 km/h
1028 27-08-2021 01:00:00 14.03333 C 11.2 g/m*3 14.03 C 3.33333 km/h
1029 27-08-2021 02:00:00 13.88333 C 11.01 g/m*3 13.88 C 2.13333 km/h
1030 27-08-2021 03:00:00 13.425 C 10.73 g/m*3 13.43 C 2.4 km/h
1031 27-08-2021 04:00:00 12.88333 C 10.44 g/m*3 12.88 C 2.00833 km/h
1032 27-08-2021 05:00:00 12.88333 C 10.41 g/m*3 12.88 C 0.66667 km/h
1033 27-08-2021 06:00:00 12.625 C 10.3 g/m*3 12.63 C 0 km/h
1034 27-08-2021 07:00:00 12.775 C 10.39 g/m*3 12.78 C 0 km/h
1035 27-08-2021 08:00:00 13.19167 C 10.51 g/m*3 13.19 C 3.74167 km/h
1036 27-08-2021 09:00:00 13.9 C 10.72 g/m*3 13.9 C 8.33333 km/h
1037 27-08-2021 10:00:00 14.75 C 10.91 g/m*3 14.75 C 8.2 km/h
1038 27-08-2021 11:00:00 15.675 C 11.09 g/m*3 15.68 C 11.29167 km/h
1039 27-08-2021 12:00:00 16.50833 C 11.23 g/m*3 16.51 C 13.16667 km/h
1040 27-08-2021 13:00:00 17.325 C 11.34 g/m*3 17.33 C 13.3 km/h
1041 27-08-2021 14:00:00 17.05833 C 11.51 g/m*3 17.06 C 12.75833 km/h
1042 27-08-2021 15:00:00 17.46667 C 11.93 g/m*3 17.47 C 10.34167 km/h
1043 27-08-2021 16:00:00 17.475 C 12.08 g/m*3 17.48 C 12.09167 km/h
1044 27-08-2021 17:00:00 16.625 C 12.3 g/m*3 16.63 C 9 km/h
1045 27-08-2021 18:00:00 16.3 C 12.15 g/m*3 16.3 C 5.75833 km/h
1046 27-08-2021 19:00:00 15.73333 C 11.6 g/m*3 15.73 C 8.6 km/h
1047 27-08-2021 20:00:00 15.34167 C 11.53 g/m*3 15.34 C 5.1 km/h
1048 27-08-2021 21:00:00 14.81667 C 11.53 g/m*3 14.82 C 2.53333 km/h
1049 27-08-2021 22:00:00 14.45 C 11.45 g/m*3 14.45 C 1.06667 km/h
1050 27-08-2021 23:00:00 14.4 C 11.55 g/m*3 14.4 C 0.53333 km/h
Sensor: Nr:Datum:Temp:Abs-Feuchte:Windchill:Wind:
Aussen-T/F 1051 28-08-2021 00:00:00 14.5 C 11.69 g/m*3 14.5 C 3.33333 km/h
1052 28-08-2021 01:00:00 14.39167 C 11.64 g/m*3 14.39 C 2.4 km/h
1053 28-08-2021 02:00:00 14.15 C 11.56 g/m*3 14.15 C 2.68333 km/h
1054 28-08-2021 03:00:00 13.95 C 11.47 g/m*3 13.95 C 0.66667 km/h
1055 28-08-2021 04:00:00 14.1 C 11.65 g/m*3 14.1 C 4.41667 km/h
1056 28-08-2021 05:00:00 13.99167 C 11.57 g/m*3 13.99 C 2.26667 km/h
1057 28-08-2021 06:00:00 13.95 C 11.54 g/m*3 13.95 C 1.74167 km/h
1058 28-08-2021 07:00:00 14.04167 C 11.61 g/m*3 14.04 C 0 km/h
1059 28-08-2021 08:00:00 14.16667 C 11.7 g/m*3 14.17 C 0 km/h
1060 28-08-2021 09:00:00 14.59167 C 12.07 g/m*3 14.59 C 0 km/h
1061 28-08-2021 10:00:00 14.86667 C 12.23 g/m*3 14.87 C 0.53333 km/h
1062 28-08-2021 11:00:00 14.8 C 12.15 g/m*3 14.8 C 1.2 km/h
1063 28-08-2021 12:00:00 14.76667 C 12.13 g/m*3 14.77 C 2 km/h
1064 28-08-2021 13:00:00 15.25833 C 12.5 g/m*3 15.26 C 0.4 km/h
1065 28-08-2021 14:00:00 15.64167 C 12.7 g/m*3 15.64 C 0.13333 km/h
1066 28-08-2021 15:00:00 15.94167 C 12.89 g/m*3 15.94 C 0 km/h
1067 28-08-2021 16:00:00 17.9 C 13.72 g/m*3 17.9 C 2 km/h
1068 28-08-2021 17:00:00 19.94167 C 14.09 g/m*3 19.94 C 1.73333 km/h
1069 28-08-2021 18:00:00 18.70833 C 13.86 g/m*3 18.71 C 2.26667 km/h
1070 28-08-2021 19:00:00 17.56667 C 13.52 g/m*3 17.57 C 2.66667 km/h
1071 28-08-2021 20:00:00 16.33333 C 12.78 g/m*3 16.33 C 3.075 km/h
1072 28-08-2021 21:00:00 16.06667 C 12.6 g/m*3 16.07 C 3.46667 km/h
1073 28-08-2021 22:00:00 15.66667 C 12.48 g/m*3 15.67 C 2.53333 km/h
1074 28-08-2021 23:00:00 15.425 C 12.39 g/m*3 15.43 C 3.225 km/h
1075 29-08-2021 00:00:00 15.25 C 12.37 g/m*3 15.25 C 3.875 km/h
Sensor: Nr:Datum:Temp:Abs-Feuchte:Windchill:Wind:
Aussen-T/F 1076 29-08-2021 01:00:00 15.075 C 12.24 g/m*3 15.08 C 1.33333 km/h
1077 29-08-2021 02:00:00 14.84167 C 12.06 g/m*3 14.84 C 2.4 km/h
1078 29-08-2021 03:00:00 14.7 C 11.96 g/m*3 14.7 C 5.06667 km/h
1079 29-08-2021 04:00:00 14.56667 C 11.77 g/m*3 14.57 C 5.76667 km/h
1080 29-08-2021 05:00:00 14.55833 C 11.73 g/m*3 14.56 C 3.625 km/h
1081 29-08-2021 06:00:00 14.46667 C 11.67 g/m*3 14.47 C 3.74167 km/h
1082 29-08-2021 07:00:00 14.3 C 11.62 g/m*3 14.3 C 5.08333 km/h
1083 29-08-2021 08:00:00 14.38333 C 11.61 g/m*3 14.38 C 6.43333 km/h
1084 29-08-2021 09:00:00 14.58333 C 11.75 g/m*3 14.58 C 7.39167 km/h
1085 29-08-2021 10:00:00 14.95833 C 11.97 g/m*3 14.96 C 8.06667 km/h
1086 29-08-2021 11:00:00 15.54167 C 12.25 g/m*3 15.54 C 5.35833 km/h
1087 29-08-2021 12:00:00 16.1 C 12.51 g/m*3 16.1 C 7.775 km/h
1088 29-08-2021 13:00:00 15.71667 C 12.4 g/m*3 15.72 C 9.95 km/h
1089 29-08-2021 14:00:00 15.6 C 12.38 g/m*3 15.6 C 7.125 km/h
1090 29-08-2021 15:00:00 15.69167 C 12.44 g/m*3 15.69 C 9.28333 km/h
1091 29-08-2021 16:00:00 16.04167 C 12.66 g/m*3 16.04 C 8.46667 km/h
1092 29-08-2021 17:00:00 16.16667 C 12.7 g/m*3 16.17 C 5.625 km/h
1093 29-08-2021 18:00:00 16.2 C 12.69 g/m*3 16.2 C 6.16667 km/h
1094 29-08-2021 19:00:00 16.15 C 12.73 g/m*3 16.15 C 2.13333 km/h
1095 29-08-2021 20:00:00 15.83333 C 12.54 g/m*3 15.83 C 3.73333 km/h
1096 29-08-2021 21:00:00 15.78333 C 12.51 g/m*3 15.78 C 2.26667 km/h
1097 29-08-2021 22:00:00 15.7 C 12.57 g/m*3 15.7 C 1.06667 km/h
1098 29-08-2021 23:00:00 15.65833 C 12.67 g/m*3 15.66 C 1.6 km/h
1099 30-08-2021 00:00:00 15.61667 C 12.65 g/m*3 15.62 C 2 km/h
1100 30-08-2021 01:00:00 15.7 C 12.8 g/m*3 15.7 C 0.53333 km/h
Sensor: Nr:Datum:Temp:Abs-Feuchte:Windchill:Wind:
Aussen-T/F 1101 30-08-2021 02:00:00 15.59167 C 12.76 g/m*3 15.59 C 1.73333 km/h
1102 30-08-2021 03:00:00 15.43333 C 12.64 g/m*3 15.43 C 3.08333 km/h
1103 30-08-2021 04:00:00 15.41667 C 12.63 g/m*3 15.42 C 2.54167 km/h
1104 30-08-2021 05:00:00 15.55 C 12.73 g/m*3 15.55 C 3.61667 km/h
1105 30-08-2021 06:00:00 15.64167 C 12.73 g/m*3 15.64 C 1.46667 km/h
1106 30-08-2021 07:00:00 15.625 C 12.66 g/m*3 15.63 C 3.06667 km/h
1107 30-08-2021 08:00:00 15.91429 C 12.74 g/m*3 15.91 C 5.51429 km/h
1108 30-08-2021 14:00:00 19.68571 C 12.97 g/m*3 19.69 C 5.51429 km/h
1109 30-08-2021 15:00:00 19.83333 C 13.08 g/m*3 19.83 C 4.825 km/h
1110 30-08-2021 16:00:00 20 C 13.39 g/m*3 20 C 9.13333 km/h
1111 30-08-2021 17:00:00 20.925 C 13.01 g/m*3 20.93 C 12.76667 km/h
1112 30-08-2021 18:00:00 20.51667 C 12.84 g/m*3 20.52 C 11.15833 km/h
1113 30-08-2021 19:00:00 19.58333 C 12.78 g/m*3 19.58 C 6.175 km/h
1114 30-08-2021 20:00:00 18.43333 C 12.73 g/m*3 18.43 C 2 km/h
1115 30-08-2021 21:00:00 16.79167 C 12.63 g/m*3 16.79 C 1.33333 km/h
1116 30-08-2021 22:00:00 15.65 C 12.04 g/m*3 15.65 C 2.53333 km/h
1117 30-08-2021 23:00:00 14.88333 C 11.8 g/m*3 14.88 C 4.13333 km/h
1118 31-08-2021 00:00:00 14.85 C 11.94 g/m*3 14.85 C 1.2 km/h
1119 31-08-2021 01:00:00 14.5 C 11.69 g/m*3 14.5 C 0.93333 km/h
1120 31-08-2021 02:00:00 13.71667 C 11.15 g/m*3 13.72 C 1.06667 km/h
1121 31-08-2021 03:00:00 13.33333 C 11 g/m*3 13.33 C 1.06667 km/h
1122 31-08-2021 04:00:00 12.925 C 10.72 g/m*3 12.93 C 1.6 km/h
1123 31-08-2021 05:00:00 12.40833 C 10.4 g/m*3 12.41 C 0.53333 km/h
1124 31-08-2021 06:00:00 12.15833 C 10.32 g/m*3 12.16 C 0.4 km/h
1125 31-08-2021 07:00:00 12.925 C 10.88 g/m*3 12.93 C 0 km/h
Sensor: Nr:Datum:Temp:Abs-Feuchte:Windchill:Wind:
Aussen-T/F 1126 31-08-2021 08:00:00 13.7 C 11.49 g/m*3 13.7 C 0 km/h
1127 31-08-2021 09:00:00 14.79167 C 12.27 g/m*3 14.79 C 0.26667 km/h
1128 31-08-2021 10:00:00 15.28333 C 12.33 g/m*3 15.28 C 5.35833 km/h
1129 31-08-2021 11:00:00 16.35833 C 12.38 g/m*3 16.36 C 5.21667 km/h
1130 31-08-2021 12:00:00 17.54167 C 12.6 g/m*3 17.54 C 7.38333 km/h
1131 31-08-2021 13:00:00 18.175 C 12.58 g/m*3 18.18 C 10.225 km/h
1132 31-08-2021 14:00:00 18.46667 C 12.51 g/m*3 18.47 C 13.83333 km/h
1133 31-08-2021 15:00:00 18.25833 C 12.19 g/m*3 18.26 C 11.55833 km/h
1134 31-08-2021 16:00:00 19.75833 C 12.85 g/m*3 19.76 C 8.475 km/h
1135 31-08-2021 17:00:00 21.65833 C 12.64 g/m*3 21.66 C 8.73333 km/h
1136 31-08-2021 18:00:00 21.56667 C 12.35 g/m*3 21.57 C 10.23333 km/h
1137 31-08-2021 19:00:00 20.06667 C 12.43 g/m*3 20.07 C 5.35 km/h
1138 31-08-2021 20:00:00 17.10833 C 11.98 g/m*3 17.11 C 5.35 km/h
1139 31-08-2021 21:00:00 15.075 C 11.41 g/m*3 15.08 C 2.4 km/h
1140 31-08-2021 22:00:00 14.05 C 11 g/m*3 14.05 C 0.26667 km/h
1141 31-08-2021 23:00:00 13.03333 C 10.48 g/m*3 13.03 C 0 km/h
1142 01-09-2021 00:00:00 12.25833 C 10.12 g/m*3 12.26 C 0.13333 km/h
1143 01-09-2021 01:00:00 12.1 C 10.11 g/m*3 12.1 C 0.13333 km/h
1144 01-09-2021 02:00:00 11.675 C 9.92 g/m*3 11.68 C 0.26667 km/h
1145 01-09-2021 03:00:00 12.18333 C 10.33 g/m*3 12.18 C 1.86667 km/h
1146 01-09-2021 04:00:00 13.09167 C 10.98 g/m*3 13.09 C 0.93333 km/h
1147 01-09-2021 05:00:00 13.6 C 11.3 g/m*3 13.6 C 0 km/h
1148 01-09-2021 06:00:00 13.51667 C 11.24 g/m*3 13.52 C 0 km/h
1149 01-09-2021 07:00:00 13.525 C 11.25 g/m*3 13.53 C 0 km/h
1150 01-09-2021 08:00:00 14.2 C 11.73 g/m*3 14.2 C 0 km/h
Sensor: Nr:Datum:Temp:Abs-Feuchte:Windchill:Wind:
Aussen-T/F 1151 01-09-2021 09:00:00 15.08333 C 12.2 g/m*3 15.08 C 0 km/h
1152 01-09-2021 10:00:00 16.05833 C 12.02 g/m*3 16.06 C 2.93333 km/h
1153 01-09-2021 11:00:00 16.84167 C 12.19 g/m*3 16.84 C 3.46667 km/h
1154 01-09-2021 12:00:00 17.575 C 12.01 g/m*3 17.58 C 4.40833 km/h
1155 01-09-2021 13:00:00 18.20833 C 11.57 g/m*3 18.21 C 6.84167 km/h
1156 01-09-2021 14:00:00 18.71667 C 11.35 g/m*3 18.72 C 7.65 km/h
1157 01-09-2021 15:00:00 18.9 C 11.33 g/m*3 18.9 C 6.85 km/h
1158 01-09-2021 16:00:00 18.91667 C 11.65 g/m*3 18.92 C 5.08333 km/h
1159 01-09-2021 17:00:00 19.46667 C 11.81 g/m*3 19.47 C 6.575 km/h
1160 01-09-2021 18:00:00 18.675 C 11.63 g/m*3 18.68 C 7.51667 km/h
1161 01-09-2021 19:00:00 18.00833 C 11.55 g/m*3 18.01 C 6.03333 km/h
1162 01-09-2021 20:00:00 15.60833 C 11.18 g/m*3 15.61 C 2.53333 km/h
1163 01-09-2021 21:00:00 13.6 C 10.6 g/m*3 13.6 C 1.33333 km/h
1164 01-09-2021 22:00:00 13.20833 C 10.66 g/m*3 13.21 C 1.33333 km/h
1165 01-09-2021 23:00:00 12.73333 C 10.42 g/m*3 12.73 C 0.8 km/h
1166 02-09-2021 00:00:00 11.98333 C 9.91 g/m*3 11.98 C 0 km/h
1167 02-09-2021 01:00:00 11.03333 C 9.42 g/m*3 11.03 C 0 km/h
1168 02-09-2021 02:00:00 10.50833 C 9.18 g/m*3 10.51 C 0 km/h
1169 02-09-2021 03:00:00 10.49167 C 9.23 g/m*3 10.49 C 0 km/h
1170 02-09-2021 04:00:00 11.15833 C 9.71 g/m*3 11.16 C 0 km/h
1171 02-09-2021 05:00:00 11.59167 C 9.97 g/m*3 11.59 C 0.26667 km/h
1172 02-09-2021 06:00:00 11.39167 C 9.85 g/m*3 11.39 C 1.06667 km/h
1173 02-09-2021 07:00:00 11.25 C 9.76 g/m*3 11.25 C 0.66667 km/h
1174 02-09-2021 08:00:00 11.49167 C 10.01 g/m*3 11.49 C 0.4 km/h
1175 02-09-2021 09:00:00 11.96667 C 10.32 g/m*3 11.97 C 1.06667 km/h
Sensor: Nr:Datum:Temp:Abs-Feuchte:Windchill:Wind:
Aussen-T/F 1176 02-09-2021 10:00:00 12.89167 C 10.91 g/m*3 12.89 C 1.86667 km/h
1177 02-09-2021 11:00:00 13.9 C 11.46 g/m*3 13.9 C 1.73333 km/h
1178 02-09-2021 12:00:00 15.65833 C 12.39 g/m*3 15.66 C 1.73333 km/h
1179 02-09-2021 13:00:00 18.175 C 13.11 g/m*3 18.18 C 1.86667 km/h
1180 02-09-2021 14:00:00 20.41667 C 13.56 g/m*3 20.42 C 4.41667 km/h
1181 02-09-2021 15:00:00 22.06667 C 12.71 g/m*3 22.07 C 8.875 km/h
1182 02-09-2021 16:00:00 23.44167 C 12.47 g/m*3 23.44 C 7.93333 km/h
1183 02-09-2021 17:00:00 25.45 C 13.1 g/m*3 25.45 C 6.45833 km/h
1184 02-09-2021 18:00:00 25.28333 C 14.77 g/m*3 25.28 C 3.34167 km/h
1185 02-09-2021 19:00:00 21.275 C 13.77 g/m*3 21.28 C 3.33333 km/h
1186 02-09-2021 20:00:00 17.75833 C 12.44 g/m*3 17.76 C 3.6 km/h
1187 02-09-2021 21:00:00 16.225 C 11.99 g/m*3 16.23 C 3.075 km/h
1188 02-09-2021 22:00:00 14.675 C 11.25 g/m*3 14.68 C 0 km/h
1189 02-09-2021 23:00:00 13.675 C 10.91 g/m*3 13.68 C 0.13333 km/h
1190 03-09-2021 00:00:00 12.95833 C 10.54 g/m*3 12.96 C 0 km/h
1191 03-09-2021 01:00:00 12.34167 C 10.22 g/m*3 12.34 C 0 km/h
1192 03-09-2021 02:00:00 11.83333 C 9.96 g/m*3 11.83 C 0 km/h
1193 03-09-2021 03:00:00 11.3 C 9.69 g/m*3 11.3 C 0 km/h
1194 03-09-2021 04:00:00 10.825 C 9.4 g/m*3 10.83 C 0 km/h
1195 03-09-2021 05:00:00 10.66667 C 9.36 g/m*3 10.67 C 0 km/h
1196 03-09-2021 06:00:00 11.20833 C 9.74 g/m*3 11.21 C 0 km/h
1197 03-09-2021 07:00:00 11.59167 C 9.97 g/m*3 11.59 C 0.66667 km/h
1198 03-09-2021 08:00:00 11.61667 C 10.03 g/m*3 11.62 C 0.13333 km/h
1199 03-09-2021 09:00:00 12.2 C 10.47 g/m*3 12.2 C 0.8 km/h
1200 03-09-2021 10:00:00 13.29 C 11.2 g/m*3 13.29 C 0.64 km/h
Sensor: Nr:Datum:Temp:Abs-Feuchte:Windchill:Wind:
Aussen-T/F 1201 03-09-2021 15:00:00 23.01111 C 13.39 g/m*3 23.01 C 5.17778 km/h
1202 03-09-2021 16:00:00 24.125 C 13.44 g/m*3 24.13 C 4.55 km/h
1203 03-09-2021 17:00:00 26.8 C 15.19 g/m*3 26.8 C 2.4 km/h
1204 03-09-2021 18:00:00 24.64167 C 15.13 g/m*3 24.64 C 4.8 km/h
1205 03-09-2021 19:00:00 21.71667 C 13.62 g/m*3 21.72 C 5.475 km/h
1206 03-09-2021 20:00:00 18.45 C 12.42 g/m*3 18.45 C 2.13333 km/h
1207 03-09-2021 21:00:00 16.325 C 12.03 g/m*3 16.33 C 0 km/h
1208 03-09-2021 22:00:00 15.04167 C 11.51 g/m*3 15.04 C 0 km/h
1209 03-09-2021 23:00:00 13.925 C 10.95 g/m*3 13.93 C 0 km/h
1210 04-09-2021 00:00:00 13.15 C 10.61 g/m*3 13.15 C 0 km/h
1211 04-09-2021 01:00:00 12.625 C 10.38 g/m*3 12.63 C 0 km/h
1212 04-09-2021 02:00:00 12.225 C 10.16 g/m*3 12.23 C 0 km/h
1213 04-09-2021 03:00:00 11.60833 C 9.81 g/m*3 11.61 C 0 km/h
1214 04-09-2021 04:00:00 11.3 C 9.69 g/m*3 11.3 C 0 km/h
1215 04-09-2021 05:00:00 10.925 C 9.46 g/m*3 10.93 C 0 km/h
1216 04-09-2021 06:00:00 10.49167 C 9.23 g/m*3 10.49 C 0 km/h
1217 04-09-2021 07:00:00 10.44167 C 9.28 g/m*3 10.44 C 0.26667 km/h
1218 04-09-2021 08:00:00 11.30833 C 9.87 g/m*3 11.31 C 0.13333 km/h
1219 04-09-2021 09:00:00 12.01667 C 10.35 g/m*3 12.02 C 0.66667 km/h
1220 04-09-2021 10:00:00 13.14167 C 11.1 g/m*3 13.14 C 0 km/h
1221 04-09-2021 11:00:00 15.10833 C 12.56 g/m*3 15.11 C 0 km/h
1222 04-09-2021 12:00:00 17.03333 C 14.04 g/m*3 17.03 C 0 km/h
1223 04-09-2021 13:00:00 19.60833 C 14.38 g/m*3 19.61 C 3.49167 km/h
1224 04-09-2021 14:00:00 23.025 C 13.31 g/m*3 23.03 C 6.01667 km/h
1225 04-09-2021 15:00:00 23.80833 C 12.93 g/m*3 23.81 C 2.80833 km/h
Sensor: Nr:Datum:Temp:Abs-Feuchte:Windchill:Wind:
Aussen-T/F 1226 04-09-2021 16:00:00 24.69167 C 14.12 g/m*3 24.69 C 2.26667 km/h
1227 04-09-2021 17:00:00 27.48333 C 15.86 g/m*3 27.48 C 1.86667 km/h
1228 04-09-2021 18:00:00 26.16667 C 15.81 g/m*3 26.17 C 2.8 km/h
1229 04-09-2021 19:00:00 22.375 C 14.51 g/m*3 22.38 C 3.73333 km/h
1230 04-09-2021 20:00:00 19.025 C 13.15 g/m*3 19.02 C 6.425 km/h
1231 04-09-2021 21:00:00 17.86667 C 13.12 g/m*3 17.87 C 4 km/h
1232 04-09-2021 22:00:00 17 C 12.77 g/m*3 17 C 0.93333 km/h
1233 04-09-2021 23:00:00 15.84167 C 12.28 g/m*3 15.84 C 0 km/h
1234 05-09-2021 00:00:00 15.06667 C 11.91 g/m*3 15.07 C 0.66667 km/h
1235 05-09-2021 01:00:00 14.475 C 11.57 g/m*3 14.48 C 0.13333 km/h
1236 05-09-2021 02:00:00 13.9 C 11.26 g/m*3 13.9 C 0 km/h
1237 05-09-2021 03:00:00 13.35833 C 10.93 g/m*3 13.36 C 0 km/h
1238 05-09-2021 04:00:00 12.86667 C 10.68 g/m*3 12.87 C 0 km/h
1239 05-09-2021 05:00:00 12.48333 C 10.43 g/m*3 12.48 C 0 km/h
1240 05-09-2021 06:00:00 12.00833 C 10.13 g/m*3 12.01 C 0 km/h
1241 05-09-2021 07:00:00 11.81667 C 10.09 g/m*3 11.82 C 0 km/h
1242 05-09-2021 08:00:00 12.18333 C 10.35 g/m*3 12.18 C 0 km/h
1243 05-09-2021 09:00:00 12.95833 C 10.93 g/m*3 12.96 C 0 km/h
1244 05-09-2021 10:00:00 14.45833 C 12.03 g/m*3 14.46 C 0.13333 km/h
1245 05-09-2021 11:00:00 16.075 C 13.28 g/m*3 16.08 C 0.13333 km/h
1246 05-09-2021 12:00:00 17.60833 C 14.43 g/m*3 17.61 C 0 km/h
1247 05-09-2021 13:00:00 19.84167 C 15.17 g/m*3 19.84 C 0.8 km/h
1248 05-09-2021 14:00:00 21.30833 C 15.39 g/m*3 21.31 C 1.73333 km/h
1249 05-09-2021 15:00:00 22.89167 C 15.73 g/m*3 22.89 C 0.93333 km/h
1250 05-09-2021 16:00:00 23.79167 C 15.48 g/m*3 23.79 C 1.33333 km/h
Sensor: Nr:Datum:Temp:Abs-Feuchte:Windchill:Wind:
Aussen-T/F 1251 05-09-2021 17:00:00 25.96667 C 16.61 g/m*3 25.97 C 1.33333 km/h
1252 05-09-2021 18:00:00 24.91667 C 15.77 g/m*3 24.92 C 3.73333 km/h
1253 05-09-2021 19:00:00 22.14167 C 14.24 g/m*3 22.14 C 4.8 km/h
1254 05-09-2021 20:00:00 18.56667 C 12.59 g/m*3 18.57 C 3.48333 km/h
1255 05-09-2021 21:00:00 16.625 C 11.83 g/m*3 16.63 C 0 km/h
1256 05-09-2021 22:00:00 15.63333 C 11.77 g/m*3 15.63 C 0 km/h
1257 05-09-2021 23:00:00 14.9 C 11.58 g/m*3 14.9 C 0 km/h
1258 06-09-2021 00:00:00 14.35 C 11.32 g/m*3 14.35 C 0 km/h
1259 06-09-2021 01:00:00 13.93333 C 11.2 g/m*3 13.93 C 0 km/h
1260 06-09-2021 02:00:00 13.38333 C 10.91 g/m*3 13.38 C 0 km/h
1261 06-09-2021 03:00:00 12.94167 C 10.67 g/m*3 12.94 C 0 km/h
1262 06-09-2021 04:00:00 12.625 C 10.53 g/m*3 12.63 C 0 km/h
1263 06-09-2021 05:00:00 12.325 C 10.33 g/m*3 12.33 C 0 km/h
1264 06-09-2021 06:00:00 12.08333 C 10.2 g/m*3 12.08 C 0 km/h
1265 06-09-2021 07:00:00 11.85 C 10.14 g/m*3 11.85 C 0 km/h
1266 06-09-2021 08:00:00 12.35 C 10.48 g/m*3 12.35 C 0 km/h
1267 06-09-2021 09:00:00 13.01667 C 10.95 g/m*3 13.02 C 0 km/h
1268 06-09-2021 10:00:00 14.55 C 12.1 g/m*3 14.55 C 0 km/h
1269 06-09-2021 11:00:00 15.98889 C 13.21 g/m*3 15.99 C 0.17778 km/h
1270 06-09-2021 12:00:00 17.35 C 14.23 g/m*3 17.35 C 0 km/h
1271 06-09-2021 13:00:00 19.38333 C 14.7 g/m*3 19.38 C 0 km/h
1272 06-09-2021 14:00:00 21.975 C 15.02 g/m*3 21.98 C 0.4 km/h
1273 06-09-2021 15:00:00 23.88333 C 15.65 g/m*3 23.88 C 3.08333 km/h
1274 06-09-2021 16:00:00 24.53333 C 16.09 g/m*3 24.53 C 3.34167 km/h
1275 06-09-2021 17:00:00 27.54167 C 15.29 g/m*3 27.54 C 4.4 km/h
Sensor: Nr:Datum:Temp:Abs-Feuchte:Windchill:Wind:
Aussen-T/F 1276 06-09-2021 18:00:00 26.08333 C 15.57 g/m*3 26.08 C 3.34167 km/h
1277 06-09-2021 19:00:00 21.51667 C 14.88 g/m*3 21.52 C 4.66667 km/h
1278 06-09-2021 20:00:00 19.36667 C 13.96 g/m*3 19.37 C 3.33333 km/h
1279 06-09-2021 21:00:00 18.425 C 13.63 g/m*3 18.43 C 0.93333 km/h
1280 06-09-2021 22:00:00 17.00833 C 12.96 g/m*3 17.01 C 0.53333 km/h
1281 06-09-2021 23:00:00 15.825 C 12.34 g/m*3 15.83 C 0 km/h
1282 07-09-2021 00:00:00 14.85833 C 11.82 g/m*3 14.86 C 0 km/h
1283 07-09-2021 01:00:00 14 C 11.31 g/m*3 14 C 0 km/h
1284 07-09-2021 02:00:00 13.50833 C 11.06 g/m*3 13.51 C 0 km/h
1285 07-09-2021 03:00:00 13 C 10.77 g/m*3 13 C 0 km/h
1286 07-09-2021 04:00:00 13.1 C 10.94 g/m*3 13.1 C 0.13333 km/h
1287 07-09-2021 05:00:00 12.93333 C 10.82 g/m*3 12.93 C 0 km/h
1288 07-09-2021 06:00:00 12.325 C 10.42 g/m*3 12.33 C 0 km/h
1289 07-09-2021 07:00:00 12.49167 C 10.57 g/m*3 12.49 C 0 km/h
1290 07-09-2021 08:00:00 13.175 C 11.11 g/m*3 13.18 C 0.53333 km/h
1291 07-09-2021 09:00:00 13.85 C 11.59 g/m*3 13.85 C 0.26667 km/h
1292 07-09-2021 10:00:00 16.98182 C 13.65 g/m*3 16.98 C 0 km/h
1293 07-09-2021 11:00:00 20.225 C 14.67 g/m*3 20.23 C 0 km/h
1294 07-09-2021 13:00:00 21.55455 C 14.74 g/m*3 21.55 C 0 km/h
1295 07-09-2021 14:00:00 22.5 C 13.98 g/m*3 22.5 C 1.06667 km/h
1296 07-09-2021 15:00:00 23.99167 C 13.75 g/m*3 23.99 C 0.66667 km/h
1297 07-09-2021 16:00:00 24.625 C 15.25 g/m*3 24.63 C 0 km/h
1298 07-09-2021 17:00:00 26.04167 C 16.88 g/m*3 26.04 C 0 km/h
1299 07-09-2021 18:00:00 23.98333 C 16.37 g/m*3 23.98 C 0 km/h
1300 07-09-2021 19:00:00 21.15 C 14.57 g/m*3 21.15 C 0 km/h
Sensor: Nr:Datum:Temp:Abs-Feuchte:Windchill:Wind:
Aussen-T/F 1301 07-09-2021 20:00:00 18.71667 C 13.21 g/m*3 18.72 C 3.6 km/h
1302 07-09-2021 21:00:00 17.46667 C 12.66 g/m*3 17.47 C 3.86667 km/h
1303 07-09-2021 22:00:00 16.56667 C 12.32 g/m*3 16.57 C 2.66667 km/h
1304 07-09-2021 23:00:00 15.85833 C 11.97 g/m*3 15.86 C 1.06667 km/h
1305 08-09-2021 00:00:00 15.09167 C 11.56 g/m*3 15.09 C 0 km/h
1306 08-09-2021 01:00:00 14.21667 C 11.19 g/m*3 14.22 C 0 km/h
1307 08-09-2021 02:00:00 13.675 C 11.01 g/m*3 13.68 C 0 km/h
1308 08-09-2021 03:00:00 13.23333 C 10.82 g/m*3 13.23 C 0 km/h
1309 08-09-2021 04:00:00 12.78333 C 10.54 g/m*3 12.78 C 0 km/h
1310 08-09-2021 05:00:00 12.425 C 10.4 g/m*3 12.43 C 0 km/h
1311 08-09-2021 06:00:00 12.03333 C 10.15 g/m*3 12.03 C 0 km/h
1312 08-09-2021 07:00:00 11.81667 C 10.05 g/m*3 11.82 C 0 km/h
1313 08-09-2021 08:00:00 12.14167 C 10.32 g/m*3 12.14 C 0 km/h
1314 08-09-2021 09:00:00 12.93333 C 10.88 g/m*3 12.93 C 0 km/h
1315 08-09-2021 10:00:00 13.96 C 11.67 g/m*3 13.96 C 0 km/h
1316 08-09-2021 11:00:00 16.775 C 13.81 g/m*3 16.77 C 1.4125 km/h
1317 08-09-2021 12:00:00 18.575 C 14.57 g/m*3 18.58 C 2.14167 km/h
1318 08-09-2021 13:00:00 21.35 C 14.86 g/m*3 21.35 C 2 km/h
1319 08-09-2021 14:00:00 23.725 C 13.42 g/m*3 23.73 C 7.525 km/h
1320 08-09-2021 15:00:00 25.03333 C 12.63 g/m*3 25.03 C 8.325 km/h
1321 08-09-2021 16:00:00 25.70833 C 13.05 g/m*3 25.71 C 5.49167 km/h
1322 08-09-2021 17:00:00 27.75833 C 15.27 g/m*3 27.76 C 2.275 km/h
1323 08-09-2021 18:00:00 25.71667 C 15.14 g/m*3 25.72 C 2.13333 km/h
1324 08-09-2021 19:00:00 21.96667 C 13.71 g/m*3 21.97 C 4.14167 km/h
1325 08-09-2021 20:00:00 18.925 C 12.64 g/m*3 18.93 C 3.74167 km/h
Sensor: Nr:Datum:Temp:Abs-Feuchte:Windchill:Wind:
Aussen-T/F 1326 08-09-2021 21:00:00 16.95 C 12.11 g/m*3 16.95 C 1.06667 km/h
1327 08-09-2021 22:00:00 15.74167 C 11.74 g/m*3 15.74 C 0 km/h
1328 08-09-2021 23:00:00 14.81667 C 11.37 g/m*3 14.82 C 0 km/h
1329 09-09-2021 00:00:00 14.15833 C 11.18 g/m*3 14.16 C 0 km/h
1330 09-09-2021 01:00:00 13.73333 C 10.98 g/m*3 13.73 C 0 km/h
1331 09-09-2021 02:00:00 13.33333 C 10.83 g/m*3 13.33 C 0 km/h
1332 09-09-2021 03:00:00 13.29167 C 10.88 g/m*3 13.29 C 0 km/h
1333 09-09-2021 04:00:00 12.975 C 10.69 g/m*3 12.98 C 0 km/h
1334 09-09-2021 05:00:00 12.59167 C 10.5 g/m*3 12.59 C 0 km/h
1335 09-09-2021 06:00:00 12.475 C 10.43 g/m*3 12.48 C 0 km/h
1336 09-09-2021 07:00:00 12.33 C 10.39 g/m*3 12.33 C 0 km/h
1337 09-09-2021 08:00:00 12.93333 C 10.84 g/m*3 12.93 C 0.4 km/h
1338 09-09-2021 09:00:00 13.85 C 11.56 g/m*3 13.85 C 0 km/h
1339 09-09-2021 10:00:00 15.28333 C 12.65 g/m*3 15.28 C 0.93333 km/h
1340 09-09-2021 11:00:00 17.84167 C 14.76 g/m*3 17.84 C 1.46667 km/h
1341 09-09-2021 12:00:00 21.25 C 15.81 g/m*3 21.25 C 9.15 km/h
1342 09-09-2021 13:00:00 23.14167 C 15.97 g/m*3 23.14 C 6.58333 km/h
1343 09-09-2021 14:00:00 24.46667 C 16.68 g/m*3 24.47 C 5.24167 km/h
1344 09-09-2021 15:00:00 24.94167 C 16.94 g/m*3 24.94 C 8.05 km/h
1345 09-09-2021 16:00:00 25.84167 C 16.81 g/m*3 25.84 C 13.03333 km/h
1346 09-09-2021 17:00:00 25.61667 C 16.78 g/m*3 25.62 C 9.675 km/h
1347 09-09-2021 18:00:00 24.275 C 17 g/m*3 24.28 C 4.55 km/h
1348 09-09-2021 19:00:00 21.98333 C 16.27 g/m*3 21.98 C 2.8 km/h
1349 09-09-2021 20:00:00 20.46667 C 15.63 g/m*3 20.47 C 2.13333 km/h
1350 09-09-2021 21:00:00 19.55 C 15.23 g/m*3 19.55 C 0.93333 km/h
Sensor: Nr:Datum:Temp:Abs-Feuchte:Windchill:Wind:
Aussen-T/F 1351 09-09-2021 22:00:00 19.33333 C 15.36 g/m*3 19.33 C 0 km/h
1352 09-09-2021 23:00:00 19.25833 C 15.39 g/m*3 19.26 C 0 km/h
1353 10-09-2021 00:00:00 18.61667 C 14.78 g/m*3 18.62 C 0 km/h
1354 10-09-2021 01:00:00 18.26667 C 14.66 g/m*3 18.27 C 0 km/h
1355 10-09-2021 02:00:00 18.4 C 14.93 g/m*3 18.4 C 0 km/h
1356 10-09-2021 03:00:00 18.30833 C 14.86 g/m*3 18.31 C 0 km/h
1357 10-09-2021 04:00:00 18.21667 C 14.78 g/m*3 18.22 C 0.4 km/h
1358 10-09-2021 05:00:00 18.21667 C 14.78 g/m*3 18.22 C 0 km/h
1359 10-09-2021 06:00:00 18.16667 C 14.74 g/m*3 18.17 C 0.13333 km/h
1360 10-09-2021 07:00:00 18.275 C 14.84 g/m*3 18.27 C 0.53333 km/h
1361 10-09-2021 08:00:00 18.725 C 15.39 g/m*3 18.73 C 0 km/h
1362 10-09-2021 09:00:00 19.46667 C 16.08 g/m*3 19.47 C 0.13333 km/h
1363 10-09-2021 10:00:00 20.01667 C 16.04 g/m*3 20.02 C 3.2 km/h
1364 10-09-2021 11:00:00 21.30833 C 16.29 g/m*3 21.31 C 5.75 km/h
1365 10-09-2021 12:00:00 22.80833 C 16.48 g/m*3 22.81 C 9.15 km/h
1366 10-09-2021 13:00:00 22.85 C 16.29 g/m*3 22.85 C 9.95 km/h
1367 10-09-2021 14:00:00 23.25833 C 16.36 g/m*3 23.26 C 6.3 km/h
1368 10-09-2021 15:00:00 23.96667 C 16.54 g/m*3 23.97 C 5.08333 km/h
1369 10-09-2021 16:00:00 23.49167 C 16.82 g/m*3 23.49 C 4.95833 km/h
1370 10-09-2021 17:00:00 24.43333 C 16.59 g/m*3 24.43 C 6.975 km/h
1371 10-09-2021 18:00:00 23.01667 C 15.89 g/m*3 23.02 C 4.83333 km/h
1372 10-09-2021 19:00:00 21.31667 C 15.66 g/m*3 21.32 C 6.84167 km/h
1373 10-09-2021 20:00:00 20 C 15.19 g/m*3 20 C 4.94167 km/h
1374 10-09-2021 21:00:00 19.525 C 14.97 g/m*3 19.52 C 5.63333 km/h
1375 10-09-2021 22:00:00 18.83333 C 14.62 g/m*3 18.83 C 5.08333 km/h
Sensor: Nr:Datum:Temp:Abs-Feuchte:Windchill:Wind:
Aussen-T/F 1376 10-09-2021 23:00:00 18.16667 C 14.26 g/m*3 18.17 C 0.53333 km/h
1377 11-09-2021 00:00:00 17.86667 C 14.17 g/m*3 17.87 C 0.13333 km/h
1378 11-09-2021 01:00:00 17.89167 C 14.31 g/m*3 17.89 C 2.95 km/h
1379 11-09-2021 02:00:00 18.15833 C 14.42 g/m*3 18.16 C 2.13333 km/h
1380 11-09-2021 03:00:00 17.81667 C 14.12 g/m*3 17.82 C 0.26667 km/h
1381 11-09-2021 04:00:00 17.75 C 14.22 g/m*3 17.75 C 0 km/h
1382 11-09-2021 05:00:00 17.61667 C 14.12 g/m*3 17.62 C 1.2 km/h
1383 11-09-2021 06:00:00 17.825 C 14.35 g/m*3 17.83 C 1.86667 km/h
1384 11-09-2021 07:00:00 17.83333 C 14.3 g/m*3 17.83 C 1.06667 km/h
1385 11-09-2021 08:00:00 18.16667 C 14.44 g/m*3 18.17 C 3.48333 km/h
1386 11-09-2021 09:00:00 18.14167 C 14.42 g/m*3 18.14 C 0.13333 km/h
1387 11-09-2021 10:00:00 18.4 C 14.47 g/m*3 18.4 C 0.26667 km/h
1388 11-09-2021 11:00:00 18.85833 C 14.6 g/m*3 18.86 C 1.6 km/h
1389 11-09-2021 12:00:00 20.275 C 15.59 g/m*3 20.27 C 0.4 km/h
1390 11-09-2021 13:00:00 20.93333 C 15.19 g/m*3 20.93 C 1.06667 km/h
1391 11-09-2021 14:00:00 21.20833 C 15.48 g/m*3 21.21 C 2.69167 km/h
1392 11-09-2021 15:00:00 22.39167 C 13.98 g/m*3 22.39 C 6.15833 km/h
1393 11-09-2021 16:00:00 22.38333 C 13.87 g/m*3 22.38 C 5.35 km/h
1394 11-09-2021 17:00:00 22.06667 C 14.29 g/m*3 22.07 C 2 km/h
1395 11-09-2021 18:00:00 22.46667 C 14.6 g/m*3 22.47 C 0.53333 km/h
1396 11-09-2021 19:00:00 21.65833 C 13.31 g/m*3 21.66 C 2.80833 km/h
1397 11-09-2021 20:00:00 18.23333 C 12.58 g/m*3 18.23 C 2.13333 km/h
1398 11-09-2021 21:00:00 16.49167 C 12.09 g/m*3 16.49 C 4.4 km/h
1399 11-09-2021 22:00:00 15.55833 C 11.86 g/m*3 15.56 C 1.2 km/h
1400 11-09-2021 23:00:00 14.86667 C 11.65 g/m*3 14.87 C 0 km/h
Sensor: Nr:Datum:Temp:Abs-Feuchte:Windchill:Wind:
Aussen-T/F 1401 12-09-2021 00:00:00 15.05833 C 11.97 g/m*3 15.06 C 0 km/h
1402 12-09-2021 01:00:00 15.54167 C 12.06 g/m*3 15.54 C 3.60833 km/h
1403 12-09-2021 02:00:00 15.09167 C 11.64 g/m*3 15.09 C 1.06667 km/h
1404 12-09-2021 03:00:00 13.95 C 11.07 g/m*3 13.95 C 0 km/h
1405 12-09-2021 04:00:00 13.325 C 10.84 g/m*3 13.33 C 0 km/h
1406 12-09-2021 05:00:00 12.74167 C 10.5 g/m*3 12.74 C 0 km/h
1407 12-09-2021 06:00:00 12.20833 C 10.24 g/m*3 12.21 C 0.66667 km/h
1408 12-09-2021 07:00:00 11.95 C 10.12 g/m*3 11.95 C 0.13333 km/h
1409 12-09-2021 08:00:00 13.00833 C 10.89 g/m*3 13.01 C 0.4 km/h
1410 12-09-2021 09:00:00 14.15 C 11.63 g/m*3 14.15 C 2.275 km/h
1411 12-09-2021 10:00:00 16.025 C 12.3 g/m*3 16.02 C 3.46667 km/h
1412 12-09-2021 11:00:00 17.55 C 12.6 g/m*3 17.55 C 5.35 km/h
1413 12-09-2021 12:00:00 18.90833 C 12.89 g/m*3 18.91 C 1.33333 km/h
1414 12-09-2021 13:00:00 20.21667 C 12.25 g/m*3 20.22 C 3.20833 km/h
1415 12-09-2021 14:00:00 21.6 C 11.55 g/m*3 21.6 C 7.38333 km/h
1416 12-09-2021 15:00:00 22.325 C 11.67 g/m*3 22.33 C 7.925 km/h
1417 12-09-2021 16:00:00 22.11667 C 12.98 g/m*3 22.12 C 2.13333 km/h
1418 12-09-2021 17:00:00 23 C 13.03 g/m*3 23 C 4.575 km/h
1419 12-09-2021 18:00:00 23.04167 C 12.79 g/m*3 23.04 C 3.075 km/h
1420 12-09-2021 19:00:00 19.49167 C 12.87 g/m*3 19.49 C 2.675 km/h
1421 12-09-2021 20:00:00 16.8 C 11.84 g/m*3 16.8 C 3.46667 km/h
1422 12-09-2021 21:00:00 15.5 C 11.4 g/m*3 15.5 C 3.46667 km/h
1423 12-09-2021 22:00:00 14.63333 C 11.1 g/m*3 14.63 C 0.66667 km/h
1424 12-09-2021 23:00:00 13.59167 C 10.62 g/m*3 13.59 C 0 km/h
1425 13-09-2021 00:00:00 12.725 C 10.28 g/m*3 12.73 C 0 km/h
Sensor: Nr:Datum:Temp:Abs-Feuchte:Windchill:Wind:
Aussen-T/F 1426 13-09-2021 01:00:00 12.2 C 10.05 g/m*3 12.2 C 0 km/h
1427 13-09-2021 02:00:00 11.73333 C 9.85 g/m*3 11.73 C 0 km/h
1428 13-09-2021 03:00:00 11.23333 C 9.57 g/m*3 11.23 C 0.13333 km/h
1429 13-09-2021 04:00:00 10.84167 C 9.41 g/m*3 10.84 C 0 km/h
1430 13-09-2021 05:00:00 10.45 C 9.18 g/m*3 10.45 C 0 km/h
1431 13-09-2021 06:00:00 10.09167 C 8.98 g/m*3 10.09 C 0 km/h
1432 13-09-2021 07:00:00 10.375 C 9.24 g/m*3 10.38 C 0 km/h
1433 13-09-2021 08:00:00 11.1 C 9.69 g/m*3 11.1 C 0.53333 km/h
1434 13-09-2021 09:00:00 11.7 C 10.1 g/m*3 11.7 C 0.53333 km/h
1435 13-09-2021 10:00:00 12.55 C 10.7 g/m*3 12.55 C 1.46667 km/h
1436 13-09-2021 11:00:00 13.83333 C 11.57 g/m*3 13.83 C 0.93333 km/h
1437 13-09-2021 12:00:00 16.025 C 12.85 g/m*3 16.02 C 0.26667 km/h
1438 13-09-2021 13:00:00 18.60833 C 12.71 g/m*3 18.61 C 2.4 km/h
1439 13-09-2021 14:00:00 20.38333 C 12.52 g/m*3 20.38 C 1.46667 km/h
1440 13-09-2021 15:00:00 21.50833 C 13.17 g/m*3 21.51 C 2.68333 km/h
1441 13-09-2021 16:00:00 21.98333 C 13.69 g/m*3 21.98 C 2.26667 km/h
1442 13-09-2021 17:00:00 22.125 C 14.92 g/m*3 22.13 C 0.8 km/h
1443 13-09-2021 18:00:00 22.36667 C 14.77 g/m*3 22.37 C 1.86667 km/h
1444 13-09-2021 19:00:00 18.375 C 12.56 g/m*3 18.38 C 3.2 km/h
1445 13-09-2021 20:00:00 16.175 C 11.77 g/m*3 16.18 C 3.06667 km/h
1446 13-09-2021 21:00:00 14.8 C 11.25 g/m*3 14.8 C 0 km/h
1447 13-09-2021 22:00:00 13.96667 C 10.92 g/m*3 13.97 C 0 km/h
1448 13-09-2021 23:00:00 13.35 C 10.71 g/m*3 13.35 C 0 km/h
1449 14-09-2021 00:00:00 13.06667 C 10.64 g/m*3 13.07 C 0 km/h
1450 14-09-2021 01:00:00 12.40833 C 10.28 g/m*3 12.41 C 0 km/h
Sensor: Nr:Datum:Temp:Abs-Feuchte:Windchill:Wind:
Aussen-T/F 1451 14-09-2021 02:00:00 12.11667 C 10.17 g/m*3 12.12 C 0 km/h
1452 14-09-2021 03:00:00 11.875 C 10.05 g/m*3 11.88 C 0 km/h
1453 14-09-2021 04:00:00 11.71667 C 9.95 g/m*3 11.72 C 0 km/h
1454 14-09-2021 05:00:00 11.275 C 9.69 g/m*3 11.28 C 0 km/h
1455 14-09-2021 06:00:00 10.90833 C 9.54 g/m*3 10.91 C 0 km/h
1456 14-09-2021 07:00:00 11 C 9.62 g/m*3 11 C 0 km/h
1457 14-09-2021 08:00:00 11.9 C 10.23 g/m*3 11.9 C 0.26667 km/h
1458 14-09-2021 09:00:00 12.775 C 10.85 g/m*3 12.78 C 0.13333 km/h
1459 14-09-2021 10:00:00 13.9 C 11.63 g/m*3 13.9 C 0 km/h
1460 14-09-2021 11:00:00 15.35 C 12.67 g/m*3 15.35 C 0.13333 km/h
1461 14-09-2021 12:00:00 17.45 C 14.17 g/m*3 17.45 C 0.13333 km/h
1462 14-09-2021 13:00:00 20.28333 C 15.7 g/m*3 20.28 C 1.86667 km/h
1463 14-09-2021 14:00:00 22 C 16.79 g/m*3 22 C 0.53333 km/h
1464 14-09-2021 15:00:00 22.96667 C 17.66 g/m*3 22.97 C 0.8 km/h
1465 14-09-2021 16:00:00 23.525 C 18.09 g/m*3 23.53 C 0.66667 km/h
1466 14-09-2021 17:00:00 23.53333 C 18.03 g/m*3 23.53 C 0.4 km/h
1467 14-09-2021 18:00:00 21.98333 C 16.85 g/m*3 21.98 C 1.86667 km/h
1468 14-09-2021 19:00:00 20.35 C 15.99 g/m*3 20.35 C 3.73333 km/h
1469 14-09-2021 20:00:00 19.33333 C 15.36 g/m*3 19.33 C 1.73333 km/h
1470 14-09-2021 21:00:00 18.925 C 15.1 g/m*3 18.93 C 1.46667 km/h
1471 14-09-2021 22:00:00 18.85833 C 15.19 g/m*3 18.86 C 2.13333 km/h
1472 14-09-2021 23:00:00 18.68333 C 15.03 g/m*3 18.68 C 0 km/h
1473 15-09-2021 00:00:00 18.18333 C 14.6 g/m*3 18.18 C 0.13333 km/h
1474 15-09-2021 01:00:00 17.575 C 14.15 g/m*3 17.58 C 0 km/h
1475 15-09-2021 02:00:00 17.475 C 14.14 g/m*3 17.48 C 0 km/h
Sensor: Nr:Datum:Temp:Abs-Feuchte:Windchill:Wind:
Aussen-T/F 1476 15-09-2021 03:00:00 17.5 C 14.24 g/m*3 17.5 C 0 km/h
1477 15-09-2021 04:00:00 17.21667 C 14.05 g/m*3 17.22 C 0 km/h
1478 15-09-2021 05:00:00 17.46667 C 14.28 g/m*3 17.47 C 0 km/h
1479 15-09-2021 06:00:00 17.53333 C 14.34 g/m*3 17.53 C 0 km/h
1480 15-09-2021 07:00:00 17.48333 C 14.31 g/m*3 17.48 C 0 km/h
1481 15-09-2021 08:00:00 18.04167 C 14.94 g/m*3 18.04 C 0 km/h
1482 15-09-2021 09:00:00 18.825 C 15.64 g/m*3 18.83 C 0 km/h
1483 15-09-2021 10:00:00 19.50833 C 16.29 g/m*3 19.51 C 0 km/h
1484 15-09-2021 11:00:00 20.24167 C 16.93 g/m*3 20.24 C 0 km/h
1485 15-09-2021 12:00:00 20.91667 C 17.27 g/m*3 20.92 C 0.26667 km/h
1486 15-09-2021 13:00:00 21.43333 C 17.31 g/m*3 21.43 C 4.3 km/h
1487 15-09-2021 14:00:00 21.64167 C 17.13 g/m*3 21.64 C 7.11667 km/h
1488 15-09-2021 15:00:00 21.94167 C 17.01 g/m*3 21.94 C 8.2 km/h
1489 15-09-2021 16:00:00 22.65833 C 16.95 g/m*3 22.66 C 10.5 km/h
1490 15-09-2021 17:00:00 22.49167 C 16.72 g/m*3 22.49 C 7.79167 km/h
1491 15-09-2021 18:00:00 20.40833 C 15.84 g/m*3 20.41 C 1.475 km/h
1492 15-09-2021 19:00:00 19.48333 C 15.56 g/m*3 19.48 C 0 km/h
1493 15-09-2021 20:00:00 18.94167 C 15.25 g/m*3 18.94 C 3.21667 km/h
1494 15-09-2021 21:00:00 18.28333 C 14.75 g/m*3 18.28 C 4.825 km/h
1495 15-09-2021 22:00:00 17.50833 C 14.15 g/m*3 17.51 C 3.86667 km/h
1496 15-09-2021 23:00:00 17.175 C 13.98 g/m*3 17.18 C 2.53333 km/h
1497 16-09-2021 00:00:00 17.03333 C 13.92 g/m*3 17.03 C 2.95 km/h
1498 16-09-2021 01:00:00 16.69167 C 13.64 g/m*3 16.69 C 2.4 km/h
1499 16-09-2021 02:00:00 16.45 C 13.44 g/m*3 16.45 C 0.53333 km/h
1500 16-09-2021 03:00:00 16.13333 C 13.19 g/m*3 16.13 C 1.2 km/h
Sensor: Nr:Datum:Temp:Abs-Feuchte:Windchill:Wind:
Aussen-T/F 1501 16-09-2021 04:00:00 15.70833 C 12.85 g/m*3 15.71 C 1.2 km/h
1502 16-09-2021 05:00:00 15.35833 C 12.61 g/m*3 15.36 C 6.175 km/h
1503 16-09-2021 06:00:00 15.075 C 12.05 g/m*3 15.08 C 10.21667 km/h
1504 16-09-2021 07:00:00 14.575 C 11.51 g/m*3 14.58 C 5.09167 km/h
1505 16-09-2021 08:00:00 13.76667 C 11.11 g/m*3 13.77 C 2.53333 km/h
1506 16-09-2021 09:00:00 13.75 C 11.17 g/m*3 13.75 C 4.56667 km/h
1507 16-09-2021 10:00:00 15.31667 C 11.54 g/m*3 15.32 C 5.625 km/h
1508 16-09-2021 11:00:00 16.19167 C 11.66 g/m*3 16.19 C 5.09167 km/h
1509 16-09-2021 12:00:00 17.075 C 12.02 g/m*3 17.08 C 3.33333 km/h
1510 16-09-2021 13:00:00 17.80833 C 12.19 g/m*3 17.81 C 2.66667 km/h
1511 16-09-2021 14:00:00 18.55833 C 12.2 g/m*3 18.56 C 6.16667 km/h
1512 16-09-2021 15:00:00 18.80833 C 12.18 g/m*3 18.81 C 5.60833 km/h
1513 16-09-2021 16:00:00 18.88333 C 12.33 g/m*3 18.88 C 6.025 km/h
1514 16-09-2021 17:00:00 18.68333 C 12.74 g/m*3 18.68 C 2 km/h
1515 16-09-2021 18:00:00 18.45833 C 12.26 g/m*3 18.46 C 3.6 km/h
1516 16-09-2021 19:00:00 17.69167 C 12.68 g/m*3 17.69 C 2.66667 km/h
1517 16-09-2021 20:00:00 15.625 C 11.67 g/m*3 15.63 C 7.25833 km/h
1518 16-09-2021 21:00:00 14.40833 C 11.19 g/m*3 14.41 C 2.13333 km/h
1519 16-09-2021 22:00:00 14.00833 C 11.22 g/m*3 14.01 C 0.26667 km/h
1520 16-09-2021 23:00:00 13.41667 C 10.9 g/m*3 13.42 C 0.66667 km/h
1521 17-09-2021 00:00:00 12.95 C 10.67 g/m*3 12.95 C 0.93333 km/h
1522 17-09-2021 01:00:00 12.53333 C 10.42 g/m*3 12.53 C 0.66667 km/h
1523 17-09-2021 02:00:00 11.68333 C 9.93 g/m*3 11.68 C 0.13333 km/h
1524 17-09-2021 03:00:00 11.18333 C 9.64 g/m*3 11.18 C 0.8 km/h
1525 17-09-2021 04:00:00 10.91667 C 9.49 g/m*3 10.92 C 0 km/h
Sensor: Nr:Datum:Temp:Abs-Feuchte:Windchill:Wind:
Aussen-T/F 1526 17-09-2021 05:00:00 11.10833 C 9.67 g/m*3 11.11 C 0 km/h
1527 17-09-2021 06:00:00 11.3 C 9.79 g/m*3 11.3 C 0 km/h
1528 17-09-2021 07:00:00 11.16667 C 9.71 g/m*3 11.17 C 0 km/h
1529 17-09-2021 08:00:00 11.60833 C 10.06 g/m*3 11.61 C 0 km/h
1530 17-09-2021 09:00:00 12.7 C 10.8 g/m*3 12.7 C 0 km/h
1531 17-09-2021 10:00:00 13.70833 C 11.36 g/m*3 13.71 C 0 km/h
1532 17-09-2021 11:00:00 14.99167 C 11.89 g/m*3 14.99 C 0 km/h
1533 17-09-2021 12:00:00 17.01667 C 12.5 g/m*3 17.02 C 0 km/h
1534 17-09-2021 13:00:00 18.45833 C 12.77 g/m*3 18.46 C 0.53333 km/h
1535 17-09-2021 14:00:00 18.89167 C 12.75 g/m*3 18.89 C 0 km/h
1536 17-09-2021 15:00:00 19.29167 C 12.61 g/m*3 19.29 C 0 km/h
1537 17-09-2021 16:00:00 19.425 C 13.31 g/m*3 19.43 C 0 km/h
1538 17-09-2021 17:00:00 20.64167 C 13.86 g/m*3 20.64 C 0.26667 km/h
1539 17-09-2021 18:00:00 18.98333 C 12.98 g/m*3 18.98 C 5.33333 km/h
1540 17-09-2021 19:00:00 16.975 C 12.33 g/m*3 16.98 C 5.75 km/h
1541 17-09-2021 20:00:00 15.18333 C 11.44 g/m*3 15.18 C 2.14167 km/h
1542 17-09-2021 21:00:00 13.89167 C 10.94 g/m*3 13.89 C 0 km/h
1543 17-09-2021 22:00:00 12.96667 C 10.53 g/m*3 12.97 C 0 km/h
1544 17-09-2021 23:00:00 12.36667 C 10.26 g/m*3 12.37 C 0.13333 km/h
1545 18-09-2021 00:00:00 12.08333 C 10.18 g/m*3 12.08 C 0 km/h
1546 18-09-2021 01:00:00 11.86667 C 10.04 g/m*3 11.87 C 0.13333 km/h
1547 18-09-2021 02:00:00 11.38333 C 9.76 g/m*3 11.38 C 0 km/h
1548 18-09-2021 03:00:00 10.9 C 9.5 g/m*3 10.9 C 0.13333 km/h
1549 18-09-2021 04:00:00 11.08333 C 9.66 g/m*3 11.08 C 0.13333 km/h
1550 18-09-2021 05:00:00 11.03333 C 9.63 g/m*3 11.03 C 0 km/h
Sensor: Nr:Datum:Temp:Abs-Feuchte:Windchill:Wind:
Aussen-T/F 1551 18-09-2021 06:00:00 10.81667 C 9.5 g/m*3 10.82 C 0 km/h
1552 18-09-2021 07:00:00 10.7 C 9.51 g/m*3 10.7 C 0 km/h
1553 18-09-2021 08:00:00 10.8 C 9.59 g/m*3 10.8 C 0 km/h
1554 18-09-2021 09:00:00 11.175 C 9.82 g/m*3 11.18 C 0.13333 km/h
1555 18-09-2021 10:00:00 11.75833 C 10.18 g/m*3 11.76 C 0 km/h
1556 18-09-2021 11:00:00 12.75833 C 10.84 g/m*3 12.76 C 0 km/h
1557 18-09-2021 12:00:00 14.76667 C 12.16 g/m*3 14.77 C 0 km/h
1558 18-09-2021 13:00:00 16.69167 C 12.87 g/m*3 16.69 C 0 km/h
1559 18-09-2021 14:00:00 18.925 C 12.74 g/m*3 18.93 C 0 km/h
1560 18-09-2021 15:00:00 20.525 C 12.99 g/m*3 20.53 C 0 km/h
1561 18-09-2021 16:00:00 20.94167 C 13.05 g/m*3 20.94 C 0 km/h
1562 18-09-2021 17:00:00 21.8 C 14.57 g/m*3 21.8 C 0 km/h
1563 18-09-2021 18:00:00 21.75833 C 14.58 g/m*3 21.76 C 0 km/h
1564 18-09-2021 19:00:00 18.08333 C 12.85 g/m*3 18.08 C 0.53333 km/h
1565 18-09-2021 20:00:00 15.95833 C 12 g/m*3 15.96 C 1.73333 km/h
1566 18-09-2021 21:00:00 15.1 C 11.75 g/m*3 15.1 C 0.4 km/h
1567 18-09-2021 22:00:00 14.58333 C 11.56 g/m*3 14.58 C 0.66667 km/h
1568 18-09-2021 23:00:00 14.18333 C 11.27 g/m*3 14.18 C 0.66667 km/h
1569 19-09-2021 00:00:00 13.275 C 10.68 g/m*3 13.28 C 1.06667 km/h
1570 19-09-2021 01:00:00 12.65833 C 10.4 g/m*3 12.66 C 1.46667 km/h
1571 19-09-2021 02:00:00 12.28333 C 10.16 g/m*3 12.28 C 1.86667 km/h
1572 19-09-2021 03:00:00 11.68333 C 9.83 g/m*3 11.68 C 2.53333 km/h
1573 19-09-2021 04:00:00 11.31667 C 9.69 g/m*3 11.32 C 0 km/h
1574 19-09-2021 05:00:00 10.76667 C 9.37 g/m*3 10.77 C 0 km/h
1575 19-09-2021 06:00:00 10.4 C 9.17 g/m*3 10.4 C 0 km/h
Sensor: Nr:Datum:Temp:Abs-Feuchte:Windchill:Wind:
Aussen-T/F 1576 19-09-2021 07:00:00 10.125 C 9.05 g/m*3 10.13 C 0 km/h
1577 19-09-2021 08:00:00 10.525 C 9.33 g/m*3 10.53 C 0 km/h
1578 19-09-2021 09:00:00 12.125 C 10.41 g/m*3 12.13 C 2.01667 km/h
1579 19-09-2021 10:00:00 12.91667 C 10.83 g/m*3 12.92 C 1.33333 km/h
1580 19-09-2021 11:00:00 14.375 C 11.39 g/m*3 14.38 C 2.94167 km/h
1581 19-09-2021 12:00:00 16.8 C 11.43 g/m*3 16.8 C 7.525 km/h
1582 19-09-2021 13:00:00 17.65 C 11.26 g/m*3 17.65 C 5.51667 km/h
1583 19-09-2021 14:00:00 18.29167 C 11.46 g/m*3 18.29 C 3.73333 km/h
1584 19-09-2021 15:00:00 18.8 C 11.5 g/m*3 18.8 C 7.5 km/h
1585 19-09-2021 16:00:00 19.01667 C 11.39 g/m*3 19.02 C 9.28333 km/h
1586 19-09-2021 17:00:00 19.45 C 11.78 g/m*3 19.45 C 6.3 km/h
1587 19-09-2021 18:00:00 19.60833 C 11.87 g/m*3 19.61 C 4.025 km/h
1588 19-09-2021 19:00:00 15.71667 C 10.96 g/m*3 15.72 C 0.4 km/h
1589 19-09-2021 20:00:00 13.44167 C 10.08 g/m*3 13.44 C 1.60833 km/h
1590 19-09-2021 21:00:00 12.11667 C 9.5 g/m*3 12.12 C 0 km/h
1591 19-09-2021 22:00:00 11.04167 C 9.17 g/m*3 11.04 C 0 km/h
1592 19-09-2021 23:00:00 11.39167 C 9.56 g/m*3 11.39 C 0 km/h
1593 20-09-2021 00:00:00 11.8 C 9.76 g/m*3 11.8 C 0 km/h
1594 20-09-2021 01:00:00 12 C 9.71 g/m*3 12 C 0 km/h
1595 20-09-2021 02:00:00 12.09167 C 9.6 g/m*3 12.09 C 0.13333 km/h
1596 20-09-2021 03:00:00 11.975 C 9.56 g/m*3 11.98 C 0 km/h
1597 20-09-2021 04:00:00 11.6 C 9.37 g/m*3 11.6 C 0 km/h
1598 20-09-2021 05:00:00 11.30833 C 9.29 g/m*3 11.31 C 0 km/h
1599 20-09-2021 06:00:00 11.325 C 9.23 g/m*3 11.33 C 0 km/h
1600 20-09-2021 07:00:00 11.45 C 9.28 g/m*3 11.45 C 0 km/h
Sensor: Nr:Datum:Temp:Abs-Feuchte:Windchill:Wind:
Aussen-T/F 1601 20-09-2021 08:00:00 11.76667 C 9.1 g/m*3 11.77 C 0 km/h
1602 20-09-2021 09:00:00 12.54167 C 9.1 g/m*3 12.54 C 0.93333 km/h
1603 20-09-2021 10:00:00 12.95 C 9.25 g/m*3 12.95 C 4.40833 km/h
1604 20-09-2021 11:00:00 13.79167 C 9.45 g/m*3 13.79 C 7.8 km/h
1605 20-09-2021 12:00:00 14.6 C 9.66 g/m*3 14.6 C 8.35 km/h
1606 20-09-2021 13:00:00 15.16667 C 9.89 g/m*3 15.17 C 6.84167 km/h
1607 20-09-2021 14:00:00 16.04167 C 10.23 g/m*3 16.04 C 7.80833 km/h
1608 20-09-2021 15:00:00 16.28333 C 10.34 g/m*3 16.28 C 7.25 km/h
1609 20-09-2021 16:00:00 16.26667 C 10.27 g/m*3 16.27 C 4.025 km/h
1610 20-09-2021 17:00:00 16.29167 C 10.35 g/m*3 16.29 C 1.73333 km/h
1611 20-09-2021 18:00:00 15.93333 C 10.88 g/m*3 15.93 C 0 km/h
1612 20-09-2021 19:00:00 14.71667 C 10.48 g/m*3 14.72 C 0 km/h
1613 20-09-2021 20:00:00 13.66667 C 9.9 g/m*3 13.67 C 0 km/h
1614 20-09-2021 21:00:00 13.075 C 9.64 g/m*3 13.08 C 0 km/h
1615 20-09-2021 22:00:00 12.75833 C 9.47 g/m*3 12.76 C 0 km/h
1616 20-09-2021 23:00:00 12.71667 C 9.41 g/m*3 12.72 C 0 km/h
1617 21-09-2021 00:00:00 12.25833 C 9.23 g/m*3 12.26 C 0 km/h
1618 21-09-2021 01:00:00 12.00833 C 8.95 g/m*3 12.01 C 0.26667 km/h
1619 21-09-2021 02:00:00 12.00833 C 8.48 g/m*3 12.01 C 1.6 km/h
1620 21-09-2021 03:00:00 12.34167 C 8.45 g/m*3 12.34 C 0 km/h
1621 21-09-2021 04:00:00 11.60833 C 8.52 g/m*3 11.61 C 0 km/h
1622 21-09-2021 05:00:00 11.06667 C 8.33 g/m*3 11.07 C 0 km/h
1623 21-09-2021 06:00:00 9.9 C 7.91 g/m*3 9.9 C 0 km/h
1624 21-09-2021 07:00:00 8.94167 C 7.76 g/m*3 8.94 C 0 km/h
1625 21-09-2021 08:00:00 8.4 C 7.71 g/m*3 8.4 C 0 km/h
Sensor: Nr:Datum:Temp:Abs-Feuchte:Windchill:Wind:
Aussen-T/F 1626 21-09-2021 09:00:00 8.40833 C 7.73 g/m*3 8.41 C 0 km/h
1627 21-09-2021 10:00:00 9.21667 C 8.27 g/m*3 9.22 C 0 km/h
1628 21-09-2021 11:00:00 10.95833 C 8.96 g/m*3 10.96 C 0 km/h
1629 21-09-2021 12:00:00 13.90833 C 8.82 g/m*3 13.91 C 1.075 km/h
1630 21-09-2021 13:00:00 15.93333 C 8.46 g/m*3 15.93 C 6.575 km/h
1631 21-09-2021 14:00:00 16.65 C 8.55 g/m*3 16.65 C 6.84167 km/h
1632 21-09-2021 15:00:00 16.64167 C 8.73 g/m*3 16.64 C 4.81667 km/h
1633 21-09-2021 16:00:00 16.83333 C 8.54 g/m*3 16.83 C 7.66667 km/h
1634 21-09-2021 17:00:00 17.26667 C 9.48 g/m*3 17.27 C 2.4 km/h
1635 21-09-2021 18:00:00 16.125 C 10.39 g/m*3 16.13 C 3.875 km/h
1636 21-09-2021 19:00:00 13.10833 C 8.99 g/m*3 13.11 C 8.08333 km/h
1637 21-09-2021 20:00:00 11.425 C 8.61 g/m*3 11.43 C 2.53333 km/h
1638 21-09-2021 21:00:00 10.10833 C 8.29 g/m*3 10.11 C 0 km/h
1639 21-09-2021 22:00:00 9.26667 C 8.1 g/m*3 9.27 C 0 km/h
1640 21-09-2021 23:00:00 8.825 C 8 g/m*3 8.82 C 0 km/h
1641 22-09-2021 00:00:00 8.44167 C 7.91 g/m*3 8.44 C 0 km/h
1642 22-09-2021 01:00:00 8.025 C 7.76 g/m*3 8.03 C 0 km/h
1643 22-09-2021 02:00:00 7.71667 C 7.63 g/m*3 7.72 C 0.13333 km/h
1644 22-09-2021 03:00:00 7.36667 C 7.51 g/m*3 7.37 C 0 km/h
1645 22-09-2021 04:00:00 7.01667 C 7.37 g/m*3 7.02 C 0 km/h
1646 22-09-2021 05:00:00 6.775 C 7.25 g/m*3 6.78 C 0.13333 km/h
1647 22-09-2021 06:00:00 6.36667 C 7.06 g/m*3 6.37 C 0 km/h
1648 22-09-2021 07:00:00 6.10833 C 6.96 g/m*3 6.11 C 0 km/h
1649 22-09-2021 08:00:00 6.76667 C 7.33 g/m*3 6.77 C 0 km/h
1650 22-09-2021 09:00:00 7.475 C 7.67 g/m*3 7.48 C 0 km/h
Sensor: Nr:Datum:Temp:Abs-Feuchte:Windchill:Wind:
Aussen-T/F 1651 22-09-2021 10:00:00 8.64167 C 8.32 g/m*3 8.64 C 0 km/h
1652 22-09-2021 11:00:00 10.55 C 9.33 g/m*3 10.55 C 0 km/h
1653 22-09-2021 12:00:00 12.85833 C 10.19 g/m*3 12.86 C 0 km/h
1654 22-09-2021 13:00:00 14.7 C 10.6 g/m*3 14.7 C 0 km/h
1655 22-09-2021 14:00:00 16.98333 C 10.81 g/m*3 16.98 C 0 km/h
1656 22-09-2021 15:00:00 17.65833 C 11.6 g/m*3 17.66 C 0 km/h
1657 22-09-2021 16:00:00 17.175 C 11.48 g/m*3 17.18 C 0 km/h
1658 22-09-2021 17:00:00 17.76667 C 12.08 g/m*3 17.77 C 0 km/h
1659 22-09-2021 18:00:00 17.9 C 11.96 g/m*3 17.9 C 0 km/h
1660 22-09-2021 19:00:00 14.925 C 10.55 g/m*3 14.93 C 4.13333 km/h
1661 22-09-2021 20:00:00 12.725 C 9.73 g/m*3 12.73 C 1.06667 km/h
1662 22-09-2021 21:00:00 11.30833 C 9.23 g/m*3 11.31 C 0 km/h
1663 22-09-2021 22:00:00 10.475 C 8.9 g/m*3 10.48 C 0 km/h
1664 22-09-2021 23:00:00 9.91667 C 8.72 g/m*3 9.92 C 0.4 km/h
1665 23-09-2021 00:00:00 9.43333 C 8.52 g/m*3 9.43 C 0.13333 km/h
1666 23-09-2021 01:00:00 9.075 C 8.39 g/m*3 9.07 C 0.13333 km/h
1667 23-09-2021 02:00:00 8.625 C 8.18 g/m*3 8.63 C 0.26667 km/h
1668 23-09-2021 03:00:00 8.19167 C 7.95 g/m*3 8.19 C 0.13333 km/h
1669 23-09-2021 04:00:00 7.54167 C 7.62 g/m*3 7.54 C 0 km/h
1670 23-09-2021 05:00:00 7.38333 C 7.59 g/m*3 7.38 C 0 km/h
1671 23-09-2021 06:00:00 7.53333 C 7.7 g/m*3 7.53 C 0.13333 km/h
1672 23-09-2021 07:00:00 7.83333 C 7.85 g/m*3 7.83 C 0 km/h
1673 23-09-2021 08:00:00 8.225 C 8.05 g/m*3 8.23 C 0 km/h
1674 23-09-2021 09:00:00 8.58333 C 8.27 g/m*3 8.58 C 0 km/h
1675 23-09-2021 10:00:00 9.2 C 8.66 g/m*3 9.2 C 0 km/h
Sensor: Nr:Datum:Temp:Abs-Feuchte:Windchill:Wind:
Aussen-T/F 1676 23-09-2021 11:00:00 10.65 C 9.5 g/m*3 10.65 C 0 km/h
1677 23-09-2021 12:00:00 13.525 C 11.34 g/m*3 13.53 C 0.8 km/h
1678 23-09-2021 13:00:00 17.00833 C 11.99 g/m*3 17.01 C 8.33333 km/h
1679 23-09-2021 14:00:00 19.60833 C 11.95 g/m*3 19.61 C 7.8 km/h
1680 23-09-2021 15:00:00 20.61667 C 12.36 g/m*3 20.62 C 9.00833 km/h
1681 23-09-2021 16:00:00 21.23333 C 12.9 g/m*3 21.23 C 8.73333 km/h
1682 23-09-2021 17:00:00 22.15 C 12.14 g/m*3 22.15 C 8.04167 km/h
1683 23-09-2021 18:00:00 21.625 C 10.34 g/m*3 21.63 C 8.19167 km/h
1684 23-09-2021 19:00:00 19.10833 C 10.24 g/m*3 19.11 C 3.89167 km/h
1685 23-09-2021 20:00:00 17.84167 C 10.31 g/m*3 17.84 C 8.46667 km/h
1686 23-09-2021 21:00:00 17.13333 C 10.62 g/m*3 17.13 C 3.33333 km/h
1687 23-09-2021 22:00:00 15.84167 C 10.64 g/m*3 15.84 C 4.26667 km/h
1688 23-09-2021 23:00:00 15.18333 C 10.71 g/m*3 15.18 C 2.4 km/h
1689 24-09-2021 00:00:00 14.90833 C 10.77 g/m*3 14.91 C 2.94167 km/h
1690 24-09-2021 01:00:00 15.09167 C 10.69 g/m*3 15.09 C 2.8 km/h
1691 24-09-2021 02:00:00 14.36667 C 10.6 g/m*3 14.37 C 4.81667 km/h
1692 24-09-2021 03:00:00 13.98333 C 10.52 g/m*3 13.98 C 2.675 km/h
1693 24-09-2021 04:00:00 13.875 C 10.49 g/m*3 13.88 C 5.09167 km/h
1694 24-09-2021 05:00:00 12.85833 C 10.15 g/m*3 12.86 C 3.20833 km/h
1695 24-09-2021 06:00:00 12.60833 C 10.18 g/m*3 12.61 C 5.21667 km/h
1696 24-09-2021 07:00:00 12.15 C 9.94 g/m*3 12.15 C 1.33333 km/h
1697 24-09-2021 08:00:00 11.89167 C 9.92 g/m*3 11.89 C 0.93333 km/h
1698 24-09-2021 09:00:00 12.425 C 10.39 g/m*3 12.43 C 3.08333 km/h
1699 24-09-2021 10:00:00 14.59167 C 11.6 g/m*3 14.59 C 5.90833 km/h
1700 24-09-2021 11:00:00 16.49167 C 12.3 g/m*3 16.49 C 5.1 km/h
Sensor: Nr:Datum:Temp:Abs-Feuchte:Windchill:Wind:
Aussen-T/F 1701 24-09-2021 12:00:00 18.525 C 12.95 g/m*3 18.52 C 8.05833 km/h
1702 24-09-2021 13:00:00 19.35833 C 12.75 g/m*3 19.36 C 10.9 km/h
1703 24-09-2021 14:00:00 19.64167 C 12.68 g/m*3 19.64 C 13.56667 km/h
1704 24-09-2021 15:00:00 19.18333 C 12.3 g/m*3 19.18 C 12.23333 km/h
1705 24-09-2021 16:00:00 19.33333 C 12.63 g/m*3 19.33 C 10.35 km/h
1706 24-09-2021 17:00:00 20.68333 C 12.96 g/m*3 20.68 C 5.48333 km/h
1707 24-09-2021 18:00:00 19.85 C 13.09 g/m*3 19.85 C 2.93333 km/h
1708 24-09-2021 19:00:00 16.875 C 12.26 g/m*3 16.88 C 4.4 km/h
1709 24-09-2021 20:00:00 15.55 C 11.88 g/m*3 15.55 C 2.53333 km/h
1710 24-09-2021 21:00:00 14.875 C 11.54 g/m*3 14.88 C 4.825 km/h
1711 24-09-2021 22:00:00 14.8 C 11.28 g/m*3 14.8 C 5.075 km/h
1712 24-09-2021 23:00:00 14.11667 C 10.85 g/m*3 14.12 C 1.33333 km/h
1713 25-09-2021 00:00:00 13.19167 C 10.51 g/m*3 13.19 C 0.66667 km/h
1714 25-09-2021 01:00:00 12.74167 C 10.38 g/m*3 12.74 C 0 km/h
1715 25-09-2021 02:00:00 12.15833 C 10.06 g/m*3 12.16 C 0 km/h
1716 25-09-2021 03:00:00 11.3 C 9.52 g/m*3 11.3 C 0 km/h
1717 25-09-2021 04:00:00 10.80833 C 9.35 g/m*3 10.81 C 0 km/h
1718 25-09-2021 05:00:00 10.53333 C 9.23 g/m*3 10.53 C 0 km/h
1719 25-09-2021 06:00:00 10.65 C 9.34 g/m*3 10.65 C 0 km/h
1720 25-09-2021 07:00:00 10.49167 C 9.25 g/m*3 10.49 C 0 km/h
1721 25-09-2021 08:00:00 10.425 C 9.27 g/m*3 10.43 C 0 km/h
1722 25-09-2021 09:00:00 11.225 C 9.77 g/m*3 11.23 C 0 km/h
1723 25-09-2021 10:00:00 12.06667 C 10.35 g/m*3 12.07 C 0 km/h
1724 25-09-2021 11:00:00 13.51667 C 11.36 g/m*3 13.52 C 0 km/h
1725 25-09-2021 12:00:00 15.16667 C 12.46 g/m*3 15.17 C 0 km/h
Sensor: Nr:Datum:Temp:Abs-Feuchte:Windchill:Wind:
Aussen-T/F 1726 25-09-2021 13:00:00 16.98333 C 13.07 g/m*3 16.98 C 0 km/h
1727 25-09-2021 14:00:00 19.50833 C 13.63 g/m*3 19.51 C 0 km/h
1728 25-09-2021 15:00:00 20.625 C 13.83 g/m*3 20.63 C 0 km/h
1729 25-09-2021 16:00:00 19.51667 C 13.69 g/m*3 19.52 C 0 km/h
1730 25-09-2021 17:00:00 19.4 C 13.65 g/m*3 19.4 C 0 km/h
1731 25-09-2021 18:00:00 20.875 C 13.9 g/m*3 20.88 C 0 km/h
1732 25-09-2021 19:00:00 17.91667 C 12.12 g/m*3 17.92 C 0 km/h
1733 25-09-2021 20:00:00 15.775 C 11.39 g/m*3 15.78 C 0 km/h
1734 25-09-2021 21:00:00 14.73333 C 11.13 g/m*3 14.73 C 0 km/h
1735 25-09-2021 22:00:00 14.66667 C 11.38 g/m*3 14.67 C 0 km/h
1736 25-09-2021 23:00:00 14.93333 C 11.73 g/m*3 14.93 C 0 km/h
1737 26-09-2021 00:00:00 15.09167 C 11.86 g/m*3 15.09 C 0 km/h
1738 26-09-2021 01:00:00 14.90833 C 11.74 g/m*3 14.91 C 0 km/h
1739 26-09-2021 02:00:00 14.71667 C 11.62 g/m*3 14.72 C 0 km/h
1740 26-09-2021 03:00:00 13.79167 C 11.01 g/m*3 13.79 C 0 km/h
1741 26-09-2021 04:00:00 13.76667 C 11.18 g/m*3 13.77 C 0 km/h
1742 26-09-2021 05:00:00 13.26667 C 10.84 g/m*3 13.27 C 0 km/h
1743 26-09-2021 06:00:00 12.775 C 10.57 g/m*3 12.78 C 0 km/h
1744 26-09-2021 07:00:00 12.5 C 10.44 g/m*3 12.5 C 0 km/h
1745 26-09-2021 08:00:00 12.51667 C 10.53 g/m*3 12.52 C 0 km/h
1746 26-09-2021 09:00:00 13.975 C 11.61 g/m*3 13.98 C 0 km/h
1747 26-09-2021 10:00:00 15.6 C 12.76 g/m*3 15.6 C 1.06667 km/h
1748 26-09-2021 11:00:00 17.725 C 13.93 g/m*3 17.73 C 3.60833 km/h
1749 26-09-2021 12:00:00 18.68333 C 14.17 g/m*3 18.68 C 5.48333 km/h
1750 26-09-2021 13:00:00 19.59167 C 14.51 g/m*3 19.59 C 3.49167 km/h
Sensor: Nr:Datum:Temp:Abs-Feuchte:Windchill:Wind:
Aussen-T/F 1751 26-09-2021 14:00:00 19.34167 C 14.91 g/m*3 19.34 C 0.4 km/h
1752 26-09-2021 15:00:00 19.25 C 14.95 g/m*3 19.25 C 1.33333 km/h
1753 26-09-2021 16:00:00 19.30833 C 15.03 g/m*3 19.31 C 0.13333 km/h
1754 26-09-2021 17:00:00 19.25833 C 14.89 g/m*3 19.26 C 0.4 km/h
1755 26-09-2021 18:00:00 18.74167 C 14.47 g/m*3 18.74 C 1.2 km/h
1756 26-09-2021 19:00:00 17.7 C 13.81 g/m*3 17.7 C 0.66667 km/h
1757 26-09-2021 20:00:00 17.11667 C 13.62 g/m*3 17.12 C 1.33333 km/h
1758 26-09-2021 21:00:00 16.78333 C 13.44 g/m*3 16.78 C 2 km/h
1759 26-09-2021 22:00:00 16.15833 C 13.06 g/m*3 16.16 C 2.13333 km/h
1760 26-09-2021 23:00:00 15.43333 C 12.51 g/m*3 15.43 C 0.93333 km/h
1761 27-09-2021 00:00:00 14.625 C 11.91 g/m*3 14.63 C 0.26667 km/h
1762 27-09-2021 01:00:00 13.90833 C 11.41 g/m*3 13.91 C 0.13333 km/h
1763 27-09-2021 02:00:00 13.30833 C 11.08 g/m*3 13.31 C 0 km/h
1764 27-09-2021 03:00:00 13.05833 C 10.93 g/m*3 13.06 C 0 km/h
1765 27-09-2021 04:00:00 13.45 C 11.25 g/m*3 13.45 C 0.13333 km/h
1766 27-09-2021 05:00:00 13.60833 C 11.42 g/m*3 13.61 C 0.26667 km/h
1767 27-09-2021 06:00:00 13.50833 C 11.33 g/m*3 13.51 C 0 km/h
1768 27-09-2021 07:00:00 13.65 C 11.45 g/m*3 13.65 C 0 km/h
1769 27-09-2021 08:00:00 14.01667 C 11.71 g/m*3 14.02 C 0.26667 km/h
1770 27-09-2021 09:00:00 14.96667 C 12.41 g/m*3 14.97 C 1.61667 km/h
1771 27-09-2021 10:00:00 15.8 C 13.07 g/m*3 15.8 C 1.33333 km/h
1772 27-09-2021 11:00:00 17.73333 C 14.12 g/m*3 17.73 C 2.93333 km/h
1773 27-09-2021 12:00:00 19.49167 C 14.26 g/m*3 19.49 C 5.61667 km/h
1774 27-09-2021 13:00:00 20.26667 C 14.38 g/m*3 20.27 C 3.86667 km/h
1775 27-09-2021 14:00:00 20.35 C 14.1 g/m*3 20.35 C 7.25 km/h
Sensor: Nr:Datum:Temp:Abs-Feuchte:Windchill:Wind:
Aussen-T/F 1776 27-09-2021 15:00:00 20.31667 C 14.47 g/m*3 20.32 C 1.74167 km/h
1777 27-09-2021 16:00:00 20.00833 C 14.6 g/m*3 20.01 C 0 km/h
1778 27-09-2021 17:00:00 19.18333 C 14.41 g/m*3 19.18 C 0.26667 km/h
1779 27-09-2021 18:00:00 18.425 C 14.11 g/m*3 18.43 C 1.46667 km/h
1780 27-09-2021 19:00:00 17.525 C 13.76 g/m*3 17.52 C 1.06667 km/h
1781 27-09-2021 20:00:00 16.45833 C 13 g/m*3 16.46 C 7.23333 km/h
1782 27-09-2021 21:00:00 14.59167 C 11.53 g/m*3 14.59 C 3.48333 km/h
1783 27-09-2021 22:00:00 13.38333 C 10.88 g/m*3 13.38 C 2.66667 km/h
1784 27-09-2021 23:00:00 12.725 C 10.55 g/m*3 12.73 C 3.06667 km/h
1785 28-09-2021 00:00:00 11.95833 C 10.08 g/m*3 11.96 C 2.53333 km/h
1786 28-09-2021 01:00:00 11.59167 C 9.87 g/m*3 11.59 C 0.4 km/h
1787 28-09-2021 02:00:00 11.23333 C 9.73 g/m*3 11.23 C 0.53333 km/h
1788 28-09-2021 03:00:00 11.09167 C 9.66 g/m*3 11.09 C 0.8 km/h
1789 28-09-2021 04:00:00 10.95 C 9.59 g/m*3 10.95 C 2.66667 km/h
1790 28-09-2021 05:00:00 10.81667 C 9.5 g/m*3 10.82 C 2.53333 km/h
1791 28-09-2021 06:00:00 10.4 C 9.25 g/m*3 10.4 C 2.4 km/h
1792 28-09-2021 07:00:00 9.65833 C 8.83 g/m*3 9.66 C 0.4 km/h
1793 28-09-2021 08:00:00 9.70833 C 8.91 g/m*3 9.71 C 4 km/h
1794 28-09-2021 09:00:00 10.90833 C 9.65 g/m*3 10.91 C 1.73333 km/h
1795 28-09-2021 10:00:00 12.04167 C 10.32 g/m*3 12.04 C 7.24167 km/h
1796 28-09-2021 11:00:00 12.975 C 10.55 g/m*3 12.98 C 3.46667 km/h
1797 28-09-2021 12:00:00 14.125 C 10.81 g/m*3 14.13 C 3.33333 km/h
1798 28-09-2021 13:00:00 14.93333 C 11.03 g/m*3 14.93 C 4.26667 km/h
1799 28-09-2021 14:00:00 16.25 C 11.23 g/m*3 16.25 C 4.8 km/h
1800 28-09-2021 15:00:00 17 C 10.95 g/m*3 17 C 3.33333 km/h
Sensor: Nr:Datum:Temp:Abs-Feuchte:Windchill:Wind:
Aussen-T/F 1801 28-09-2021 16:00:00 17.15 C 10.95 g/m*3 17.15 C 2.13333 km/h
1802 28-09-2021 17:00:00 17.1 C 11.91 g/m*3 17.1 C 1.06667 km/h
1803 28-09-2021 18:00:00 14.93333 C 10.88 g/m*3 14.93 C 2.8 km/h
1804 28-09-2021 19:00:00 13.375 C 10.31 g/m*3 13.38 C 3.6 km/h
1805 28-09-2021 20:00:00 12.55 C 10.07 g/m*3 12.55 C 1.86667 km/h
1806 28-09-2021 21:00:00 11.85 C 9.76 g/m*3 11.85 C 0 km/h
1807 28-09-2021 22:00:00 11.38333 C 9.59 g/m*3 11.38 C 0 km/h
1808 28-09-2021 23:00:00 10.93333 C 9.37 g/m*3 10.93 C 0 km/h
1809 29-09-2021 00:00:00 10.34167 C 9.07 g/m*3 10.34 C 0 km/h
1810 29-09-2021 01:00:00 10.23333 C 9.06 g/m*3 10.23 C 0 km/h
1811 29-09-2021 02:00:00 9.93333 C 8.89 g/m*3 9.93 C 0 km/h
1812 29-09-2021 03:00:00 9.74167 C 8.8 g/m*3 9.74 C 0 km/h
1813 29-09-2021 04:00:00 9.35 C 8.59 g/m*3 9.35 C 0 km/h
1814 29-09-2021 05:00:00 8.98333 C 8.44 g/m*3 8.98 C 0 km/h
1815 29-09-2021 06:00:00 8.63333 C 8.27 g/m*3 8.63 C 0 km/h
1816 29-09-2021 07:00:00 8.34167 C 8.11 g/m*3 8.34 C 0.53333 km/h
1817 29-09-2021 08:00:00 9.075 C 8.57 g/m*3 9.07 C 1.46667 km/h
1818 29-09-2021 09:00:00 10.35 C 9.32 g/m*3 10.35 C 2.13333 km/h
1819 29-09-2021 10:00:00 11.825 C 10.23 g/m*3 11.83 C 2.41667 km/h
1820 29-09-2021 11:00:00 14.24167 C 11.02 g/m*3 14.24 C 12.9 km/h
1821 29-09-2021 12:00:00 15.05 C 10.96 g/m*3 15.05 C 13.425 km/h
1822 29-09-2021 13:00:00 13.05 C 10.62 g/m*3 13.05 C 9.68333 km/h
1823 29-09-2021 14:00:00 14.09167 C 10.63 g/m*3 14.09 C 12.35833 km/h
1824 29-09-2021 15:00:00 14.58333 C 9.79 g/m*3 14.58 C 14.9 km/h
1825 29-09-2021 16:00:00 14.95 C 9.09 g/m*3 14.95 C 15.96667 km/h
Sensor: Nr:Datum:Temp:Abs-Feuchte:Windchill:Wind:
Aussen-T/F 1826 29-09-2021 17:00:00 15.45 C 8.94 g/m*3 15.45 C 11.69167 km/h
1827 29-09-2021 18:00:00 15.85 C 8.43 g/m*3 15.85 C 10.075 km/h
1828 29-09-2021 19:00:00 12.875 C 8.05 g/m*3 12.88 C 7.5 km/h
1829 29-09-2021 20:00:00 10.48333 C 7.86 g/m*3 9.83 C 6.825 km/h
1830 29-09-2021 21:00:00 9.65833 C 7.88 g/m*3 9.66 C 4.4 km/h
1831 29-09-2021 22:00:00 9.28333 C 7.92 g/m*3 9.28 C 4.14167 km/h
1832 29-09-2021 23:00:00 8.79167 C 7.76 g/m*3 8.79 C 2.66667 km/h
1833 30-09-2021 00:00:00 9.28333 C 7.78 g/m*3 8.83 C 5.35833 km/h
1834 30-09-2021 01:00:00 8.89167 C 7.71 g/m*3 8.47 C 5.1 km/h
1835 30-09-2021 02:00:00 9.03333 C 7.77 g/m*3 8.14 C 6.85 km/h
1836 30-09-2021 03:00:00 8.89167 C 7.7 g/m*3 7.69 C 8.05833 km/h
1837 30-09-2021 04:00:00 8.65 C 7.64 g/m*3 7.47 C 7.79167 km/h
1838 30-09-2021 05:00:00 8.3 C 7.53 g/m*3 7.22 C 7.125 km/h
1839 30-09-2021 06:00:00 7.85 C 7.47 g/m*3 7.85 C 4.80833 km/h
1840 30-09-2021 07:00:00 7.93333 C 7.51 g/m*3 6.27 C 9.425 km/h
1841 30-09-2021 08:00:00 7.73333 C 7.49 g/m*3 6.3 C 8.20833 km/h
1842 30-09-2021 09:00:00 8.29167 C 7.72 g/m*3 6.57 C 10.1 km/h
1843 30-09-2021 10:00:00 9.16667 C 8.05 g/m*3 8.07 C 7.79167 km/h
1844 30-09-2021 11:00:00 10.49167 C 8.5 g/m*3 9.93 C 6.43333 km/h
1845 30-09-2021 12:00:00 12.2 C 8.78 g/m*3 12.2 C 9.68333 km/h
1846 30-09-2021 13:00:00 13.36667 C 8.77 g/m*3 13.37 C 12.23333 km/h
1847 30-09-2021 14:00:00 14.70833 C 8.71 g/m*3 14.71 C 10.60833 km/h
1848 30-09-2021 15:00:00 14.86667 C 8.53 g/m*3 14.87 C 9.01667 km/h
1849 30-09-2021 16:00:00 14.95833 C 8.44 g/m*3 14.96 C 6.05833 km/h
1850 30-09-2021 17:00:00 14.45 C 9.81 g/m*3 14.45 C 0.66667 km/h
Sensor: Nr:Datum:Temp:Abs-Feuchte:Windchill:Wind:
Aussen-T/F 1851 30-09-2021 18:00:00 13.25833 C 9.62 g/m*3 13.26 C 0.26667 km/h
1852 30-09-2021 19:00:00 11.84167 C 9.11 g/m*3 11.84 C 2 km/h
1853 30-09-2021 20:00:00 11.175 C 8.95 g/m*3 11.18 C 1.73333 km/h
1854 30-09-2021 21:00:00 10.51667 C 8.66 g/m*3 10.52 C 1.33333 km/h
1855 30-09-2021 22:00:00 9.91667 C 8.48 g/m*3 9.92 C 1.86667 km/h
1856 30-09-2021 23:00:00 9.85 C 8.49 g/m*3 9.85 C 0 km/h
1857 01-10-2021 00:00:00 9.15833 C 8.1 g/m*3 9.16 C 1.33333 km/h
1858 01-10-2021 01:00:00 8.33333 C 7.69 g/m*3 8.33 C 0.66667 km/h
1859 01-10-2021 02:00:00 7.64167 C 7.45 g/m*3 7.64 C 0.4 km/h
1860 01-10-2021 03:00:00 7.05 C 7.23 g/m*3 7.05 C 0.13333 km/h
1861 01-10-2021 04:00:00 7 C 7.28 g/m*3 7 C 0 km/h
1862 01-10-2021 05:00:00 6.86667 C 7.22 g/m*3 6.87 C 0 km/h
1863 01-10-2021 06:00:00 6.38333 C 7.04 g/m*3 6.38 C 0.13333 km/h
1864 01-10-2021 07:00:00 5.875 C 6.84 g/m*3 5.88 C 0 km/h
1865 01-10-2021 08:00:00 5.83333 C 6.82 g/m*3 5.83 C 0 km/h
1866 01-10-2021 09:00:00 6.475 C 7.19 g/m*3 6.48 C 0.13333 km/h
1867 01-10-2021 10:00:00 8.5 C 8.26 g/m*3 8.5 C 0.13333 km/h
1868 01-10-2021 11:00:00 10.40833 C 9.25 g/m*3 10.41 C 1.73333 km/h
1869 01-10-2021 12:00:00 12.95833 C 9.91 g/m*3 12.96 C 4.55833 km/h
1870 01-10-2021 13:00:00 15.55833 C 9.54 g/m*3 15.56 C 7.9 km/h
1871 01-10-2021 14:00:00 17.55 C 9.28 g/m*3 17.55 C 7.24167 km/h
1872 01-10-2021 15:00:00 18.19167 C 9.53 g/m*3 18.19 C 6.3 km/h
1873 01-10-2021 16:00:00 18 C 10.97 g/m*3 18 C 1.46667 km/h
1874 01-10-2021 17:00:00 16.15833 C 10.6 g/m*3 16.16 C 5.34167 km/h
1875 01-10-2021 18:00:00 14.25 C 9.84 g/m*3 14.25 C 6.40833 km/h
Sensor: Nr:Datum:Temp:Abs-Feuchte:Windchill:Wind:
Aussen-T/F 1876 01-10-2021 19:00:00 13.00833 C 9.41 g/m*3 13.01 C 4.54167 km/h
1877 01-10-2021 20:00:00 12.51667 C 9.35 g/m*3 12.52 C 2.93333 km/h
1878 01-10-2021 21:00:00 12.34167 C 9.4 g/m*3 12.34 C 1.86667 km/h
1879 01-10-2021 22:00:00 12.26667 C 9.46 g/m*3 12.27 C 0.26667 km/h
1880 01-10-2021 23:00:00 12.375 C 9.83 g/m*3 12.38 C 1.46667 km/h
1881 02-10-2021 00:00:00 12.20833 C 9.82 g/m*3 12.21 C 1.875 km/h
1882 02-10-2021 01:00:00 13.4 C 9.91 g/m*3 13.4 C 6.30833 km/h
1883 02-10-2021 02:00:00 13.575 C 9.99 g/m*3 13.58 C 2.53333 km/h
1884 02-10-2021 03:00:00 13.225 C 10.17 g/m*3 13.23 C 2.80833 km/h
1885 02-10-2021 04:00:00 12.80833 C 10.28 g/m*3 12.81 C 2.675 km/h
1886 02-10-2021 05:00:00 12.8 C 10.39 g/m*3 12.8 C 0.66667 km/h
1887 02-10-2021 06:00:00 12.86667 C 10.46 g/m*3 12.87 C 0.53333 km/h
1888 02-10-2021 07:00:00 12.8 C 10.48 g/m*3 12.8 C 0.53333 km/h
1889 02-10-2021 08:00:00 12.83333 C 10.58 g/m*3 12.83 C 0.26667 km/h
1890 02-10-2021 09:00:00 13.35833 C 10.92 g/m*3 13.36 C 0.4 km/h
1891 02-10-2021 10:00:00 14.41667 C 11.32 g/m*3 14.42 C 0.26667 km/h
1892 02-10-2021 11:00:00 15.33333 C 11.52 g/m*3 15.33 C 1.6 km/h
1893 02-10-2021 12:00:00 16.05 C 11.64 g/m*3 16.05 C 3.34167 km/h
1894 02-10-2021 13:00:00 16.79167 C 11.79 g/m*3 16.79 C 7.11667 km/h
1895 02-10-2021 14:00:00 17.46667 C 11.79 g/m*3 17.47 C 6.45 km/h
1896 02-10-2021 15:00:00 18.48333 C 12.32 g/m*3 18.48 C 2.8 km/h
1897 02-10-2021 16:00:00 18.16667 C 12.56 g/m*3 18.17 C 3.75833 km/h
1898 02-10-2021 17:00:00 17.83333 C 12.71 g/m*3 17.83 C 2.26667 km/h
1899 02-10-2021 18:00:00 16.51667 C 12.1 g/m*3 16.52 C 2.8 km/h
1900 02-10-2021 19:00:00 15.18333 C 11.54 g/m*3 15.18 C 1.46667 km/h
Sensor: Nr:Datum:Temp:Abs-Feuchte:Windchill:Wind:
Aussen-T/F 1901 02-10-2021 20:00:00 14.85 C 11.29 g/m*3 14.85 C 1.73333 km/h
1902 02-10-2021 21:00:00 15.45 C 11.42 g/m*3 15.45 C 3.6 km/h
1903 02-10-2021 22:00:00 16.26667 C 11.87 g/m*3 16.27 C 4.95833 km/h
1904 02-10-2021 23:00:00 17.66667 C 12.12 g/m*3 17.67 C 5.76667 km/h
1905 03-10-2021 00:00:00 18.075 C 12.05 g/m*3 18.08 C 7.10833 km/h
1906 03-10-2021 01:00:00 18.3 C 11.96 g/m*3 18.3 C 4.80833 km/h
1907 03-10-2021 02:00:00 18.85 C 11.66 g/m*3 18.85 C 9.95 km/h
1908 03-10-2021 03:00:00 18.98333 C 11.84 g/m*3 18.98 C 6.71667 km/h
1909 03-10-2021 04:00:00 18.825 C 12.23 g/m*3 18.83 C 3.74167 km/h
1910 03-10-2021 05:00:00 17.85 C 12.23 g/m*3 17.85 C 3.35 km/h
1911 03-10-2021 06:00:00 18.50833 C 12.08 g/m*3 18.51 C 6.70833 km/h
1912 03-10-2021 07:00:00 19.35833 C 12.03 g/m*3 19.36 C 6.15 km/h
1913 03-10-2021 08:00:00 18.86667 C 11.99 g/m*3 18.87 C 4.55 km/h
1914 03-10-2021 09:00:00 19.33333 C 11.8 g/m*3 19.33 C 6.44167 km/h
1915 03-10-2021 10:00:00 20.125 C 12.07 g/m*3 20.13 C 7.78333 km/h
1916 03-10-2021 11:00:00 19.48333 C 12.66 g/m*3 19.48 C 6.43333 km/h
1917 03-10-2021 12:00:00 19.76667 C 12.36 g/m*3 19.77 C 7.65 km/h
1918 03-10-2021 13:00:00 21.50833 C 12.23 g/m*3 21.51 C 7.93333 km/h
1919 03-10-2021 14:00:00 22.86667 C 12.19 g/m*3 22.87 C 12.75833 km/h
1920 03-10-2021 15:00:00 21.225 C 12.71 g/m*3 21.23 C 12.48333 km/h
1921 03-10-2021 16:00:00 19.36667 C 13.21 g/m*3 19.37 C 9.11667 km/h
1922 03-10-2021 17:00:00 19.15833 C 12.68 g/m*3 19.16 C 10.225 km/h
1923 03-10-2021 18:00:00 18.63333 C 12.56 g/m*3 18.63 C 8.05833 km/h
1924 03-10-2021 19:00:00 17.81667 C 12.42 g/m*3 17.82 C 4.28333 km/h
1925 03-10-2021 20:00:00 16.13333 C 11.8 g/m*3 16.13 C 8.725 km/h
Sensor: Nr:Datum:Temp:Abs-Feuchte:Windchill:Wind:
Aussen-T/F 1926 03-10-2021 21:00:00 14.13333 C 10.73 g/m*3 14.13 C 2.8 km/h
1927 03-10-2021 22:00:00 13.51667 C 10.3 g/m*3 13.52 C 5.1 km/h
1928 03-10-2021 23:00:00 13.50833 C 9.91 g/m*3 13.51 C 6.425 km/h
1929 04-10-2021 00:00:00 13.30833 C 9.93 g/m*3 13.31 C 5.625 km/h
1930 04-10-2021 01:00:00 13.125 C 9.9 g/m*3 13.13 C 3.475 km/h
1931 04-10-2021 02:00:00 12.9 C 9.79 g/m*3 12.9 C 6.56667 km/h
1932 04-10-2021 03:00:00 12.825 C 9.72 g/m*3 12.83 C 1.33333 km/h
1933 04-10-2021 04:00:00 12.325 C 9.71 g/m*3 12.33 C 0.26667 km/h
1934 04-10-2021 05:00:00 12.125 C 9.78 g/m*3 12.13 C 0 km/h
1935 04-10-2021 06:00:00 11.8 C 9.68 g/m*3 11.8 C 0.8 km/h
1936 04-10-2021 07:00:00 11.79167 C 9.77 g/m*3 11.79 C 1.6 km/h
1937 04-10-2021 08:00:00 12.05 C 9.9 g/m*3 12.05 C 0.26667 km/h
1938 04-10-2021 09:00:00 12.6 C 10.29 g/m*3 12.6 C 0 km/h
1939 04-10-2021 10:00:00 13.49167 C 10.4 g/m*3 13.49 C 0.53333 km/h
1940 04-10-2021 11:00:00 14.83333 C 10.4 g/m*3 14.83 C 4.14167 km/h
1941 04-10-2021 12:00:00 15.89167 C 10.41 g/m*3 15.89 C 5.90833 km/h
1942 04-10-2021 13:00:00 16.675 C 10.28 g/m*3 16.68 C 8.05833 km/h
1943 04-10-2021 14:00:00 17.03333 C 10.08 g/m*3 17.03 C 5.78333 km/h
1944 04-10-2021 15:00:00 17.525 C 10.27 g/m*3 17.52 C 4.7 km/h
1945 04-10-2021 16:00:00 17.13333 C 10.6 g/m*3 17.13 C 2.00833 km/h
1946 04-10-2021 17:00:00 16.85 C 11.08 g/m*3 16.85 C 0 km/h
1947 04-10-2021 18:00:00 17.4 C 10.94 g/m*3 17.4 C 0.26667 km/h
1948 04-10-2021 19:00:00 13.04167 C 9.41 g/m*3 13.04 C 5.6 km/h
1949 04-10-2021 20:00:00 11.25833 C 9 g/m*3 11.26 C 2 km/h
1950 04-10-2021 21:00:00 10.43333 C 8.75 g/m*3 10.43 C 0.4 km/h
Sensor: Nr:Datum:Temp:Abs-Feuchte:Windchill:Wind:
Aussen-T/F 1951 04-10-2021 22:00:00 10.36667 C 8.85 g/m*3 10.37 C 0 km/h
1952 04-10-2021 23:00:00 10 C 8.68 g/m*3 10 C 0.13333 km/h
1953 05-10-2021 00:00:00 9.65833 C 8.55 g/m*3 9.66 C 0 km/h
1954 05-10-2021 01:00:00 9.40833 C 8.49 g/m*3 9.41 C 0 km/h
1955 05-10-2021 02:00:00 9.58333 C 8.65 g/m*3 9.58 C 0 km/h
1956 05-10-2021 03:00:00 9.34167 C 8.52 g/m*3 9.34 C 0 km/h
1957 05-10-2021 04:00:00 9.475 C 8.63 g/m*3 9.48 C 0.26667 km/h
1958 05-10-2021 05:00:00 9.375 C 8.58 g/m*3 9.38 C 0.26667 km/h
1959 05-10-2021 06:00:00 9.28333 C 8.53 g/m*3 9.28 C 0 km/h
1960 05-10-2021 07:00:00 9.325 C 8.6 g/m*3 9.32 C 0 km/h
1961 05-10-2021 08:00:00 9.59167 C 8.79 g/m*3 9.59 C 0 km/h
1962 05-10-2021 09:00:00 10.51667 C 9.32 g/m*3 10.52 C 0.4 km/h
1963 05-10-2021 10:00:00 11.51667 C 9.9 g/m*3 11.52 C 0.13333 km/h
1964 05-10-2021 11:00:00 12.875 C 10.36 g/m*3 12.88 C 3.34167 km/h
1965 05-10-2021 12:00:00 14.53333 C 10.28 g/m*3 14.53 C 4.40833 km/h
1966 05-10-2021 13:00:00 15.95833 C 9.85 g/m*3 15.96 C 8.05833 km/h
1967 05-10-2021 14:00:00 17.5 C 10.08 g/m*3 17.5 C 11.29167 km/h
1968 05-10-2021 15:00:00 17.73333 C 10.48 g/m*3 17.73 C 5.09167 km/h
1969 05-10-2021 16:00:00 17.575 C 10.61 g/m*3 17.58 C 2.68333 km/h
1970 05-10-2021 17:00:00 15.775 C 11.28 g/m*3 15.78 C 1.73333 km/h
1971 05-10-2021 18:00:00 14.3 C 11.23 g/m*3 14.3 C 0.93333 km/h
1972 05-10-2021 19:00:00 13.65 C 10.97 g/m*3 13.65 C 5.49167 km/h
1973 05-10-2021 20:00:00 12.8 C 10.3 g/m*3 12.8 C 6.15833 km/h
1974 05-10-2021 21:00:00 11.70833 C 9.69 g/m*3 11.71 C 5.35833 km/h
1975 05-10-2021 22:00:00 11.075 C 9.35 g/m*3 11.08 C 5.21667 km/h
Sensor: Nr:Datum:Temp:Abs-Feuchte:Windchill:Wind:
Aussen-T/F 1976 05-10-2021 23:00:00 10.975 C 9.32 g/m*3 10.98 C 4.81667 km/h
1977 06-10-2021 00:00:00 11.025 C 9.27 g/m*3 11.03 C 8.45833 km/h
1978 06-10-2021 01:00:00 11.09167 C 9.17 g/m*3 11.09 C 7.39167 km/h
1979 06-10-2021 02:00:00 10.775 C 8.98 g/m*3 10.42 C 5.75833 km/h
1980 06-10-2021 03:00:00 11.3 C 9.04 g/m*3 11.3 C 10.5 km/h
1981 06-10-2021 04:00:00 11.09167 C 8.84 g/m*3 11.09 C 9 km/h
1982 06-10-2021 05:00:00 10.85 C 8.77 g/m*3 9.7 C 9.675 km/h
1983 06-10-2021 06:00:00 10.45 C 8.66 g/m*3 10.45 C 4.54167 km/h
1984 06-10-2021 07:00:00 10.09167 C 8.58 g/m*3 9.83 C 5.08333 km/h
1985 06-10-2021 08:00:00 10.825 C 8.79 g/m*3 10.08 C 7.50833 km/h
1986 06-10-2021 09:00:00 11.70833 C 8.84 g/m*3 11.71 C 14.5 km/h
1987 06-10-2021 10:00:00 12.53333 C 8.91 g/m*3 12.53 C 16.1 km/h
1988 06-10-2021 11:00:00 12.10833 C 9.01 g/m*3 12.11 C 9.275 km/h
1989 06-10-2021 12:00:00 12.375 C 9.14 g/m*3 12.38 C 13.03333 km/h
1990 06-10-2021 13:00:00 13.23333 C 9.05 g/m*3 13.23 C 16.36667 km/h
1991 06-10-2021 14:00:00 13.91667 C 9.33 g/m*3 13.92 C 14.63333 km/h
1992 06-10-2021 15:00:00 13.93333 C 9.22 g/m*3 13.93 C 15.7 km/h
1993 06-10-2021 16:00:00 13.49167 C 9.25 g/m*3 13.49 C 12.63333 km/h
1994 06-10-2021 17:00:00 13.95833 C 9.49 g/m*3 13.96 C 13.15833 km/h
1995 06-10-2021 18:00:00 13.00833 C 9.39 g/m*3 13.01 C 6.71667 km/h
1996 06-10-2021 19:00:00 12.51667 C 9.41 g/m*3 12.52 C 5.88333 km/h
1997 06-10-2021 20:00:00 11.8 C 9.46 g/m*3 11.8 C 5.35833 km/h
1998 06-10-2021 21:00:00 11.35 C 9.46 g/m*3 11.35 C 4.41667 km/h
1999 06-10-2021 22:00:00 11.16667 C 9.47 g/m*3 11.17 C 6.3 km/h
2000 06-10-2021 23:00:00 11.09167 C 9.46 g/m*3 11.09 C 5.225 km/h
Sensor: Nr:Datum:Temp:Abs-Feuchte:Windchill:Wind:
Aussen-T/F 2001 07-10-2021 00:00:00 11.05 C 9.52 g/m*3 11.05 C 5.5 km/h
2002 07-10-2021 01:00:00 10.98333 C 9.5 g/m*3 10.98 C 4.40833 km/h
2003 07-10-2021 02:00:00 11.01667 C 9.52 g/m*3 11.02 C 1.6 km/h
2004 07-10-2021 03:00:00 10.98333 C 9.5 g/m*3 10.98 C 0.13333 km/h
2005 07-10-2021 04:00:00 10.9 C 9.54 g/m*3 10.9 C 0.66667 km/h
2006 07-10-2021 05:00:00 11.03333 C 9.63 g/m*3 11.03 C 0.13333 km/h
2007 07-10-2021 06:00:00 11.1 C 9.67 g/m*3 11.1 C 0 km/h
2008 07-10-2021 07:00:00 11.05833 C 9.64 g/m*3 11.06 C 0 km/h
2009 07-10-2021 08:00:00 11.19167 C 9.73 g/m*3 11.19 C 0 km/h
2010 07-10-2021 09:00:00 11.65 C 10.01 g/m*3 11.65 C 1.73333 km/h
2011 07-10-2021 10:00:00 12.03333 C 10.18 g/m*3 12.03 C 0.93333 km/h
2012 07-10-2021 11:00:00 12.79167 C 10.69 g/m*3 12.79 C 1.06667 km/h
2013 07-10-2021 12:00:00 13.61667 C 10.68 g/m*3 13.62 C 2.13333 km/h
2014 07-10-2021 13:00:00 14.575 C 10.56 g/m*3 14.58 C 2.675 km/h
2015 07-10-2021 14:00:00 15.33333 C 10.52 g/m*3 15.33 C 5.08333 km/h
2016 07-10-2021 15:00:00 16.125 C 10.39 g/m*3 16.13 C 7.24167 km/h
2017 07-10-2021 16:00:00 16.325 C 10.25 g/m*3 16.33 C 9.15 km/h
2018 07-10-2021 17:00:00 16.525 C 10.51 g/m*3 16.52 C 3.475 km/h
2019 07-10-2021 18:00:00 15.71667 C 10.64 g/m*3 15.72 C 3.06667 km/h
2020 07-10-2021 19:00:00 12.45833 C 9.51 g/m*3 12.46 C 3.46667 km/h
2021 07-10-2021 20:00:00 10.85833 C 8.97 g/m*3 10.86 C 1.46667 km/h
2022 07-10-2021 21:00:00 9.58333 C 8.43 g/m*3 9.58 C 0.13333 km/h
2023 07-10-2021 22:00:00 8.81667 C 8.12 g/m*3 8.82 C 0 km/h
2024 07-10-2021 23:00:00 8.23333 C 7.89 g/m*3 8.23 C 0 km/h
2025 08-10-2021 00:00:00 7.75 C 7.69 g/m*3 7.75 C 0 km/h
Sensor: Nr:Datum:Temp:Abs-Feuchte:Windchill:Wind:
Aussen-T/F 2026 08-10-2021 01:00:00 7.275 C 7.49 g/m*3 7.28 C 0 km/h
2027 08-10-2021 02:00:00 7.39167 C 7.58 g/m*3 7.39 C 0 km/h
2028 08-10-2021 03:00:00 8.025 C 7.95 g/m*3 8.03 C 0 km/h
2029 08-10-2021 04:00:00 8.15833 C 8.02 g/m*3 8.16 C 0.13333 km/h
2030 08-10-2021 05:00:00 8.125 C 8 g/m*3 8.13 C 0.13333 km/h
2031 08-10-2021 06:00:00 7.99167 C 7.99 g/m*3 7.99 C 0.13333 km/h
2032 08-10-2021 07:00:00 7.925 C 7.93 g/m*3 7.93 C 0.26667 km/h
2033 08-10-2021 08:00:00 8.05833 C 8.05 g/m*3 8.06 C 0.26667 km/h
2034 08-10-2021 09:00:00 8.475 C 8.27 g/m*3 8.48 C 1.46667 km/h
2035 08-10-2021 10:00:00 8.86667 C 8.48 g/m*3 8.87 C 2.8 km/h
2036 08-10-2021 11:00:00 9.225 C 8.68 g/m*3 9.23 C 3.33333 km/h
2037 08-10-2021 12:00:00 10.18333 C 9.23 g/m*3 10.18 C 1.46667 km/h
2038 08-10-2021 13:00:00 11.825 C 10.26 g/m*3 11.83 C 0.26667 km/h
2039 08-10-2021 14:00:00 13.41667 C 11.28 g/m*3 13.42 C 0.13333 km/h
2040 08-10-2021 15:00:00 15.525 C 11.3 g/m*3 15.53 C 6.85 km/h
2041 08-10-2021 16:00:00 17.325 C 10.86 g/m*3 17.33 C 8.05833 km/h
2042 08-10-2021 17:00:00 17.06667 C 11.08 g/m*3 17.07 C 3.33333 km/h
2043 08-10-2021 18:00:00 16.18333 C 10.88 g/m*3 16.18 C 1.73333 km/h
2044 08-10-2021 19:00:00 12.90833 C 9.85 g/m*3 12.91 C 1.33333 km/h
2045 08-10-2021 20:00:00 11.71667 C 9.49 g/m*3 11.72 C 0.26667 km/h
2046 08-10-2021 21:00:00 10.61667 C 8.96 g/m*3 10.62 C 0.13333 km/h
2047 08-10-2021 22:00:00 9.78333 C 8.64 g/m*3 9.78 C 0.13333 km/h
2048 08-10-2021 23:00:00 9.40833 C 8.54 g/m*3 9.41 C 0.53333 km/h
2049 09-10-2021 00:00:00 9.14167 C 8.45 g/m*3 9.14 C 2 km/h
2050 09-10-2021 01:00:00 8.78333 C 8.26 g/m*3 8.78 C 0.93333 km/h
Sensor: Nr:Datum:Temp:Abs-Feuchte:Windchill:Wind:
Aussen-T/F 2051 09-10-2021 02:00:00 8.24167 C 7.98 g/m*3 8.24 C 1.06667 km/h
2052 09-10-2021 03:00:00 7.55 C 7.63 g/m*3 7.55 C 0.13333 km/h
2053 09-10-2021 04:00:00 7.025 C 7.4 g/m*3 7.03 C 0.4 km/h
2054 09-10-2021 05:00:00 6.8 C 7.31 g/m*3 6.8 C 1.33333 km/h
2055 09-10-2021 06:00:00 6.84167 C 7.36 g/m*3 6.84 C 0.8 km/h
2056 09-10-2021 07:00:00 5.875 C 6.87 g/m*3 5.88 C 0 km/h
2057 09-10-2021 08:00:00 6.05 C 6.99 g/m*3 6.05 C 0 km/h
2058 09-10-2021 09:00:00 6.65 C 7.3 g/m*3 6.65 C 0 km/h
2059 09-10-2021 10:00:00 7.28333 C 7.66 g/m*3 7.28 C 0.26667 km/h
2060 09-10-2021 11:00:00 8.63333 C 8.35 g/m*3 8.63 C 0.8 km/h
2061 09-10-2021 12:00:00 10 C 9.11 g/m*3 10 C 2.26667 km/h
2062 09-10-2021 13:00:00 11.84167 C 10.22 g/m*3 11.84 C 2 km/h
2063 09-10-2021 14:00:00 13.51667 C 10.63 g/m*3 13.52 C 1.6 km/h
2064 09-10-2021 15:00:00 14.85833 C 10.59 g/m*3 14.86 C 2.8 km/h
2065 09-10-2021 16:00:00 14.11667 C 10.27 g/m*3 14.12 C 2.66667 km/h
2066 09-10-2021 17:00:00 14.89167 C 10.38 g/m*3 14.89 C 3.875 km/h
2067 09-10-2021 18:00:00 14.46667 C 9.87 g/m*3 14.47 C 3.2 km/h
2068 09-10-2021 19:00:00 11.56667 C 8.83 g/m*3 11.57 C 4.00833 km/h
2069 09-10-2021 20:00:00 10.28333 C 8.4 g/m*3 10.28 C 2.13333 km/h
2070 09-10-2021 21:00:00 9.41667 C 8.15 g/m*3 9.42 C 1.06667 km/h
2071 09-10-2021 22:00:00 8.53333 C 7.75 g/m*3 8.53 C 0.26667 km/h
2072 09-10-2021 23:00:00 7.325 C 7.28 g/m*3 7.33 C 0.26667 km/h
2073 10-10-2021 00:00:00 6.59167 C 7.04 g/m*3 6.59 C 0 km/h
2074 10-10-2021 01:00:00 6.20833 C 6.92 g/m*3 6.21 C 1.46667 km/h
2075 10-10-2021 02:00:00 5.46667 C 6.59 g/m*3 5.47 C 0 km/h
Sensor: Nr:Datum:Temp:Abs-Feuchte:Windchill:Wind:
Aussen-T/F 2076 10-10-2021 03:00:00 4.63333 C 6.25 g/m*3 4.63 C 0 km/h
2077 10-10-2021 04:00:00 4.81667 C 6.38 g/m*3 4.82 C 0 km/h
2078 10-10-2021 05:00:00 4.90833 C 6.45 g/m*3 4.91 C 0.4 km/h
2079 10-10-2021 06:00:00 4.75833 C 6.4 g/m*3 4.76 C 0 km/h
2080 10-10-2021 07:00:00 4.40833 C 6.26 g/m*3 4.41 C 0.26667 km/h
2081 10-10-2021 08:00:00 4.25833 C 6.21 g/m*3 4.26 C 0.4 km/h
2082 10-10-2021 09:00:00 4.525 C 6.33 g/m*3 4.53 C 1.2 km/h
2083 10-10-2021 10:00:00 5.13333 C 6.62 g/m*3 5.13 C 1.06667 km/h
2084 10-10-2021 11:00:00 6.00833 C 7.04 g/m*3 6.01 C 1.6 km/h
2085 10-10-2021 12:00:00 7.20833 C 7.62 g/m*3 7.21 C 0.8 km/h
2086 10-10-2021 13:00:00 9.46667 C 8.78 g/m*3 9.47 C 1.2 km/h
2087 10-10-2021 14:00:00 11.66667 C 9.69 g/m*3 11.67 C 0.26667 km/h
2088 10-10-2021 15:00:00 13.06667 C 9.68 g/m*3 13.07 C 1.2 km/h
2089 10-10-2021 16:00:00 12.41667 C 9.31 g/m*3 12.42 C 1.6 km/h
2090 10-10-2021 17:00:00 12.51667 C 9.42 g/m*3 12.52 C 3.6 km/h
2091 10-10-2021 18:00:00 12.40833 C 8.95 g/m*3 12.41 C 5.60833 km/h
2092 10-10-2021 19:00:00 9.49167 C 7.88 g/m*3 9.49 C 4.40833 km/h
2093 10-10-2021 20:00:00 7.65833 C 7.29 g/m*3 7.66 C 0 km/h
2094 10-10-2021 21:00:00 6.50833 C 6.93 g/m*3 6.51 C 0.13333 km/h
2095 10-10-2021 22:00:00 6.00833 C 6.81 g/m*3 6.01 C 0 km/h
2096 10-10-2021 23:00:00 5.50833 C 6.61 g/m*3 5.51 C 0.4 km/h
2097 11-10-2021 00:00:00 5.075 C 6.49 g/m*3 5.08 C 0.4 km/h
2098 11-10-2021 01:00:00 4.725 C 6.34 g/m*3 4.72 C 0.13333 km/h
2099 11-10-2021 02:00:00 4.53333 C 6.27 g/m*3 4.53 C 1.06667 km/h
2100 11-10-2021 03:00:00 4.2 C 6.14 g/m*3 4.2 C 0.13333 km/h
Sensor: Nr:Datum:Temp:Abs-Feuchte:Windchill:Wind:
Aussen-T/F 2101 11-10-2021 04:00:00 4.78333 C 6.43 g/m*3 4.78 C 0 km/h
2102 11-10-2021 05:00:00 4.925 C 6.49 g/m*3 4.93 C 0 km/h
2103 11-10-2021 06:00:00 4.93333 C 6.49 g/m*3 4.93 C 0 km/h
2104 11-10-2021 07:00:00 5.75833 C 6.86 g/m*3 5.76 C 1.46667 km/h
2105 11-10-2021 08:00:00 6.38333 C 7.15 g/m*3 6.38 C 1.86667 km/h
2106 11-10-2021 09:00:00 7.03333 C 7.47 g/m*3 7.03 C 1.73333 km/h
2107 11-10-2021 10:00:00 7.78333 C 7.87 g/m*3 7.78 C 1.46667 km/h
2108 11-10-2021 11:00:00 9.075 C 8.57 g/m*3 9.07 C 0.4 km/h
2109 11-10-2021 12:00:00 11.06667 C 9.61 g/m*3 11.07 C 2.675 km/h
2110 11-10-2021 13:00:00 13.075 C 9.9 g/m*3 13.08 C 6.85833 km/h
2111 11-10-2021 14:00:00 13.55 C 9.7 g/m*3 13.55 C 6.975 km/h
2112 11-10-2021 15:00:00 13.81667 C 9.4 g/m*3 13.82 C 8.31667 km/h
2113 11-10-2021 16:00:00 14.075 C 9.28 g/m*3 14.08 C 8.05 km/h
2114 11-10-2021 17:00:00 14.05833 C 9.26 g/m*3 14.06 C 5.225 km/h
2115 11-10-2021 18:00:00 13.13333 C 9.28 g/m*3 13.13 C 2.66667 km/h
2116 11-10-2021 19:00:00 10.725 C 8.61 g/m*3 10.73 C 4.53333 km/h
2117 11-10-2021 20:00:00 10.15 C 8.63 g/m*3 10.15 C 1.33333 km/h
2118 11-10-2021 21:00:00 9.74167 C 8.45 g/m*3 9.74 C 0 km/h
2119 11-10-2021 22:00:00 9.84167 C 8.64 g/m*3 9.84 C 0.26667 km/h
2120 11-10-2021 23:00:00 9.83333 C 8.74 g/m*3 9.83 C 0.93333 km/h
2121 12-10-2021 00:00:00 9.775 C 8.75 g/m*3 9.78 C 0.26667 km/h
2122 12-10-2021 01:00:00 9.63333 C 8.72 g/m*3 9.63 C 0.66667 km/h
2123 12-10-2021 02:00:00 9.45 C 8.62 g/m*3 9.45 C 0 km/h
2124 12-10-2021 03:00:00 9.4 C 8.63 g/m*3 9.4 C 0.66667 km/h
2125 12-10-2021 04:00:00 9.5 C 8.74 g/m*3 9.5 C 0.26667 km/h
Sensor: Nr:Datum:Temp:Abs-Feuchte:Windchill:Wind:
Aussen-T/F 2126 12-10-2021 05:00:00 9.58333 C 8.78 g/m*3 9.58 C 0.66667 km/h
2127 12-10-2021 06:00:00 9.58333 C 8.78 g/m*3 9.58 C 1.33333 km/h
2128 12-10-2021 07:00:00 9.38333 C 8.67 g/m*3 9.38 C 0.26667 km/h
2129 12-10-2021 08:00:00 9.39167 C 8.68 g/m*3 9.39 C 3.33333 km/h
2130 12-10-2021 09:00:00 9.70833 C 8.87 g/m*3 9.71 C 3.06667 km/h
2131 12-10-2021 10:00:00 10.49167 C 9.33 g/m*3 10.49 C 3.86667 km/h
2132 12-10-2021 11:00:00 10.825 C 9.48 g/m*3 10.83 C 3.60833 km/h
2133 12-10-2021 12:00:00 11.54167 C 9.78 g/m*3 11.54 C 6.85833 km/h
2134 12-10-2021 13:00:00 11.70833 C 9.89 g/m*3 11.71 C 3.74167 km/h
2135 12-10-2021 14:00:00 11.73333 C 9.96 g/m*3 11.73 C 2.26667 km/h
2136 12-10-2021 15:00:00 11.55833 C 9.87 g/m*3 11.56 C 1.6 km/h
2137 12-10-2021 16:00:00 11.99167 C 10.23 g/m*3 11.99 C 2 km/h
2138 12-10-2021 17:00:00 11.65833 C 10.01 g/m*3 11.66 C 4.53333 km/h
2139 12-10-2021 18:00:00 11.21667 C 9.7 g/m*3 11.22 C 2.95 km/h
2140 12-10-2021 19:00:00 10.20833 C 9.06 g/m*3 10.21 C 0.8 km/h
2141 12-10-2021 20:00:00 9.21667 C 8.53 g/m*3 9.22 C 2.8 km/h
2142 12-10-2021 21:00:00 8.05 C 7.92 g/m*3 8.05 C 0.4 km/h
2143 12-10-2021 22:00:00 7.86667 C 7.87 g/m*3 7.87 C 0 km/h
2144 12-10-2021 23:00:00 7.55 C 7.71 g/m*3 7.55 C 2.13333 km/h
2145 13-10-2021 00:00:00 6.93333 C 7.41 g/m*3 6.93 C 0.4 km/h
2146 13-10-2021 01:00:00 6.41667 C 7.16 g/m*3 6.42 C 0.4 km/h
2147 13-10-2021 02:00:00 5.81667 C 6.88 g/m*3 5.82 C 0.4 km/h
2148 13-10-2021 03:00:00 5.56667 C 6.79 g/m*3 5.57 C 0 km/h
2149 13-10-2021 04:00:00 5.66667 C 6.85 g/m*3 5.67 C 0 km/h
2150 13-10-2021 05:00:00 6.125 C 7.1 g/m*3 6.13 C 2.675 km/h
Sensor: Nr:Datum:Temp:Abs-Feuchte:Windchill:Wind:
Aussen-T/F 2151 13-10-2021 06:00:00 6.29167 C 7.18 g/m*3 6.29 C 2.4 km/h
2152 13-10-2021 07:00:00 6.36667 C 7.21 g/m*3 6.37 C 1.46667 km/h
2153 13-10-2021 08:00:00 6.61667 C 7.33 g/m*3 6.62 C 2 km/h
2154 13-10-2021 09:00:00 7.08333 C 7.56 g/m*3 7.08 C 2.13333 km/h
2155 13-10-2021 10:00:00 7.79167 C 7.91 g/m*3 7.79 C 3.2 km/h
2156 13-10-2021 11:00:00 8.73333 C 8.41 g/m*3 8.73 C 2.4 km/h
2157 13-10-2021 12:00:00 9.6 C 8.82 g/m*3 9.6 C 0.8 km/h
2158 13-10-2021 13:00:00 10.425 C 9.07 g/m*3 10.43 C 2.4 km/h
2159 13-10-2021 14:00:00 11.40833 C 9.17 g/m*3 11.41 C 2.4 km/h
2160 13-10-2021 15:00:00 11.98333 C 9.24 g/m*3 11.98 C 1.6 km/h
2161 13-10-2021 16:00:00 11.79167 C 9.05 g/m*3 11.79 C 6.70833 km/h
2162 13-10-2021 17:00:00 11.00833 C 9.14 g/m*3 11.01 C 2.93333 km/h
2163 13-10-2021 18:00:00 10.00833 C 8.65 g/m*3 9.63 C 5.46667 km/h
2164 13-10-2021 19:00:00 8.925 C 8.2 g/m*3 8.93 C 3.46667 km/h
2165 13-10-2021 20:00:00 8.825 C 8.26 g/m*3 8.82 C 1.06667 km/h
2166 13-10-2021 21:00:00 8.9 C 8.33 g/m*3 8.9 C 1.46667 km/h
2167 13-10-2021 22:00:00 8.74167 C 8.31 g/m*3 8.74 C 0.66667 km/h
2168 13-10-2021 23:00:00 8.79167 C 8.35 g/m*3 8.79 C 3.06667 km/h
2169 14-10-2021 00:00:00 8.81667 C 8.36 g/m*3 8.82 C 3.33333 km/h
2170 14-10-2021 01:00:00 8.90833 C 8.41 g/m*3 8.91 C 3.21667 km/h
2171 14-10-2021 02:00:00 8.91667 C 8.42 g/m*3 8.92 C 1.6 km/h
2172 14-10-2021 03:00:00 8.84167 C 8.38 g/m*3 8.84 C 2.66667 km/h
2173 14-10-2021 04:00:00 8.95 C 8.41 g/m*3 8.95 C 4.94167 km/h
2174 14-10-2021 05:00:00 9.125 C 8.44 g/m*3 8.74 C 5.08333 km/h
2175 14-10-2021 06:00:00 9.26667 C 8.46 g/m*3 8.02 C 8.6 km/h
Sensor: Nr:Datum:Temp:Abs-Feuchte:Windchill:Wind:
Aussen-T/F 2176 14-10-2021 07:00:00 9.31667 C 8.43 g/m*3 8.57 C 6.44167 km/h
2177 14-10-2021 08:00:00 9.4 C 8.5 g/m*3 9.4 C 4.40833 km/h
2178 14-10-2021 09:00:00 9.65833 C 8.62 g/m*3 9.66 C 4.13333 km/h
2179 14-10-2021 10:00:00 10.625 C 8.8 g/m*3 9.57 C 8.89167 km/h
2180 14-10-2021 11:00:00 11.29167 C 9.01 g/m*3 11.29 C 6.83333 km/h
2181 14-10-2021 12:00:00 11.875 C 9.24 g/m*3 11.88 C 7.10833 km/h
2182 14-10-2021 13:00:00 12.96667 C 9.62 g/m*3 12.97 C 9.825 km/h
2183 14-10-2021 14:00:00 14.09167 C 10.08 g/m*3 14.09 C 8.33333 km/h
2184 14-10-2021 15:00:00 13.80833 C 10.22 g/m*3 13.81 C 4.69167 km/h
2185 14-10-2021 16:00:00 13.55 C 10.33 g/m*3 13.55 C 1.73333 km/h
2186 14-10-2021 17:00:00 13.5 C 10.38 g/m*3 13.5 C 1.73333 km/h
2187 14-10-2021 18:00:00 12.94167 C 10.17 g/m*3 12.94 C 3.06667 km/h
2188 14-10-2021 19:00:00 12.14167 C 9.86 g/m*3 12.14 C 2.8 km/h
2189 14-10-2021 20:00:00 11.775 C 9.78 g/m*3 11.78 C 2.53333 km/h
2190 14-10-2021 21:00:00 11.34167 C 9.55 g/m*3 11.34 C 1.6 km/h
2191 14-10-2021 22:00:00 10.53333 C 9.05 g/m*3 10.53 C 2.66667 km/h
2192 14-10-2021 23:00:00 9.525 C 8.53 g/m*3 9.53 C 1.73333 km/h

Maximal/Minimal-Werte vom 15.07.2021 - 14.10.2021

Sensor Min Max Avg
Temp
(Aussen-T/F)
4 °C
11-10-2021  03:35:00
30.6 °C
12-08-2021  18:25:00
16.01 °C
Abs-Feuchte
(Aussen-T/F)
6.14 g/m*3
11-10-2021  03:00:00
18.73 g/m*3
12-08-2021  18:00:00
11.84 g/m*3
Windchill
(Aussen-T/F)
4.2 C
11-10-2021  03:00:00
30.03 C
12-08-2021  18:00:00
16 C

Die Daten stammen von einer Davis Vantage Pro 2 Wetter-Station und werden unter Linux mit der Software wview2wettercgi und aufbereitet. Alle Angaben erfolgen ohne Gewähr für ihre Vollständigkeit oder Richtigkeit.
Kontakt: Rainer Krienke krienke@uni-koblenz.de . Meine Webseiten an der Uni Koblenz oder privat.
Version: $Revision: 0.78 $